<?xml version="1.0" encoding="UTF-8" standalone="no" ?>
<gpx xmlns="http://www.topografix.com/GPX/1/1" xmlns:xsi="http://www.w3.org/2001/XMLSchema-instance" xsi:schemaLocation="http://www.topografix.com/GPX/1/1 http://www.topografix.com/GPX/1/1/gpx.xsd" version="1.1" creator="VisuGPX - https://www.visugpx.com">
  <metadata>
    <name>La Printanière à Paulhiac(47) du 24 mars 2013</name>
    <desc><![CDATA[Une première moitié très roulante et une seconde bien plus cassante, tout cela sur des chemins superbes.]]></desc>
  </metadata>
  <trk>
    <name><![CDATA[24-MARS-13 11:44:45]]></name>
    <trkseg>
      <trkpt lat="44.56201" lon="0.81979">
        <ele>143.85</ele>
        <time>2013-03-24T07:55:30Z</time>
      </trkpt>
      <trkpt lat="44.56199" lon="0.81979">
        <ele>144.34</ele>
        <time>2013-03-24T07:55:39Z</time>
      </trkpt>
      <trkpt lat="44.56197" lon="0.81965">
        <ele>145.78</ele>
        <time>2013-03-24T07:55:48Z</time>
      </trkpt>
      <trkpt lat="44.56215" lon="0.81938">
        <ele>145.78</ele>
        <time>2013-03-24T07:55:59Z</time>
      </trkpt>
      <trkpt lat="44.5619" lon="0.81896">
        <ele>146.26</ele>
        <time>2013-03-24T07:56:12Z</time>
      </trkpt>
      <trkpt lat="44.56186" lon="0.81896">
        <ele>146.26</ele>
        <time>2013-03-24T07:56:13Z</time>
      </trkpt>
      <trkpt lat="44.56137" lon="0.81901">
        <ele>147.7</ele>
        <time>2013-03-24T07:56:28Z</time>
      </trkpt>
      <trkpt lat="44.56118" lon="0.81895">
        <ele>147.22</ele>
        <time>2013-03-24T07:56:39Z</time>
      </trkpt>
      <trkpt lat="44.56105" lon="0.81872">
        <ele>146.74</ele>
        <time>2013-03-24T07:56:47Z</time>
      </trkpt>
      <trkpt lat="44.56102" lon="0.81871">
        <ele>146.74</ele>
        <time>2013-03-24T07:56:48Z</time>
      </trkpt>
      <trkpt lat="44.56099" lon="0.81872">
        <ele>146.74</ele>
        <time>2013-03-24T07:56:49Z</time>
      </trkpt>
      <trkpt lat="44.56091" lon="0.8188">
        <ele>146.74</ele>
        <time>2013-03-24T07:56:54Z</time>
      </trkpt>
      <trkpt lat="44.56059" lon="0.81908">
        <ele>148.66</ele>
        <time>2013-03-24T07:57:09Z</time>
      </trkpt>
      <trkpt lat="44.56036" lon="0.81912">
        <ele>150.58</ele>
        <time>2013-03-24T07:57:24Z</time>
      </trkpt>
      <trkpt lat="44.56019" lon="0.81906">
        <ele>153.47</ele>
        <time>2013-03-24T07:57:36Z</time>
      </trkpt>
      <trkpt lat="44.55999" lon="0.81902">
        <ele>158.27</ele>
        <time>2013-03-24T07:57:51Z</time>
      </trkpt>
      <trkpt lat="44.55994" lon="0.819">
        <ele>160.2</ele>
        <time>2013-03-24T07:57:57Z</time>
      </trkpt>
      <trkpt lat="44.55976" lon="0.81913">
        <ele>163.08</ele>
        <time>2013-03-24T07:58:12Z</time>
      </trkpt>
      <trkpt lat="44.5596" lon="0.8192">
        <ele>167.89</ele>
        <time>2013-03-24T07:58:26Z</time>
      </trkpt>
      <trkpt lat="44.55946" lon="0.81922">
        <ele>174.14</ele>
        <time>2013-03-24T07:58:39Z</time>
      </trkpt>
      <trkpt lat="44.55941" lon="0.81922">
        <ele>175.1</ele>
        <time>2013-03-24T07:58:43Z</time>
      </trkpt>
      <trkpt lat="44.55938" lon="0.81923">
        <ele>175.58</ele>
        <time>2013-03-24T07:58:45Z</time>
      </trkpt>
      <trkpt lat="44.55934" lon="0.81924">
        <ele>176.06</ele>
        <time>2013-03-24T07:58:48Z</time>
      </trkpt>
      <trkpt lat="44.5592" lon="0.81927">
        <ele>178.94</ele>
        <time>2013-03-24T07:59:01Z</time>
      </trkpt>
      <trkpt lat="44.55902" lon="0.81927">
        <ele>180.38</ele>
        <time>2013-03-24T07:59:17Z</time>
      </trkpt>
      <trkpt lat="44.559" lon="0.81929">
        <ele>174.14</ele>
        <time>2013-03-24T07:59:40Z</time>
      </trkpt>
      <trkpt lat="44.55897" lon="0.81928">
        <ele>174.14</ele>
        <time>2013-03-24T07:59:55Z</time>
      </trkpt>
      <trkpt lat="44.5589" lon="0.81925">
        <ele>174.14</ele>
        <time>2013-03-24T08:00:08Z</time>
      </trkpt>
      <trkpt lat="44.55888" lon="0.81921">
        <ele>175.1</ele>
        <time>2013-03-24T08:00:21Z</time>
      </trkpt>
      <trkpt lat="44.55886" lon="0.81916">
        <ele>175.58</ele>
        <time>2013-03-24T08:00:30Z</time>
      </trkpt>
      <trkpt lat="44.55888" lon="0.81913">
        <ele>177.02</ele>
        <time>2013-03-24T08:00:38Z</time>
      </trkpt>
      <trkpt lat="44.5589" lon="0.81899">
        <ele>179.42</ele>
        <time>2013-03-24T08:00:47Z</time>
      </trkpt>
      <trkpt lat="44.55897" lon="0.81871">
        <ele>183.27</ele>
        <time>2013-03-24T08:01:03Z</time>
      </trkpt>
      <trkpt lat="44.55897" lon="0.81869">
        <ele>182.79</ele>
        <time>2013-03-24T08:01:06Z</time>
      </trkpt>
      <trkpt lat="44.55897" lon="0.81833">
        <ele>181.35</ele>
        <time>2013-03-24T08:01:14Z</time>
      </trkpt>
      <trkpt lat="44.55898" lon="0.81827">
        <ele>180.38</ele>
        <time>2013-03-24T08:01:15Z</time>
      </trkpt>
      <trkpt lat="44.55899" lon="0.8182">
        <ele>179.9</ele>
        <time>2013-03-24T08:01:16Z</time>
      </trkpt>
      <trkpt lat="44.55901" lon="0.81814">
        <ele>178.94</ele>
        <time>2013-03-24T08:01:17Z</time>
      </trkpt>
      <trkpt lat="44.55903" lon="0.81807">
        <ele>177.98</ele>
        <time>2013-03-24T08:01:18Z</time>
      </trkpt>
      <trkpt lat="44.55917" lon="0.81772">
        <ele>173.17</ele>
        <time>2013-03-24T08:01:26Z</time>
      </trkpt>
      <trkpt lat="44.55916" lon="0.81768">
        <ele>172.69</ele>
        <time>2013-03-24T08:01:27Z</time>
      </trkpt>
      <trkpt lat="44.55913" lon="0.81764">
        <ele>172.21</ele>
        <time>2013-03-24T08:01:28Z</time>
      </trkpt>
      <trkpt lat="44.55901" lon="0.81746">
        <ele>168.85</ele>
        <time>2013-03-24T08:01:31Z</time>
      </trkpt>
      <trkpt lat="44.55865" lon="0.81726">
        <ele>160.68</ele>
        <time>2013-03-24T08:01:39Z</time>
      </trkpt>
      <trkpt lat="44.55862" lon="0.81726">
        <ele>159.72</ele>
        <time>2013-03-24T08:01:40Z</time>
      </trkpt>
      <trkpt lat="44.55844" lon="0.81718">
        <ele>154.91</ele>
        <time>2013-03-24T08:01:45Z</time>
      </trkpt>
      <trkpt lat="44.55847" lon="0.81677">
        <ele>145.78</ele>
        <time>2013-03-24T08:01:54Z</time>
      </trkpt>
      <trkpt lat="44.55876" lon="0.81631">
        <ele>141.93</ele>
        <time>2013-03-24T08:02:02Z</time>
      </trkpt>
      <trkpt lat="44.55909" lon="0.8157">
        <ele>139.05</ele>
        <time>2013-03-24T08:02:14Z</time>
      </trkpt>
      <trkpt lat="44.55912" lon="0.81569">
        <ele>139.05</ele>
        <time>2013-03-24T08:02:15Z</time>
      </trkpt>
      <trkpt lat="44.55916" lon="0.8157">
        <ele>138.57</ele>
        <time>2013-03-24T08:02:16Z</time>
      </trkpt>
      <trkpt lat="44.55919" lon="0.81574">
        <ele>139.05</ele>
        <time>2013-03-24T08:02:17Z</time>
      </trkpt>
      <trkpt lat="44.55936" lon="0.81591">
        <ele>140.49</ele>
        <time>2013-03-24T08:02:22Z</time>
      </trkpt>
      <trkpt lat="44.55939" lon="0.81595">
        <ele>140.97</ele>
        <time>2013-03-24T08:02:23Z</time>
      </trkpt>
      <trkpt lat="44.55943" lon="0.81598">
        <ele>141.45</ele>
        <time>2013-03-24T08:02:24Z</time>
      </trkpt>
      <trkpt lat="44.55993" lon="0.81654">
        <ele>146.74</ele>
        <time>2013-03-24T08:02:41Z</time>
      </trkpt>
      <trkpt lat="44.56028" lon="0.81719">
        <ele>149.62</ele>
        <time>2013-03-24T08:02:56Z</time>
      </trkpt>
      <trkpt lat="44.56054" lon="0.81758">
        <ele>149.62</ele>
        <time>2013-03-24T08:03:04Z</time>
      </trkpt>
      <trkpt lat="44.56057" lon="0.81763">
        <ele>149.14</ele>
        <time>2013-03-24T08:03:05Z</time>
      </trkpt>
      <trkpt lat="44.5606" lon="0.81769">
        <ele>149.14</ele>
        <time>2013-03-24T08:03:06Z</time>
      </trkpt>
      <trkpt lat="44.56102" lon="0.81867">
        <ele>146.26</ele>
        <time>2013-03-24T08:03:19Z</time>
      </trkpt>
      <trkpt lat="44.56105" lon="0.81876">
        <ele>146.26</ele>
        <time>2013-03-24T08:03:20Z</time>
      </trkpt>
      <trkpt lat="44.56108" lon="0.81885">
        <ele>146.26</ele>
        <time>2013-03-24T08:03:21Z</time>
      </trkpt>
      <trkpt lat="44.56112" lon="0.81893">
        <ele>145.78</ele>
        <time>2013-03-24T08:03:22Z</time>
      </trkpt>
      <trkpt lat="44.56115" lon="0.81902">
        <ele>145.78</ele>
        <time>2013-03-24T08:03:23Z</time>
      </trkpt>
      <trkpt lat="44.56118" lon="0.8191">
        <ele>145.78</ele>
        <time>2013-03-24T08:03:24Z</time>
      </trkpt>
      <trkpt lat="44.56129" lon="0.81945">
        <ele>146.26</ele>
        <time>2013-03-24T08:03:28Z</time>
      </trkpt>
      <trkpt lat="44.56133" lon="0.81953">
        <ele>146.26</ele>
        <time>2013-03-24T08:03:29Z</time>
      </trkpt>
      <trkpt lat="44.56141" lon="0.81968">
        <ele>146.74</ele>
        <time>2013-03-24T08:03:31Z</time>
      </trkpt>
      <trkpt lat="44.56143" lon="0.81977">
        <ele>146.26</ele>
        <time>2013-03-24T08:03:32Z</time>
      </trkpt>
      <trkpt lat="44.56146" lon="0.81995">
        <ele>146.26</ele>
        <time>2013-03-24T08:03:34Z</time>
      </trkpt>
      <trkpt lat="44.56149" lon="0.82003">
        <ele>146.26</ele>
        <time>2013-03-24T08:03:35Z</time>
      </trkpt>
      <trkpt lat="44.5617" lon="0.8204">
        <ele>145.78</ele>
        <time>2013-03-24T08:03:40Z</time>
      </trkpt>
      <trkpt lat="44.56173" lon="0.82048">
        <ele>145.78</ele>
        <time>2013-03-24T08:03:41Z</time>
      </trkpt>
      <trkpt lat="44.56178" lon="0.82055">
        <ele>145.78</ele>
        <time>2013-03-24T08:03:42Z</time>
      </trkpt>
      <trkpt lat="44.56183" lon="0.82061">
        <ele>145.3</ele>
        <time>2013-03-24T08:03:43Z</time>
      </trkpt>
      <trkpt lat="44.56189" lon="0.82067">
        <ele>145.3</ele>
        <time>2013-03-24T08:03:44Z</time>
      </trkpt>
      <trkpt lat="44.56194" lon="0.82074">
        <ele>145.3</ele>
        <time>2013-03-24T08:03:45Z</time>
      </trkpt>
      <trkpt lat="44.56199" lon="0.82082">
        <ele>144.82</ele>
        <time>2013-03-24T08:03:46Z</time>
      </trkpt>
      <trkpt lat="44.56208" lon="0.82099">
        <ele>144.82</ele>
        <time>2013-03-24T08:03:48Z</time>
      </trkpt>
      <trkpt lat="44.56213" lon="0.82107">
        <ele>144.82</ele>
        <time>2013-03-24T08:03:49Z</time>
      </trkpt>
      <trkpt lat="44.56305" lon="0.82217">
        <ele>140.01</ele>
        <time>2013-03-24T08:04:03Z</time>
      </trkpt>
      <trkpt lat="44.56383" lon="0.82336">
        <ele>140.49</ele>
        <time>2013-03-24T08:04:16Z</time>
      </trkpt>
      <trkpt lat="44.56419" lon="0.82385">
        <ele>141.93</ele>
        <time>2013-03-24T08:04:22Z</time>
      </trkpt>
      <trkpt lat="44.56475" lon="0.82456">
        <ele>146.74</ele>
        <time>2013-03-24T08:04:32Z</time>
      </trkpt>
      <trkpt lat="44.56481" lon="0.82461">
        <ele>146.74</ele>
        <time>2013-03-24T08:04:33Z</time>
      </trkpt>
      <trkpt lat="44.56515" lon="0.82491">
        <ele>145.3</ele>
        <time>2013-03-24T08:04:38Z</time>
      </trkpt>
      <trkpt lat="44.56522" lon="0.82498">
        <ele>145.3</ele>
        <time>2013-03-24T08:04:39Z</time>
      </trkpt>
      <trkpt lat="44.56528" lon="0.82507">
        <ele>144.82</ele>
        <time>2013-03-24T08:04:40Z</time>
      </trkpt>
      <trkpt lat="44.56544" lon="0.82536">
        <ele>144.34</ele>
        <time>2013-03-24T08:04:43Z</time>
      </trkpt>
      <trkpt lat="44.56548" lon="0.82546">
        <ele>144.34</ele>
        <time>2013-03-24T08:04:44Z</time>
      </trkpt>
      <trkpt lat="44.56551" lon="0.82557">
        <ele>144.34</ele>
        <time>2013-03-24T08:04:45Z</time>
      </trkpt>
      <trkpt lat="44.56583" lon="0.82692">
        <ele>144.34</ele>
        <time>2013-03-24T08:04:58Z</time>
      </trkpt>
      <trkpt lat="44.56593" lon="0.82735">
        <ele>144.82</ele>
        <time>2013-03-24T08:05:03Z</time>
      </trkpt>
      <trkpt lat="44.56606" lon="0.8281">
        <ele>143.85</ele>
        <time>2013-03-24T08:05:14Z</time>
      </trkpt>
      <trkpt lat="44.56607" lon="0.8287">
        <ele>143.85</ele>
        <time>2013-03-24T08:05:21Z</time>
      </trkpt>
      <trkpt lat="44.56633" lon="0.82991">
        <ele>144.34</ele>
        <time>2013-03-24T08:05:34Z</time>
      </trkpt>
      <trkpt lat="44.56637" lon="0.82999">
        <ele>144.34</ele>
        <time>2013-03-24T08:05:35Z</time>
      </trkpt>
      <trkpt lat="44.56645" lon="0.83014">
        <ele>144.34</ele>
        <time>2013-03-24T08:05:37Z</time>
      </trkpt>
      <trkpt lat="44.56663" lon="0.83061">
        <ele>144.82</ele>
        <time>2013-03-24T08:05:43Z</time>
      </trkpt>
      <trkpt lat="44.56666" lon="0.8307">
        <ele>144.82</ele>
        <time>2013-03-24T08:05:44Z</time>
      </trkpt>
      <trkpt lat="44.56669" lon="0.83078">
        <ele>144.82</ele>
        <time>2013-03-24T08:05:45Z</time>
      </trkpt>
      <trkpt lat="44.56673" lon="0.83087">
        <ele>145.3</ele>
        <time>2013-03-24T08:05:46Z</time>
      </trkpt>
      <trkpt lat="44.56676" lon="0.83096">
        <ele>145.3</ele>
        <time>2013-03-24T08:05:47Z</time>
      </trkpt>
      <trkpt lat="44.56679" lon="0.83104">
        <ele>145.3</ele>
        <time>2013-03-24T08:05:48Z</time>
      </trkpt>
      <trkpt lat="44.56716" lon="0.83206">
        <ele>147.7</ele>
        <time>2013-03-24T08:06:02Z</time>
      </trkpt>
      <trkpt lat="44.56719" lon="0.8321">
        <ele>147.7</ele>
        <time>2013-03-24T08:06:03Z</time>
      </trkpt>
      <trkpt lat="44.56722" lon="0.8321">
        <ele>147.7</ele>
        <time>2013-03-24T08:06:04Z</time>
      </trkpt>
      <trkpt lat="44.56727" lon="0.83209">
        <ele>147.7</ele>
        <time>2013-03-24T08:06:05Z</time>
      </trkpt>
      <trkpt lat="44.56731" lon="0.83207">
        <ele>147.7</ele>
        <time>2013-03-24T08:06:06Z</time>
      </trkpt>
      <trkpt lat="44.56736" lon="0.83205">
        <ele>147.7</ele>
        <time>2013-03-24T08:06:07Z</time>
      </trkpt>
      <trkpt lat="44.56807" lon="0.83174">
        <ele>147.7</ele>
        <time>2013-03-24T08:06:20Z</time>
      </trkpt>
      <trkpt lat="44.56886" lon="0.8314">
        <ele>145.3</ele>
        <time>2013-03-24T08:06:33Z</time>
      </trkpt>
      <trkpt lat="44.56892" lon="0.83137">
        <ele>145.3</ele>
        <time>2013-03-24T08:06:34Z</time>
      </trkpt>
      <trkpt lat="44.56967" lon="0.83068">
        <ele>142.89</ele>
        <time>2013-03-24T08:06:46Z</time>
      </trkpt>
      <trkpt lat="44.56973" lon="0.83062">
        <ele>142.89</ele>
        <time>2013-03-24T08:06:47Z</time>
      </trkpt>
      <trkpt lat="44.57055" lon="0.82966">
        <ele>147.7</ele>
        <time>2013-03-24T08:07:03Z</time>
      </trkpt>
      <trkpt lat="44.57132" lon="0.82893">
        <ele>146.74</ele>
        <time>2013-03-24T08:07:16Z</time>
      </trkpt>
      <trkpt lat="44.57213" lon="0.8282">
        <ele>144.82</ele>
        <time>2013-03-24T08:07:29Z</time>
      </trkpt>
      <trkpt lat="44.57301" lon="0.82746">
        <ele>140.49</ele>
        <time>2013-03-24T08:07:42Z</time>
      </trkpt>
      <trkpt lat="44.57315" lon="0.82731">
        <ele>140.01</ele>
        <time>2013-03-24T08:07:44Z</time>
      </trkpt>
      <trkpt lat="44.57321" lon="0.82722">
        <ele>139.53</ele>
        <time>2013-03-24T08:07:45Z</time>
      </trkpt>
      <trkpt lat="44.57326" lon="0.82712">
        <ele>138.57</ele>
        <time>2013-03-24T08:07:46Z</time>
      </trkpt>
      <trkpt lat="44.5733" lon="0.82701">
        <ele>138.09</ele>
        <time>2013-03-24T08:07:47Z</time>
      </trkpt>
      <trkpt lat="44.57334" lon="0.82689">
        <ele>137.61</ele>
        <time>2013-03-24T08:07:48Z</time>
      </trkpt>
      <trkpt lat="44.57338" lon="0.82678">
        <ele>137.13</ele>
        <time>2013-03-24T08:07:49Z</time>
      </trkpt>
      <trkpt lat="44.57408" lon="0.82594">
        <ele>131.36</ele>
        <time>2013-03-24T08:07:59Z</time>
      </trkpt>
      <trkpt lat="44.57415" lon="0.82589">
        <ele>130.88</ele>
        <time>2013-03-24T08:08:00Z</time>
      </trkpt>
      <trkpt lat="44.57461" lon="0.82571">
        <ele>126.55</ele>
        <time>2013-03-24T08:08:06Z</time>
      </trkpt>
      <trkpt lat="44.57488" lon="0.82535">
        <ele>121.26</ele>
        <time>2013-03-24T08:08:11Z</time>
      </trkpt>
      <trkpt lat="44.57531" lon="0.82508">
        <ele>113.57</ele>
        <time>2013-03-24T08:08:18Z</time>
      </trkpt>
      <trkpt lat="44.57552" lon="0.82531">
        <ele>110.69</ele>
        <time>2013-03-24T08:08:22Z</time>
      </trkpt>
      <trkpt lat="44.57581" lon="0.82588">
        <ele>112.61</ele>
        <time>2013-03-24T08:08:30Z</time>
      </trkpt>
      <trkpt lat="44.57614" lon="0.82649">
        <ele>122.22</ele>
        <time>2013-03-24T08:08:44Z</time>
      </trkpt>
      <trkpt lat="44.57634" lon="0.82664">
        <ele>125.59</ele>
        <time>2013-03-24T08:08:50Z</time>
      </trkpt>
      <trkpt lat="44.57646" lon="0.82659">
        <ele>127.51</ele>
        <time>2013-03-24T08:08:54Z</time>
      </trkpt>
      <trkpt lat="44.57689" lon="0.82593">
        <ele>128.95</ele>
        <time>2013-03-24T08:09:11Z</time>
      </trkpt>
      <trkpt lat="44.57706" lon="0.82594">
        <ele>129.92</ele>
        <time>2013-03-24T08:09:16Z</time>
      </trkpt>
      <trkpt lat="44.57748" lon="0.82606">
        <ele>136.16</ele>
        <time>2013-03-24T08:09:29Z</time>
      </trkpt>
      <trkpt lat="44.57794" lon="0.82596">
        <ele>137.61</ele>
        <time>2013-03-24T08:09:41Z</time>
      </trkpt>
      <trkpt lat="44.57859" lon="0.82539">
        <ele>142.41</ele>
        <time>2013-03-24T08:09:58Z</time>
      </trkpt>
      <trkpt lat="44.5791" lon="0.82496">
        <ele>144.34</ele>
        <time>2013-03-24T08:10:12Z</time>
      </trkpt>
      <trkpt lat="44.57958" lon="0.82466">
        <ele>146.26</ele>
        <time>2013-03-24T08:10:25Z</time>
      </trkpt>
      <trkpt lat="44.57978" lon="0.82462">
        <ele>146.74</ele>
        <time>2013-03-24T08:10:30Z</time>
      </trkpt>
      <trkpt lat="44.57982" lon="0.82463">
        <ele>146.74</ele>
        <time>2013-03-24T08:10:31Z</time>
      </trkpt>
      <trkpt lat="44.58005" lon="0.82472">
        <ele>148.66</ele>
        <time>2013-03-24T08:10:38Z</time>
      </trkpt>
      <trkpt lat="44.58008" lon="0.82471">
        <ele>148.66</ele>
        <time>2013-03-24T08:10:39Z</time>
      </trkpt>
      <trkpt lat="44.58009" lon="0.82468">
        <ele>148.18</ele>
        <time>2013-03-24T08:10:40Z</time>
      </trkpt>
      <trkpt lat="44.58012" lon="0.82416">
        <ele>146.26</ele>
        <time>2013-03-24T08:10:49Z</time>
      </trkpt>
      <trkpt lat="44.58005" lon="0.82296">
        <ele>141.45</ele>
        <time>2013-03-24T08:11:04Z</time>
      </trkpt>
      <trkpt lat="44.58006" lon="0.82149">
        <ele>140.01</ele>
        <time>2013-03-24T08:11:19Z</time>
      </trkpt>
      <trkpt lat="44.58046" lon="0.81949">
        <ele>140.97</ele>
        <time>2013-03-24T08:11:41Z</time>
      </trkpt>
      <trkpt lat="44.58082" lon="0.81795">
        <ele>145.3</ele>
        <time>2013-03-24T08:11:59Z</time>
      </trkpt>
      <trkpt lat="44.58086" lon="0.81791">
        <ele>145.78</ele>
        <time>2013-03-24T08:12:00Z</time>
      </trkpt>
      <trkpt lat="44.5809" lon="0.8179">
        <ele>145.78</ele>
        <time>2013-03-24T08:12:01Z</time>
      </trkpt>
      <trkpt lat="44.58094" lon="0.81791">
        <ele>145.78</ele>
        <time>2013-03-24T08:12:02Z</time>
      </trkpt>
      <trkpt lat="44.58099" lon="0.81794">
        <ele>145.3</ele>
        <time>2013-03-24T08:12:03Z</time>
      </trkpt>
      <trkpt lat="44.58105" lon="0.818">
        <ele>144.34</ele>
        <time>2013-03-24T08:12:04Z</time>
      </trkpt>
      <trkpt lat="44.58112" lon="0.81806">
        <ele>143.37</ele>
        <time>2013-03-24T08:12:05Z</time>
      </trkpt>
      <trkpt lat="44.58148" lon="0.81835">
        <ele>138.09</ele>
        <time>2013-03-24T08:12:10Z</time>
      </trkpt>
      <trkpt lat="44.58154" lon="0.81835">
        <ele>137.61</ele>
        <time>2013-03-24T08:12:11Z</time>
      </trkpt>
      <trkpt lat="44.58161" lon="0.81832">
        <ele>137.13</ele>
        <time>2013-03-24T08:12:12Z</time>
      </trkpt>
      <trkpt lat="44.58166" lon="0.81825">
        <ele>136.64</ele>
        <time>2013-03-24T08:12:13Z</time>
      </trkpt>
      <trkpt lat="44.5817" lon="0.81815">
        <ele>136.16</ele>
        <time>2013-03-24T08:12:14Z</time>
      </trkpt>
      <trkpt lat="44.58175" lon="0.81806">
        <ele>135.68</ele>
        <time>2013-03-24T08:12:15Z</time>
      </trkpt>
      <trkpt lat="44.58179" lon="0.81796">
        <ele>135.2</ele>
        <time>2013-03-24T08:12:16Z</time>
      </trkpt>
      <trkpt lat="44.5819" lon="0.81779">
        <ele>135.2</ele>
        <time>2013-03-24T08:12:18Z</time>
      </trkpt>
      <trkpt lat="44.5827" lon="0.81666">
        <ele>134.24</ele>
        <time>2013-03-24T08:12:33Z</time>
      </trkpt>
      <trkpt lat="44.58279" lon="0.8165">
        <ele>133.76</ele>
        <time>2013-03-24T08:12:35Z</time>
      </trkpt>
      <trkpt lat="44.58328" lon="0.81587">
        <ele>131.36</ele>
        <time>2013-03-24T08:12:44Z</time>
      </trkpt>
      <trkpt lat="44.58333" lon="0.81582">
        <ele>130.88</ele>
        <time>2013-03-24T08:12:45Z</time>
      </trkpt>
      <trkpt lat="44.58338" lon="0.81576">
        <ele>130.88</ele>
        <time>2013-03-24T08:12:46Z</time>
      </trkpt>
      <trkpt lat="44.58376" lon="0.81537">
        <ele>129.92</ele>
        <time>2013-03-24T08:12:53Z</time>
      </trkpt>
      <trkpt lat="44.58402" lon="0.81522">
        <ele>129.43</ele>
        <time>2013-03-24T08:12:57Z</time>
      </trkpt>
      <trkpt lat="44.58414" lon="0.81513">
        <ele>128.95</ele>
        <time>2013-03-24T08:12:59Z</time>
      </trkpt>
      <trkpt lat="44.58449" lon="0.81502">
        <ele>127.03</ele>
        <time>2013-03-24T08:13:06Z</time>
      </trkpt>
      <trkpt lat="44.58474" lon="0.81484">
        <ele>123.67</ele>
        <time>2013-03-24T08:13:10Z</time>
      </trkpt>
      <trkpt lat="44.58504" lon="0.81463">
        <ele>119.82</ele>
        <time>2013-03-24T08:13:14Z</time>
      </trkpt>
      <trkpt lat="44.58529" lon="0.81434">
        <ele>116.94</ele>
        <time>2013-03-24T08:13:18Z</time>
      </trkpt>
      <trkpt lat="44.5854" lon="0.81414">
        <ele>115.5</ele>
        <time>2013-03-24T08:13:20Z</time>
      </trkpt>
      <trkpt lat="44.58564" lon="0.8138">
        <ele>112.13</ele>
        <time>2013-03-24T08:13:24Z</time>
      </trkpt>
      <trkpt lat="44.58582" lon="0.81349">
        <ele>109.73</ele>
        <time>2013-03-24T08:13:28Z</time>
      </trkpt>
      <trkpt lat="44.58601" lon="0.81347">
        <ele>106.36</ele>
        <time>2013-03-24T08:13:35Z</time>
      </trkpt>
      <trkpt lat="44.58603" lon="0.81352">
        <ele>105.88</ele>
        <time>2013-03-24T08:13:36Z</time>
      </trkpt>
      <trkpt lat="44.58623" lon="0.81396">
        <ele>103.96</ele>
        <time>2013-03-24T08:13:42Z</time>
      </trkpt>
      <trkpt lat="44.5864" lon="0.81413">
        <ele>102.52</ele>
        <time>2013-03-24T08:13:46Z</time>
      </trkpt>
      <trkpt lat="44.58655" lon="0.81414">
        <ele>102.04</ele>
        <time>2013-03-24T08:13:49Z</time>
      </trkpt>
      <trkpt lat="44.58675" lon="0.81422">
        <ele>102.04</ele>
        <time>2013-03-24T08:13:53Z</time>
      </trkpt>
      <trkpt lat="44.58687" lon="0.81433">
        <ele>102.04</ele>
        <time>2013-03-24T08:13:56Z</time>
      </trkpt>
      <trkpt lat="44.58696" lon="0.81449">
        <ele>102.04</ele>
        <time>2013-03-24T08:13:59Z</time>
      </trkpt>
      <trkpt lat="44.587" lon="0.81454">
        <ele>102.04</ele>
        <time>2013-03-24T08:14:00Z</time>
      </trkpt>
      <trkpt lat="44.58704" lon="0.81456">
        <ele>101.56</ele>
        <time>2013-03-24T08:14:01Z</time>
      </trkpt>
      <trkpt lat="44.5871" lon="0.81457">
        <ele>101.56</ele>
        <time>2013-03-24T08:14:02Z</time>
      </trkpt>
      <trkpt lat="44.58716" lon="0.81458">
        <ele>101.08</ele>
        <time>2013-03-24T08:14:03Z</time>
      </trkpt>
      <trkpt lat="44.58722" lon="0.8146">
        <ele>100.6</ele>
        <time>2013-03-24T08:14:04Z</time>
      </trkpt>
      <trkpt lat="44.58728" lon="0.81465">
        <ele>100.11</ele>
        <time>2013-03-24T08:14:05Z</time>
      </trkpt>
      <trkpt lat="44.58733" lon="0.8147">
        <ele>99.63</ele>
        <time>2013-03-24T08:14:06Z</time>
      </trkpt>
      <trkpt lat="44.58739" lon="0.81474">
        <ele>99.63</ele>
        <time>2013-03-24T08:14:07Z</time>
      </trkpt>
      <trkpt lat="44.58744" lon="0.81478">
        <ele>99.63</ele>
        <time>2013-03-24T08:14:08Z</time>
      </trkpt>
      <trkpt lat="44.5875" lon="0.81483">
        <ele>99.63</ele>
        <time>2013-03-24T08:14:09Z</time>
      </trkpt>
      <trkpt lat="44.58755" lon="0.81489">
        <ele>99.63</ele>
        <time>2013-03-24T08:14:10Z</time>
      </trkpt>
      <trkpt lat="44.58759" lon="0.81494">
        <ele>99.63</ele>
        <time>2013-03-24T08:14:11Z</time>
      </trkpt>
      <trkpt lat="44.58809" lon="0.81546">
        <ele>100.6</ele>
        <time>2013-03-24T08:14:22Z</time>
      </trkpt>
      <trkpt lat="44.58813" lon="0.81546">
        <ele>100.6</ele>
        <time>2013-03-24T08:14:23Z</time>
      </trkpt>
      <trkpt lat="44.58816" lon="0.81542">
        <ele>100.6</ele>
        <time>2013-03-24T08:14:24Z</time>
      </trkpt>
      <trkpt lat="44.58819" lon="0.81537">
        <ele>100.6</ele>
        <time>2013-03-24T08:14:25Z</time>
      </trkpt>
      <trkpt lat="44.58823" lon="0.81531">
        <ele>100.6</ele>
        <time>2013-03-24T08:14:26Z</time>
      </trkpt>
      <trkpt lat="44.58835" lon="0.81513">
        <ele>100.11</ele>
        <time>2013-03-24T08:14:29Z</time>
      </trkpt>
      <trkpt lat="44.5884" lon="0.8151">
        <ele>100.11</ele>
        <time>2013-03-24T08:14:30Z</time>
      </trkpt>
      <trkpt lat="44.58845" lon="0.81509">
        <ele>100.11</ele>
        <time>2013-03-24T08:14:31Z</time>
      </trkpt>
      <trkpt lat="44.5885" lon="0.81511">
        <ele>100.11</ele>
        <time>2013-03-24T08:14:32Z</time>
      </trkpt>
      <trkpt lat="44.58855" lon="0.81514">
        <ele>100.11</ele>
        <time>2013-03-24T08:14:33Z</time>
      </trkpt>
      <trkpt lat="44.58861" lon="0.81518">
        <ele>100.11</ele>
        <time>2013-03-24T08:14:34Z</time>
      </trkpt>
      <trkpt lat="44.58866" lon="0.81523">
        <ele>100.11</ele>
        <time>2013-03-24T08:14:35Z</time>
      </trkpt>
      <trkpt lat="44.58871" lon="0.81527">
        <ele>99.63</ele>
        <time>2013-03-24T08:14:36Z</time>
      </trkpt>
      <trkpt lat="44.58892" lon="0.81543">
        <ele>100.11</ele>
        <time>2013-03-24T08:14:40Z</time>
      </trkpt>
      <trkpt lat="44.58898" lon="0.81545">
        <ele>100.11</ele>
        <time>2013-03-24T08:14:41Z</time>
      </trkpt>
      <trkpt lat="44.58904" lon="0.81547">
        <ele>100.6</ele>
        <time>2013-03-24T08:14:42Z</time>
      </trkpt>
      <trkpt lat="44.59008" lon="0.81567">
        <ele>101.08</ele>
        <time>2013-03-24T08:14:59Z</time>
      </trkpt>
      <trkpt lat="44.59091" lon="0.81589">
        <ele>99.63</ele>
        <time>2013-03-24T08:15:12Z</time>
      </trkpt>
      <trkpt lat="44.59101" lon="0.81597">
        <ele>100.11</ele>
        <time>2013-03-24T08:15:14Z</time>
      </trkpt>
      <trkpt lat="44.59106" lon="0.81602">
        <ele>100.11</ele>
        <time>2013-03-24T08:15:15Z</time>
      </trkpt>
      <trkpt lat="44.59111" lon="0.81607">
        <ele>100.11</ele>
        <time>2013-03-24T08:15:16Z</time>
      </trkpt>
      <trkpt lat="44.59184" lon="0.81667">
        <ele>100.6</ele>
        <time>2013-03-24T08:15:31Z</time>
      </trkpt>
      <trkpt lat="44.59189" lon="0.81671">
        <ele>100.6</ele>
        <time>2013-03-24T08:15:32Z</time>
      </trkpt>
      <trkpt lat="44.59193" lon="0.81677">
        <ele>100.6</ele>
        <time>2013-03-24T08:15:33Z</time>
      </trkpt>
      <trkpt lat="44.59196" lon="0.81683">
        <ele>100.6</ele>
        <time>2013-03-24T08:15:34Z</time>
      </trkpt>
      <trkpt lat="44.592" lon="0.81688">
        <ele>100.6</ele>
        <time>2013-03-24T08:15:35Z</time>
      </trkpt>
      <trkpt lat="44.59208" lon="0.81699">
        <ele>100.6</ele>
        <time>2013-03-24T08:15:37Z</time>
      </trkpt>
      <trkpt lat="44.59213" lon="0.81702">
        <ele>100.6</ele>
        <time>2013-03-24T08:15:38Z</time>
      </trkpt>
      <trkpt lat="44.59218" lon="0.81703">
        <ele>100.6</ele>
        <time>2013-03-24T08:15:39Z</time>
      </trkpt>
      <trkpt lat="44.59229" lon="0.81705">
        <ele>100.6</ele>
        <time>2013-03-24T08:15:41Z</time>
      </trkpt>
      <trkpt lat="44.59234" lon="0.81707">
        <ele>100.6</ele>
        <time>2013-03-24T08:15:42Z</time>
      </trkpt>
      <trkpt lat="44.59238" lon="0.8171">
        <ele>100.6</ele>
        <time>2013-03-24T08:15:43Z</time>
      </trkpt>
      <trkpt lat="44.59303" lon="0.81755">
        <ele>103.96</ele>
        <time>2013-03-24T08:15:58Z</time>
      </trkpt>
      <trkpt lat="44.59383" lon="0.81803">
        <ele>103.48</ele>
        <time>2013-03-24T08:16:15Z</time>
      </trkpt>
      <trkpt lat="44.59406" lon="0.81816">
        <ele>103.48</ele>
        <time>2013-03-24T08:16:20Z</time>
      </trkpt>
      <trkpt lat="44.59419" lon="0.81826">
        <ele>103</ele>
        <time>2013-03-24T08:16:24Z</time>
      </trkpt>
      <trkpt lat="44.59419" lon="0.81831">
        <ele>103</ele>
        <time>2013-03-24T08:16:25Z</time>
      </trkpt>
      <trkpt lat="44.59418" lon="0.81836">
        <ele>103</ele>
        <time>2013-03-24T08:16:26Z</time>
      </trkpt>
      <trkpt lat="44.59414" lon="0.81848">
        <ele>103.48</ele>
        <time>2013-03-24T08:16:28Z</time>
      </trkpt>
      <trkpt lat="44.59411" lon="0.81854">
        <ele>103.48</ele>
        <time>2013-03-24T08:16:29Z</time>
      </trkpt>
      <trkpt lat="44.59408" lon="0.8186">
        <ele>103.96</ele>
        <time>2013-03-24T08:16:30Z</time>
      </trkpt>
      <trkpt lat="44.59402" lon="0.81873">
        <ele>104.44</ele>
        <time>2013-03-24T08:16:32Z</time>
      </trkpt>
      <trkpt lat="44.59353" lon="0.81934">
        <ele>111.17</ele>
        <time>2013-03-24T08:16:47Z</time>
      </trkpt>
      <trkpt lat="44.59322" lon="0.81962">
        <ele>115.01</ele>
        <time>2013-03-24T08:16:57Z</time>
      </trkpt>
      <trkpt lat="44.59318" lon="0.81965">
        <ele>115.01</ele>
        <time>2013-03-24T08:16:58Z</time>
      </trkpt>
      <trkpt lat="44.59253" lon="0.81991">
        <ele>115.01</ele>
        <time>2013-03-24T08:17:11Z</time>
      </trkpt>
      <trkpt lat="44.59239" lon="0.81995">
        <ele>115.01</ele>
        <time>2013-03-24T08:17:14Z</time>
      </trkpt>
      <trkpt lat="44.59234" lon="0.81997">
        <ele>115.5</ele>
        <time>2013-03-24T08:17:15Z</time>
      </trkpt>
      <trkpt lat="44.5923" lon="0.82001">
        <ele>115.5</ele>
        <time>2013-03-24T08:17:16Z</time>
      </trkpt>
      <trkpt lat="44.59169" lon="0.82057">
        <ele>117.9</ele>
        <time>2013-03-24T08:17:31Z</time>
      </trkpt>
      <trkpt lat="44.59168" lon="0.82063">
        <ele>117.9</ele>
        <time>2013-03-24T08:17:32Z</time>
      </trkpt>
      <trkpt lat="44.59168" lon="0.82069">
        <ele>117.9</ele>
        <time>2013-03-24T08:17:33Z</time>
      </trkpt>
      <trkpt lat="44.59171" lon="0.82074">
        <ele>117.9</ele>
        <time>2013-03-24T08:17:34Z</time>
      </trkpt>
      <trkpt lat="44.59174" lon="0.8208">
        <ele>117.9</ele>
        <time>2013-03-24T08:17:35Z</time>
      </trkpt>
      <trkpt lat="44.59177" lon="0.82084">
        <ele>117.42</ele>
        <time>2013-03-24T08:17:36Z</time>
      </trkpt>
      <trkpt lat="44.59181" lon="0.82089">
        <ele>117.42</ele>
        <time>2013-03-24T08:17:37Z</time>
      </trkpt>
      <trkpt lat="44.59184" lon="0.82092">
        <ele>117.42</ele>
        <time>2013-03-24T08:17:38Z</time>
      </trkpt>
      <trkpt lat="44.59191" lon="0.821">
        <ele>117.9</ele>
        <time>2013-03-24T08:17:40Z</time>
      </trkpt>
      <trkpt lat="44.59202" lon="0.82113">
        <ele>117.42</ele>
        <time>2013-03-24T08:17:43Z</time>
      </trkpt>
      <trkpt lat="44.59207" lon="0.82115">
        <ele>116.94</ele>
        <time>2013-03-24T08:17:44Z</time>
      </trkpt>
      <trkpt lat="44.59211" lon="0.82117">
        <ele>116.94</ele>
        <time>2013-03-24T08:17:45Z</time>
      </trkpt>
      <trkpt lat="44.5924" lon="0.8212">
        <ele>114.53</ele>
        <time>2013-03-24T08:17:50Z</time>
      </trkpt>
      <trkpt lat="44.59247" lon="0.8212">
        <ele>114.05</ele>
        <time>2013-03-24T08:17:51Z</time>
      </trkpt>
      <trkpt lat="44.59253" lon="0.8212">
        <ele>113.09</ele>
        <time>2013-03-24T08:17:52Z</time>
      </trkpt>
      <trkpt lat="44.59278" lon="0.82125">
        <ele>110.69</ele>
        <time>2013-03-24T08:17:56Z</time>
      </trkpt>
      <trkpt lat="44.59338" lon="0.82151">
        <ele>106.36</ele>
        <time>2013-03-24T08:18:04Z</time>
      </trkpt>
      <trkpt lat="44.59367" lon="0.82169">
        <ele>103.96</ele>
        <time>2013-03-24T08:18:09Z</time>
      </trkpt>
      <trkpt lat="44.59378" lon="0.82174">
        <ele>103.96</ele>
        <time>2013-03-24T08:18:11Z</time>
      </trkpt>
      <trkpt lat="44.59387" lon="0.82179">
        <ele>103.96</ele>
        <time>2013-03-24T08:18:13Z</time>
      </trkpt>
      <trkpt lat="44.59405" lon="0.82187">
        <ele>105.88</ele>
        <time>2013-03-24T08:18:18Z</time>
      </trkpt>
      <trkpt lat="44.59406" lon="0.8219">
        <ele>106.36</ele>
        <time>2013-03-24T08:18:19Z</time>
      </trkpt>
      <trkpt lat="44.59405" lon="0.822">
        <ele>107.32</ele>
        <time>2013-03-24T08:18:22Z</time>
      </trkpt>
      <trkpt lat="44.59386" lon="0.82256">
        <ele>109.73</ele>
        <time>2013-03-24T08:18:36Z</time>
      </trkpt>
      <trkpt lat="44.59363" lon="0.82319">
        <ele>109.25</ele>
        <time>2013-03-24T08:18:51Z</time>
      </trkpt>
      <trkpt lat="44.59352" lon="0.82374">
        <ele>109.25</ele>
        <time>2013-03-24T08:19:04Z</time>
      </trkpt>
      <trkpt lat="44.59339" lon="0.82436">
        <ele>110.21</ele>
        <time>2013-03-24T08:19:18Z</time>
      </trkpt>
      <trkpt lat="44.5933" lon="0.8249">
        <ele>113.09</ele>
        <time>2013-03-24T08:19:31Z</time>
      </trkpt>
      <trkpt lat="44.59323" lon="0.82529">
        <ele>116.94</ele>
        <time>2013-03-24T08:19:46Z</time>
      </trkpt>
      <trkpt lat="44.59318" lon="0.82564">
        <ele>121.26</ele>
        <time>2013-03-24T08:20:02Z</time>
      </trkpt>
      <trkpt lat="44.5931" lon="0.82605">
        <ele>124.63</ele>
        <time>2013-03-24T08:20:20Z</time>
      </trkpt>
      <trkpt lat="44.59303" lon="0.82641">
        <ele>127.03</ele>
        <time>2013-03-24T08:20:36Z</time>
      </trkpt>
      <trkpt lat="44.59292" lon="0.82678">
        <ele>129.43</ele>
        <time>2013-03-24T08:20:53Z</time>
      </trkpt>
      <trkpt lat="44.59288" lon="0.827">
        <ele>130.88</ele>
        <time>2013-03-24T08:21:02Z</time>
      </trkpt>
      <trkpt lat="44.59315" lon="0.82726">
        <ele>130.88</ele>
        <time>2013-03-24T08:21:17Z</time>
      </trkpt>
      <trkpt lat="44.59347" lon="0.82753">
        <ele>131.84</ele>
        <time>2013-03-24T08:21:33Z</time>
      </trkpt>
      <trkpt lat="44.59378" lon="0.82782">
        <ele>135.2</ele>
        <time>2013-03-24T08:21:49Z</time>
      </trkpt>
      <trkpt lat="44.59416" lon="0.82786">
        <ele>138.57</ele>
        <time>2013-03-24T08:22:05Z</time>
      </trkpt>
      <trkpt lat="44.59433" lon="0.82811">
        <ele>141.45</ele>
        <time>2013-03-24T08:22:16Z</time>
      </trkpt>
      <trkpt lat="44.59437" lon="0.82866">
        <ele>142.41</ele>
        <time>2013-03-24T08:22:31Z</time>
      </trkpt>
      <trkpt lat="44.59435" lon="0.82946">
        <ele>141.93</ele>
        <time>2013-03-24T08:22:47Z</time>
      </trkpt>
      <trkpt lat="44.5942" lon="0.83051">
        <ele>142.41</ele>
        <time>2013-03-24T08:23:05Z</time>
      </trkpt>
      <trkpt lat="44.59398" lon="0.8315">
        <ele>144.34</ele>
        <time>2013-03-24T08:23:22Z</time>
      </trkpt>
      <trkpt lat="44.59376" lon="0.83266">
        <ele>145.78</ele>
        <time>2013-03-24T08:23:41Z</time>
      </trkpt>
      <trkpt lat="44.59367" lon="0.83321">
        <ele>145.78</ele>
        <time>2013-03-24T08:23:50Z</time>
      </trkpt>
      <trkpt lat="44.59366" lon="0.83327">
        <ele>145.3</ele>
        <time>2013-03-24T08:23:51Z</time>
      </trkpt>
      <trkpt lat="44.59335" lon="0.83427">
        <ele>143.85</ele>
        <time>2013-03-24T08:24:06Z</time>
      </trkpt>
      <trkpt lat="44.59265" lon="0.83548">
        <ele>143.85</ele>
        <time>2013-03-24T08:24:26Z</time>
      </trkpt>
      <trkpt lat="44.59247" lon="0.83586">
        <ele>144.34</ele>
        <time>2013-03-24T08:24:34Z</time>
      </trkpt>
      <trkpt lat="44.59243" lon="0.83605">
        <ele>144.82</ele>
        <time>2013-03-24T08:24:37Z</time>
      </trkpt>
      <trkpt lat="44.59241" lon="0.83619">
        <ele>145.3</ele>
        <time>2013-03-24T08:24:39Z</time>
      </trkpt>
      <trkpt lat="44.59239" lon="0.83625">
        <ele>145.3</ele>
        <time>2013-03-24T08:24:40Z</time>
      </trkpt>
      <trkpt lat="44.59237" lon="0.83631">
        <ele>145.3</ele>
        <time>2013-03-24T08:24:41Z</time>
      </trkpt>
      <trkpt lat="44.59232" lon="0.83643">
        <ele>145.3</ele>
        <time>2013-03-24T08:24:43Z</time>
      </trkpt>
      <trkpt lat="44.5923" lon="0.83649">
        <ele>145.3</ele>
        <time>2013-03-24T08:24:44Z</time>
      </trkpt>
      <trkpt lat="44.59229" lon="0.83656">
        <ele>145.78</ele>
        <time>2013-03-24T08:24:45Z</time>
      </trkpt>
      <trkpt lat="44.5923" lon="0.83662">
        <ele>145.78</ele>
        <time>2013-03-24T08:24:46Z</time>
      </trkpt>
      <trkpt lat="44.59233" lon="0.83668">
        <ele>145.78</ele>
        <time>2013-03-24T08:24:47Z</time>
      </trkpt>
      <trkpt lat="44.59237" lon="0.83673">
        <ele>145.78</ele>
        <time>2013-03-24T08:24:48Z</time>
      </trkpt>
      <trkpt lat="44.5924" lon="0.83678">
        <ele>145.3</ele>
        <time>2013-03-24T08:24:49Z</time>
      </trkpt>
      <trkpt lat="44.59243" lon="0.83686">
        <ele>144.82</ele>
        <time>2013-03-24T08:24:50Z</time>
      </trkpt>
      <trkpt lat="44.59244" lon="0.83694">
        <ele>144.34</ele>
        <time>2013-03-24T08:24:51Z</time>
      </trkpt>
      <trkpt lat="44.59246" lon="0.83702">
        <ele>144.34</ele>
        <time>2013-03-24T08:24:52Z</time>
      </trkpt>
      <trkpt lat="44.59248" lon="0.83709">
        <ele>143.85</ele>
        <time>2013-03-24T08:24:53Z</time>
      </trkpt>
      <trkpt lat="44.59251" lon="0.83716">
        <ele>143.37</ele>
        <time>2013-03-24T08:24:54Z</time>
      </trkpt>
      <trkpt lat="44.59254" lon="0.83723">
        <ele>143.37</ele>
        <time>2013-03-24T08:24:55Z</time>
      </trkpt>
      <trkpt lat="44.59257" lon="0.83729">
        <ele>142.89</ele>
        <time>2013-03-24T08:24:56Z</time>
      </trkpt>
      <trkpt lat="44.5928" lon="0.83774">
        <ele>143.37</ele>
        <time>2013-03-24T08:25:06Z</time>
      </trkpt>
      <trkpt lat="44.59297" lon="0.83785">
        <ele>143.37</ele>
        <time>2013-03-24T08:25:11Z</time>
      </trkpt>
      <trkpt lat="44.5933" lon="0.83784">
        <ele>142.89</ele>
        <time>2013-03-24T08:25:18Z</time>
      </trkpt>
      <trkpt lat="44.59351" lon="0.83783">
        <ele>142.41</ele>
        <time>2013-03-24T08:25:21Z</time>
      </trkpt>
      <trkpt lat="44.59366" lon="0.83783">
        <ele>141.45</ele>
        <time>2013-03-24T08:25:23Z</time>
      </trkpt>
      <trkpt lat="44.59383" lon="0.83777">
        <ele>140.49</ele>
        <time>2013-03-24T08:25:26Z</time>
      </trkpt>
      <trkpt lat="44.59414" lon="0.83786">
        <ele>134.72</ele>
        <time>2013-03-24T08:25:33Z</time>
      </trkpt>
      <trkpt lat="44.59431" lon="0.83828">
        <ele>130.4</ele>
        <time>2013-03-24T08:25:39Z</time>
      </trkpt>
      <trkpt lat="44.59452" lon="0.83887">
        <ele>123.67</ele>
        <time>2013-03-24T08:25:46Z</time>
      </trkpt>
      <trkpt lat="44.59459" lon="0.83904">
        <ele>122.22</ele>
        <time>2013-03-24T08:25:48Z</time>
      </trkpt>
      <trkpt lat="44.59479" lon="0.83927">
        <ele>118.86</ele>
        <time>2013-03-24T08:25:52Z</time>
      </trkpt>
      <trkpt lat="44.59508" lon="0.83969">
        <ele>120.3</ele>
        <time>2013-03-24T08:26:01Z</time>
      </trkpt>
      <trkpt lat="44.59514" lon="0.8398">
        <ele>123.19</ele>
        <time>2013-03-24T08:26:04Z</time>
      </trkpt>
      <trkpt lat="44.59542" lon="0.84004">
        <ele>128.95</ele>
        <time>2013-03-24T08:26:14Z</time>
      </trkpt>
      <trkpt lat="44.59546" lon="0.84007">
        <ele>128.95</ele>
        <time>2013-03-24T08:26:15Z</time>
      </trkpt>
      <trkpt lat="44.59562" lon="0.8402">
        <ele>128.95</ele>
        <time>2013-03-24T08:26:19Z</time>
      </trkpt>
      <trkpt lat="44.59578" lon="0.84028">
        <ele>128.95</ele>
        <time>2013-03-24T08:26:23Z</time>
      </trkpt>
      <trkpt lat="44.59631" lon="0.84027">
        <ele>134.72</ele>
        <time>2013-03-24T08:26:37Z</time>
      </trkpt>
      <trkpt lat="44.59666" lon="0.84053">
        <ele>139.05</ele>
        <time>2013-03-24T08:26:48Z</time>
      </trkpt>
      <trkpt lat="44.59692" lon="0.84064">
        <ele>140.01</ele>
        <time>2013-03-24T08:26:55Z</time>
      </trkpt>
      <trkpt lat="44.59735" lon="0.84053">
        <ele>140.49</ele>
        <time>2013-03-24T08:27:06Z</time>
      </trkpt>
      <trkpt lat="44.59775" lon="0.84064">
        <ele>143.37</ele>
        <time>2013-03-24T08:27:19Z</time>
      </trkpt>
      <trkpt lat="44.59794" lon="0.84067">
        <ele>146.26</ele>
        <time>2013-03-24T08:27:26Z</time>
      </trkpt>
      <trkpt lat="44.59832" lon="0.84026">
        <ele>146.26</ele>
        <time>2013-03-24T08:27:42Z</time>
      </trkpt>
      <trkpt lat="44.5985" lon="0.84004">
        <ele>146.74</ele>
        <time>2013-03-24T08:27:50Z</time>
      </trkpt>
      <trkpt lat="44.59852" lon="0.84005">
        <ele>146.74</ele>
        <time>2013-03-24T08:27:51Z</time>
      </trkpt>
      <trkpt lat="44.59855" lon="0.84008">
        <ele>146.74</ele>
        <time>2013-03-24T08:27:52Z</time>
      </trkpt>
      <trkpt lat="44.59857" lon="0.84011">
        <ele>146.74</ele>
        <time>2013-03-24T08:27:53Z</time>
      </trkpt>
      <trkpt lat="44.59859" lon="0.84015">
        <ele>146.74</ele>
        <time>2013-03-24T08:27:54Z</time>
      </trkpt>
      <trkpt lat="44.59861" lon="0.84019">
        <ele>146.74</ele>
        <time>2013-03-24T08:27:55Z</time>
      </trkpt>
      <trkpt lat="44.59863" lon="0.84022">
        <ele>146.74</ele>
        <time>2013-03-24T08:27:56Z</time>
      </trkpt>
      <trkpt lat="44.5989" lon="0.84074">
        <ele>146.74</ele>
        <time>2013-03-24T08:28:09Z</time>
      </trkpt>
      <trkpt lat="44.59926" lon="0.84161">
        <ele>143.85</ele>
        <time>2013-03-24T08:28:25Z</time>
      </trkpt>
      <trkpt lat="44.59959" lon="0.84235">
        <ele>138.09</ele>
        <time>2013-03-24T08:28:33Z</time>
      </trkpt>
      <trkpt lat="44.59965" lon="0.84243">
        <ele>137.13</ele>
        <time>2013-03-24T08:28:34Z</time>
      </trkpt>
      <trkpt lat="44.59971" lon="0.84248">
        <ele>136.64</ele>
        <time>2013-03-24T08:28:35Z</time>
      </trkpt>
      <trkpt lat="44.59978" lon="0.84252">
        <ele>135.68</ele>
        <time>2013-03-24T08:28:36Z</time>
      </trkpt>
      <trkpt lat="44.59986" lon="0.84254">
        <ele>134.72</ele>
        <time>2013-03-24T08:28:37Z</time>
      </trkpt>
      <trkpt lat="44.59994" lon="0.84256">
        <ele>134.24</ele>
        <time>2013-03-24T08:28:38Z</time>
      </trkpt>
      <trkpt lat="44.60042" lon="0.84261">
        <ele>130.4</ele>
        <time>2013-03-24T08:28:43Z</time>
      </trkpt>
      <trkpt lat="44.60051" lon="0.84264">
        <ele>129.43</ele>
        <time>2013-03-24T08:28:44Z</time>
      </trkpt>
      <trkpt lat="44.60059" lon="0.8427">
        <ele>128.47</ele>
        <time>2013-03-24T08:28:45Z</time>
      </trkpt>
      <trkpt lat="44.60065" lon="0.84277">
        <ele>127.51</ele>
        <time>2013-03-24T08:28:46Z</time>
      </trkpt>
      <trkpt lat="44.6007" lon="0.84284">
        <ele>127.03</ele>
        <time>2013-03-24T08:28:47Z</time>
      </trkpt>
      <trkpt lat="44.60079" lon="0.84295">
        <ele>126.07</ele>
        <time>2013-03-24T08:28:49Z</time>
      </trkpt>
      <trkpt lat="44.60083" lon="0.84297">
        <ele>126.07</ele>
        <time>2013-03-24T08:28:50Z</time>
      </trkpt>
      <trkpt lat="44.60088" lon="0.84296">
        <ele>125.59</ele>
        <time>2013-03-24T08:28:51Z</time>
      </trkpt>
      <trkpt lat="44.60092" lon="0.84293">
        <ele>125.59</ele>
        <time>2013-03-24T08:28:52Z</time>
      </trkpt>
      <trkpt lat="44.60096" lon="0.84288">
        <ele>125.11</ele>
        <time>2013-03-24T08:28:53Z</time>
      </trkpt>
      <trkpt lat="44.601" lon="0.84282">
        <ele>124.63</ele>
        <time>2013-03-24T08:28:54Z</time>
      </trkpt>
      <trkpt lat="44.60111" lon="0.84263">
        <ele>123.67</ele>
        <time>2013-03-24T08:28:57Z</time>
      </trkpt>
      <trkpt lat="44.60114" lon="0.84255">
        <ele>123.67</ele>
        <time>2013-03-24T08:28:58Z</time>
      </trkpt>
      <trkpt lat="44.60123" lon="0.84231">
        <ele>122.71</ele>
        <time>2013-03-24T08:29:01Z</time>
      </trkpt>
      <trkpt lat="44.60125" lon="0.84222">
        <ele>122.71</ele>
        <time>2013-03-24T08:29:02Z</time>
      </trkpt>
      <trkpt lat="44.60146" lon="0.84144">
        <ele>121.74</ele>
        <time>2013-03-24T08:29:13Z</time>
      </trkpt>
      <trkpt lat="44.60168" lon="0.84125">
        <ele>124.63</ele>
        <time>2013-03-24T08:29:22Z</time>
      </trkpt>
      <trkpt lat="44.60172" lon="0.84102">
        <ele>127.03</ele>
        <time>2013-03-24T08:29:30Z</time>
      </trkpt>
      <trkpt lat="44.60185" lon="0.84098">
        <ele>129.92</ele>
        <time>2013-03-24T08:29:38Z</time>
      </trkpt>
      <trkpt lat="44.60202" lon="0.84077">
        <ele>135.2</ele>
        <time>2013-03-24T08:29:50Z</time>
      </trkpt>
      <trkpt lat="44.60221" lon="0.84078">
        <ele>139.53</ele>
        <time>2013-03-24T08:30:01Z</time>
      </trkpt>
      <trkpt lat="44.60244" lon="0.84095">
        <ele>141.45</ele>
        <time>2013-03-24T08:30:16Z</time>
      </trkpt>
      <trkpt lat="44.60275" lon="0.84103">
        <ele>143.85</ele>
        <time>2013-03-24T08:30:34Z</time>
      </trkpt>
      <trkpt lat="44.60313" lon="0.84097">
        <ele>145.3</ele>
        <time>2013-03-24T08:30:52Z</time>
      </trkpt>
      <trkpt lat="44.60348" lon="0.84083">
        <ele>144.34</ele>
        <time>2013-03-24T08:31:03Z</time>
      </trkpt>
      <trkpt lat="44.60402" lon="0.8408">
        <ele>144.34</ele>
        <time>2013-03-24T08:31:17Z</time>
      </trkpt>
      <trkpt lat="44.60453" lon="0.84059">
        <ele>145.3</ele>
        <time>2013-03-24T08:31:31Z</time>
      </trkpt>
      <trkpt lat="44.60489" lon="0.84045">
        <ele>146.74</ele>
        <time>2013-03-24T08:31:41Z</time>
      </trkpt>
      <trkpt lat="44.60491" lon="0.84048">
        <ele>147.22</ele>
        <time>2013-03-24T08:31:42Z</time>
      </trkpt>
      <trkpt lat="44.60493" lon="0.84052">
        <ele>147.22</ele>
        <time>2013-03-24T08:31:43Z</time>
      </trkpt>
      <trkpt lat="44.60495" lon="0.84056">
        <ele>147.22</ele>
        <time>2013-03-24T08:31:44Z</time>
      </trkpt>
      <trkpt lat="44.60496" lon="0.84061">
        <ele>147.7</ele>
        <time>2013-03-24T08:31:45Z</time>
      </trkpt>
      <trkpt lat="44.60497" lon="0.84066">
        <ele>147.7</ele>
        <time>2013-03-24T08:31:46Z</time>
      </trkpt>
      <trkpt lat="44.60499" lon="0.84071">
        <ele>147.7</ele>
        <time>2013-03-24T08:31:47Z</time>
      </trkpt>
      <trkpt lat="44.60502" lon="0.84076">
        <ele>147.7</ele>
        <time>2013-03-24T08:31:48Z</time>
      </trkpt>
      <trkpt lat="44.60505" lon="0.8408">
        <ele>147.22</ele>
        <time>2013-03-24T08:31:49Z</time>
      </trkpt>
      <trkpt lat="44.60512" lon="0.8409">
        <ele>146.74</ele>
        <time>2013-03-24T08:31:51Z</time>
      </trkpt>
      <trkpt lat="44.60517" lon="0.84094">
        <ele>146.26</ele>
        <time>2013-03-24T08:31:52Z</time>
      </trkpt>
      <trkpt lat="44.60523" lon="0.84097">
        <ele>146.26</ele>
        <time>2013-03-24T08:31:53Z</time>
      </trkpt>
      <trkpt lat="44.60586" lon="0.84133">
        <ele>143.37</ele>
        <time>2013-03-24T08:32:03Z</time>
      </trkpt>
      <trkpt lat="44.60596" lon="0.84141">
        <ele>143.85</ele>
        <time>2013-03-24T08:32:05Z</time>
      </trkpt>
      <trkpt lat="44.606" lon="0.84146">
        <ele>143.85</ele>
        <time>2013-03-24T08:32:06Z</time>
      </trkpt>
      <trkpt lat="44.60602" lon="0.84151">
        <ele>143.85</ele>
        <time>2013-03-24T08:32:07Z</time>
      </trkpt>
      <trkpt lat="44.60601" lon="0.84157">
        <ele>144.34</ele>
        <time>2013-03-24T08:32:08Z</time>
      </trkpt>
      <trkpt lat="44.60597" lon="0.84179">
        <ele>144.34</ele>
        <time>2013-03-24T08:32:13Z</time>
      </trkpt>
      <trkpt lat="44.60589" lon="0.84206">
        <ele>143.37</ele>
        <time>2013-03-24T08:32:20Z</time>
      </trkpt>
      <trkpt lat="44.6061" lon="0.84233">
        <ele>143.85</ele>
        <time>2013-03-24T08:32:29Z</time>
      </trkpt>
      <trkpt lat="44.60626" lon="0.84286">
        <ele>146.26</ele>
        <time>2013-03-24T08:32:43Z</time>
      </trkpt>
      <trkpt lat="44.60637" lon="0.84331">
        <ele>150.1</ele>
        <time>2013-03-24T08:32:58Z</time>
      </trkpt>
      <trkpt lat="44.6064" lon="0.84364">
        <ele>156.35</ele>
        <time>2013-03-24T08:33:11Z</time>
      </trkpt>
      <trkpt lat="44.60658" lon="0.84389">
        <ele>162.12</ele>
        <time>2013-03-24T08:33:23Z</time>
      </trkpt>
      <trkpt lat="44.60683" lon="0.84425">
        <ele>164.04</ele>
        <time>2013-03-24T08:33:38Z</time>
      </trkpt>
      <trkpt lat="44.60716" lon="0.84467">
        <ele>162.6</ele>
        <time>2013-03-24T08:33:53Z</time>
      </trkpt>
      <trkpt lat="44.60741" lon="0.84492">
        <ele>160.2</ele>
        <time>2013-03-24T08:34:04Z</time>
      </trkpt>
      <trkpt lat="44.60769" lon="0.8453">
        <ele>157.79</ele>
        <time>2013-03-24T08:34:17Z</time>
      </trkpt>
      <trkpt lat="44.60794" lon="0.84573">
        <ele>157.79</ele>
        <time>2013-03-24T08:34:29Z</time>
      </trkpt>
      <trkpt lat="44.60826" lon="0.84628">
        <ele>156.83</ele>
        <time>2013-03-24T08:34:42Z</time>
      </trkpt>
      <trkpt lat="44.60859" lon="0.84649">
        <ele>155.87</ele>
        <time>2013-03-24T08:34:52Z</time>
      </trkpt>
      <trkpt lat="44.60868" lon="0.84655">
        <ele>155.87</ele>
        <time>2013-03-24T08:34:55Z</time>
      </trkpt>
      <trkpt lat="44.60877" lon="0.84667">
        <ele>156.35</ele>
        <time>2013-03-24T08:35:01Z</time>
      </trkpt>
      <trkpt lat="44.6089" lon="0.84722">
        <ele>158.75</ele>
        <time>2013-03-24T08:35:16Z</time>
      </trkpt>
      <trkpt lat="44.60915" lon="0.84745">
        <ele>160.68</ele>
        <time>2013-03-24T08:35:27Z</time>
      </trkpt>
      <trkpt lat="44.60953" lon="0.84775">
        <ele>159.72</ele>
        <time>2013-03-24T08:35:41Z</time>
      </trkpt>
      <trkpt lat="44.60977" lon="0.84779">
        <ele>158.75</ele>
        <time>2013-03-24T08:35:47Z</time>
      </trkpt>
      <trkpt lat="44.60992" lon="0.84778">
        <ele>157.79</ele>
        <time>2013-03-24T08:35:50Z</time>
      </trkpt>
      <trkpt lat="44.6105" lon="0.84799">
        <ele>157.31</ele>
        <time>2013-03-24T08:36:04Z</time>
      </trkpt>
      <trkpt lat="44.61078" lon="0.8481">
        <ele>157.79</ele>
        <time>2013-03-24T08:36:16Z</time>
      </trkpt>
      <trkpt lat="44.61104" lon="0.8482">
        <ele>160.68</ele>
        <time>2013-03-24T08:36:28Z</time>
      </trkpt>
      <trkpt lat="44.61135" lon="0.84833">
        <ele>160.68</ele>
        <time>2013-03-24T08:36:41Z</time>
      </trkpt>
      <trkpt lat="44.61145" lon="0.84841">
        <ele>160.2</ele>
        <time>2013-03-24T08:36:47Z</time>
      </trkpt>
      <trkpt lat="44.61181" lon="0.84845">
        <ele>160.2</ele>
        <time>2013-03-24T08:37:00Z</time>
      </trkpt>
      <trkpt lat="44.61191" lon="0.84852">
        <ele>160.2</ele>
        <time>2013-03-24T08:37:04Z</time>
      </trkpt>
      <trkpt lat="44.61201" lon="0.84869">
        <ele>160.68</ele>
        <time>2013-03-24T08:37:11Z</time>
      </trkpt>
      <trkpt lat="44.61216" lon="0.84892">
        <ele>162.12</ele>
        <time>2013-03-24T08:37:23Z</time>
      </trkpt>
      <trkpt lat="44.6122" lon="0.84898">
        <ele>163.56</ele>
        <time>2013-03-24T08:37:26Z</time>
      </trkpt>
      <trkpt lat="44.61237" lon="0.84937">
        <ele>163.56</ele>
        <time>2013-03-24T08:37:39Z</time>
      </trkpt>
      <trkpt lat="44.6125" lon="0.8499">
        <ele>163.56</ele>
        <time>2013-03-24T08:37:55Z</time>
      </trkpt>
      <trkpt lat="44.61251" lon="0.84997">
        <ele>163.08</ele>
        <time>2013-03-24T08:37:57Z</time>
      </trkpt>
      <trkpt lat="44.61263" lon="0.85015">
        <ele>163.08</ele>
        <time>2013-03-24T08:38:06Z</time>
      </trkpt>
      <trkpt lat="44.61273" lon="0.85025">
        <ele>164.04</ele>
        <time>2013-03-24T08:38:17Z</time>
      </trkpt>
      <trkpt lat="44.61278" lon="0.8503">
        <ele>165.96</ele>
        <time>2013-03-24T08:38:26Z</time>
      </trkpt>
      <trkpt lat="44.61281" lon="0.85038">
        <ele>166.93</ele>
        <time>2013-03-24T08:38:31Z</time>
      </trkpt>
      <trkpt lat="44.61292" lon="0.85053">
        <ele>169.33</ele>
        <time>2013-03-24T08:38:40Z</time>
      </trkpt>
      <trkpt lat="44.61293" lon="0.85083">
        <ele>174.14</ele>
        <time>2013-03-24T08:38:55Z</time>
      </trkpt>
      <trkpt lat="44.61294" lon="0.85093">
        <ele>176.54</ele>
        <time>2013-03-24T08:39:09Z</time>
      </trkpt>
      <trkpt lat="44.61294" lon="0.85095">
        <ele>177.02</ele>
        <time>2013-03-24T08:39:11Z</time>
      </trkpt>
      <trkpt lat="44.61303" lon="0.85128">
        <ele>172.69</ele>
        <time>2013-03-24T08:39:22Z</time>
      </trkpt>
      <trkpt lat="44.61305" lon="0.85134">
        <ele>171.73</ele>
        <time>2013-03-24T08:39:24Z</time>
      </trkpt>
      <trkpt lat="44.61315" lon="0.85153">
        <ele>169.33</ele>
        <time>2013-03-24T08:39:30Z</time>
      </trkpt>
      <trkpt lat="44.61336" lon="0.85164">
        <ele>168.37</ele>
        <time>2013-03-24T08:39:34Z</time>
      </trkpt>
      <trkpt lat="44.61374" lon="0.85173">
        <ele>166.93</ele>
        <time>2013-03-24T08:39:44Z</time>
      </trkpt>
      <trkpt lat="44.61382" lon="0.85219">
        <ele>166.93</ele>
        <time>2013-03-24T08:39:55Z</time>
      </trkpt>
      <trkpt lat="44.6137" lon="0.85264">
        <ele>169.81</ele>
        <time>2013-03-24T08:40:07Z</time>
      </trkpt>
      <trkpt lat="44.61353" lon="0.85311">
        <ele>176.06</ele>
        <time>2013-03-24T08:40:21Z</time>
      </trkpt>
      <trkpt lat="44.61344" lon="0.85331">
        <ele>176.06</ele>
        <time>2013-03-24T08:40:25Z</time>
      </trkpt>
      <trkpt lat="44.6133" lon="0.85353">
        <ele>175.58</ele>
        <time>2013-03-24T08:40:29Z</time>
      </trkpt>
      <trkpt lat="44.61316" lon="0.85367">
        <ele>175.1</ele>
        <time>2013-03-24T08:40:32Z</time>
      </trkpt>
      <trkpt lat="44.61312" lon="0.85373">
        <ele>175.1</ele>
        <time>2013-03-24T08:40:33Z</time>
      </trkpt>
      <trkpt lat="44.61309" lon="0.85379">
        <ele>174.62</ele>
        <time>2013-03-24T08:40:34Z</time>
      </trkpt>
      <trkpt lat="44.61292" lon="0.85406">
        <ele>174.14</ele>
        <time>2013-03-24T08:40:39Z</time>
      </trkpt>
      <trkpt lat="44.61289" lon="0.85411">
        <ele>173.66</ele>
        <time>2013-03-24T08:40:40Z</time>
      </trkpt>
      <trkpt lat="44.61286" lon="0.85417">
        <ele>173.66</ele>
        <time>2013-03-24T08:40:41Z</time>
      </trkpt>
      <trkpt lat="44.61283" lon="0.85422">
        <ele>173.66</ele>
        <time>2013-03-24T08:40:42Z</time>
      </trkpt>
      <trkpt lat="44.61281" lon="0.85434">
        <ele>173.66</ele>
        <time>2013-03-24T08:40:44Z</time>
      </trkpt>
      <trkpt lat="44.6128" lon="0.85447">
        <ele>173.66</ele>
        <time>2013-03-24T08:40:46Z</time>
      </trkpt>
      <trkpt lat="44.61271" lon="0.85484">
        <ele>173.17</ele>
        <time>2013-03-24T08:40:53Z</time>
      </trkpt>
      <trkpt lat="44.61261" lon="0.85505">
        <ele>174.14</ele>
        <time>2013-03-24T08:40:57Z</time>
      </trkpt>
      <trkpt lat="44.6125" lon="0.85522">
        <ele>174.62</ele>
        <time>2013-03-24T08:41:00Z</time>
      </trkpt>
      <trkpt lat="44.61242" lon="0.85551">
        <ele>175.1</ele>
        <time>2013-03-24T08:41:05Z</time>
      </trkpt>
      <trkpt lat="44.61241" lon="0.85563">
        <ele>175.1</ele>
        <time>2013-03-24T08:41:07Z</time>
      </trkpt>
      <trkpt lat="44.61249" lon="0.85592">
        <ele>174.62</ele>
        <time>2013-03-24T08:41:12Z</time>
      </trkpt>
      <trkpt lat="44.61267" lon="0.85612">
        <ele>175.1</ele>
        <time>2013-03-24T08:41:17Z</time>
      </trkpt>
      <trkpt lat="44.61308" lon="0.85646">
        <ele>176.06</ele>
        <time>2013-03-24T08:41:30Z</time>
      </trkpt>
      <trkpt lat="44.61315" lon="0.85652">
        <ele>176.06</ele>
        <time>2013-03-24T08:41:34Z</time>
      </trkpt>
      <trkpt lat="44.61345" lon="0.8567">
        <ele>178.94</ele>
        <time>2013-03-24T08:41:45Z</time>
      </trkpt>
      <trkpt lat="44.61355" lon="0.85675">
        <ele>178.94</ele>
        <time>2013-03-24T08:41:48Z</time>
      </trkpt>
      <trkpt lat="44.61364" lon="0.85701">
        <ele>178.46</ele>
        <time>2013-03-24T08:41:54Z</time>
      </trkpt>
      <trkpt lat="44.6139" lon="0.85731">
        <ele>177.98</ele>
        <time>2013-03-24T08:42:03Z</time>
      </trkpt>
      <trkpt lat="44.61391" lon="0.85734">
        <ele>177.98</ele>
        <time>2013-03-24T08:42:04Z</time>
      </trkpt>
      <trkpt lat="44.6139" lon="0.85738">
        <ele>177.98</ele>
        <time>2013-03-24T08:42:05Z</time>
      </trkpt>
      <trkpt lat="44.61388" lon="0.85741">
        <ele>177.98</ele>
        <time>2013-03-24T08:42:06Z</time>
      </trkpt>
      <trkpt lat="44.61386" lon="0.85744">
        <ele>177.5</ele>
        <time>2013-03-24T08:42:07Z</time>
      </trkpt>
      <trkpt lat="44.61356" lon="0.85788">
        <ele>175.1</ele>
        <time>2013-03-24T08:42:20Z</time>
      </trkpt>
      <trkpt lat="44.61339" lon="0.85819">
        <ele>174.62</ele>
        <time>2013-03-24T08:42:28Z</time>
      </trkpt>
      <trkpt lat="44.61336" lon="0.85824">
        <ele>174.14</ele>
        <time>2013-03-24T08:42:29Z</time>
      </trkpt>
      <trkpt lat="44.61333" lon="0.85829">
        <ele>174.14</ele>
        <time>2013-03-24T08:42:30Z</time>
      </trkpt>
      <trkpt lat="44.61311" lon="0.85897">
        <ele>172.69</ele>
        <time>2013-03-24T08:42:43Z</time>
      </trkpt>
      <trkpt lat="44.61298" lon="0.85942">
        <ele>174.14</ele>
        <time>2013-03-24T08:42:52Z</time>
      </trkpt>
      <trkpt lat="44.61292" lon="0.85961">
        <ele>174.14</ele>
        <time>2013-03-24T08:42:55Z</time>
      </trkpt>
      <trkpt lat="44.61291" lon="0.85968">
        <ele>174.14</ele>
        <time>2013-03-24T08:42:56Z</time>
      </trkpt>
      <trkpt lat="44.61287" lon="0.85988">
        <ele>173.66</ele>
        <time>2013-03-24T08:42:59Z</time>
      </trkpt>
      <trkpt lat="44.61285" lon="0.85994">
        <ele>173.66</ele>
        <time>2013-03-24T08:43:00Z</time>
      </trkpt>
      <trkpt lat="44.61278" lon="0.86009">
        <ele>174.14</ele>
        <time>2013-03-24T08:43:03Z</time>
      </trkpt>
      <trkpt lat="44.61273" lon="0.86018">
        <ele>174.62</ele>
        <time>2013-03-24T08:43:05Z</time>
      </trkpt>
      <trkpt lat="44.61239" lon="0.86062">
        <ele>177.5</ele>
        <time>2013-03-24T08:43:17Z</time>
      </trkpt>
      <trkpt lat="44.61214" lon="0.86127">
        <ele>182.79</ele>
        <time>2013-03-24T08:43:31Z</time>
      </trkpt>
      <trkpt lat="44.61204" lon="0.86173">
        <ele>185.19</ele>
        <time>2013-03-24T08:43:40Z</time>
      </trkpt>
      <trkpt lat="44.61202" lon="0.8627">
        <ele>184.23</ele>
        <time>2013-03-24T08:43:56Z</time>
      </trkpt>
      <trkpt lat="44.6119" lon="0.86338">
        <ele>184.71</ele>
        <time>2013-03-24T08:44:09Z</time>
      </trkpt>
      <trkpt lat="44.61218" lon="0.86376">
        <ele>180.87</ele>
        <time>2013-03-24T08:44:20Z</time>
      </trkpt>
      <trkpt lat="44.6124" lon="0.864">
        <ele>181.35</ele>
        <time>2013-03-24T08:44:27Z</time>
      </trkpt>
      <trkpt lat="44.6124" lon="0.86404">
        <ele>181.35</ele>
        <time>2013-03-24T08:44:28Z</time>
      </trkpt>
      <trkpt lat="44.61239" lon="0.86409">
        <ele>181.83</ele>
        <time>2013-03-24T08:44:29Z</time>
      </trkpt>
      <trkpt lat="44.61237" lon="0.86414">
        <ele>181.83</ele>
        <time>2013-03-24T08:44:30Z</time>
      </trkpt>
      <trkpt lat="44.61235" lon="0.86418">
        <ele>181.83</ele>
        <time>2013-03-24T08:44:31Z</time>
      </trkpt>
      <trkpt lat="44.61232" lon="0.86422">
        <ele>181.83</ele>
        <time>2013-03-24T08:44:32Z</time>
      </trkpt>
      <trkpt lat="44.61229" lon="0.86426">
        <ele>182.31</ele>
        <time>2013-03-24T08:44:33Z</time>
      </trkpt>
      <trkpt lat="44.61226" lon="0.8643">
        <ele>182.31</ele>
        <time>2013-03-24T08:44:34Z</time>
      </trkpt>
      <trkpt lat="44.6117" lon="0.86507">
        <ele>183.75</ele>
        <time>2013-03-24T08:44:53Z</time>
      </trkpt>
      <trkpt lat="44.61157" lon="0.86539">
        <ele>182.31</ele>
        <time>2013-03-24T08:44:59Z</time>
      </trkpt>
      <trkpt lat="44.61155" lon="0.86545">
        <ele>182.31</ele>
        <time>2013-03-24T08:45:00Z</time>
      </trkpt>
      <trkpt lat="44.61153" lon="0.86552">
        <ele>181.83</ele>
        <time>2013-03-24T08:45:01Z</time>
      </trkpt>
      <trkpt lat="44.61151" lon="0.86565">
        <ele>181.35</ele>
        <time>2013-03-24T08:45:03Z</time>
      </trkpt>
      <trkpt lat="44.61149" lon="0.86572">
        <ele>181.35</ele>
        <time>2013-03-24T08:45:04Z</time>
      </trkpt>
      <trkpt lat="44.61135" lon="0.86636">
        <ele>179.42</ele>
        <time>2013-03-24T08:45:15Z</time>
      </trkpt>
      <trkpt lat="44.61134" lon="0.8666">
        <ele>178.46</ele>
        <time>2013-03-24T08:45:20Z</time>
      </trkpt>
      <trkpt lat="44.61126" lon="0.86683">
        <ele>177.98</ele>
        <time>2013-03-24T08:45:27Z</time>
      </trkpt>
      <trkpt lat="44.61117" lon="0.86729">
        <ele>181.35</ele>
        <time>2013-03-24T08:45:39Z</time>
      </trkpt>
      <trkpt lat="44.61116" lon="0.86739">
        <ele>181.83</ele>
        <time>2013-03-24T08:45:41Z</time>
      </trkpt>
      <trkpt lat="44.61106" lon="0.86797">
        <ele>179.42</ele>
        <time>2013-03-24T08:45:51Z</time>
      </trkpt>
      <trkpt lat="44.61092" lon="0.86836">
        <ele>177.5</ele>
        <time>2013-03-24T08:46:01Z</time>
      </trkpt>
      <trkpt lat="44.61085" lon="0.86874">
        <ele>175.58</ele>
        <time>2013-03-24T08:46:10Z</time>
      </trkpt>
      <trkpt lat="44.61084" lon="0.86878">
        <ele>175.1</ele>
        <time>2013-03-24T08:46:11Z</time>
      </trkpt>
      <trkpt lat="44.6107" lon="0.86907">
        <ele>175.1</ele>
        <time>2013-03-24T08:46:21Z</time>
      </trkpt>
      <trkpt lat="44.61062" lon="0.8692">
        <ele>174.62</ele>
        <time>2013-03-24T08:46:24Z</time>
      </trkpt>
      <trkpt lat="44.61054" lon="0.86959">
        <ele>173.66</ele>
        <time>2013-03-24T08:46:29Z</time>
      </trkpt>
      <trkpt lat="44.61046" lon="0.8699">
        <ele>172.69</ele>
        <time>2013-03-24T08:46:33Z</time>
      </trkpt>
      <trkpt lat="44.61037" lon="0.87015">
        <ele>173.66</ele>
        <time>2013-03-24T08:46:38Z</time>
      </trkpt>
      <trkpt lat="44.61038" lon="0.87035">
        <ele>174.14</ele>
        <time>2013-03-24T08:46:41Z</time>
      </trkpt>
      <trkpt lat="44.61041" lon="0.87065">
        <ele>172.69</ele>
        <time>2013-03-24T08:46:45Z</time>
      </trkpt>
      <trkpt lat="44.61041" lon="0.87103">
        <ele>171.73</ele>
        <time>2013-03-24T08:46:50Z</time>
      </trkpt>
      <trkpt lat="44.61038" lon="0.87121">
        <ele>170.29</ele>
        <time>2013-03-24T08:46:53Z</time>
      </trkpt>
      <trkpt lat="44.61033" lon="0.87151">
        <ele>167.89</ele>
        <time>2013-03-24T08:47:01Z</time>
      </trkpt>
      <trkpt lat="44.61007" lon="0.87219">
        <ele>165</ele>
        <time>2013-03-24T08:47:14Z</time>
      </trkpt>
      <trkpt lat="44.60995" lon="0.87247">
        <ele>165.48</ele>
        <time>2013-03-24T08:47:19Z</time>
      </trkpt>
      <trkpt lat="44.6098" lon="0.87275">
        <ele>165</ele>
        <time>2013-03-24T08:47:25Z</time>
      </trkpt>
      <trkpt lat="44.60975" lon="0.87285">
        <ele>165</ele>
        <time>2013-03-24T08:47:27Z</time>
      </trkpt>
      <trkpt lat="44.60961" lon="0.87305">
        <ele>164.04</ele>
        <time>2013-03-24T08:47:31Z</time>
      </trkpt>
      <trkpt lat="44.60955" lon="0.87317">
        <ele>163.56</ele>
        <time>2013-03-24T08:47:33Z</time>
      </trkpt>
      <trkpt lat="44.60945" lon="0.87335">
        <ele>163.08</ele>
        <time>2013-03-24T08:47:36Z</time>
      </trkpt>
      <trkpt lat="44.60922" lon="0.87369">
        <ele>161.16</ele>
        <time>2013-03-24T08:47:42Z</time>
      </trkpt>
      <trkpt lat="44.60887" lon="0.87415">
        <ele>157.79</ele>
        <time>2013-03-24T08:47:53Z</time>
      </trkpt>
      <trkpt lat="44.60873" lon="0.87472">
        <ele>156.83</ele>
        <time>2013-03-24T08:48:05Z</time>
      </trkpt>
      <trkpt lat="44.60866" lon="0.87526">
        <ele>160.68</ele>
        <time>2013-03-24T08:48:18Z</time>
      </trkpt>
      <trkpt lat="44.60846" lon="0.87557">
        <ele>164.04</ele>
        <time>2013-03-24T08:48:30Z</time>
      </trkpt>
      <trkpt lat="44.60817" lon="0.87583">
        <ele>170.29</ele>
        <time>2013-03-24T08:48:44Z</time>
      </trkpt>
      <trkpt lat="44.6078" lon="0.87606">
        <ele>169.81</ele>
        <time>2013-03-24T08:48:58Z</time>
      </trkpt>
      <trkpt lat="44.60746" lon="0.87609">
        <ele>169.81</ele>
        <time>2013-03-24T08:49:09Z</time>
      </trkpt>
      <trkpt lat="44.6072" lon="0.87647">
        <ele>167.89</ele>
        <time>2013-03-24T08:49:19Z</time>
      </trkpt>
      <trkpt lat="44.60718" lon="0.87653">
        <ele>167.41</ele>
        <time>2013-03-24T08:49:20Z</time>
      </trkpt>
      <trkpt lat="44.60698" lon="0.87718">
        <ele>166.93</ele>
        <time>2013-03-24T08:49:33Z</time>
      </trkpt>
      <trkpt lat="44.60677" lon="0.87775">
        <ele>171.73</ele>
        <time>2013-03-24T08:49:49Z</time>
      </trkpt>
      <trkpt lat="44.60641" lon="0.87801">
        <ele>173.66</ele>
        <time>2013-03-24T08:50:05Z</time>
      </trkpt>
      <trkpt lat="44.6062" lon="0.87833">
        <ele>176.06</ele>
        <time>2013-03-24T08:50:19Z</time>
      </trkpt>
      <trkpt lat="44.60598" lon="0.87874">
        <ele>178.94</ele>
        <time>2013-03-24T08:50:33Z</time>
      </trkpt>
      <trkpt lat="44.60592" lon="0.87884">
        <ele>178.94</ele>
        <time>2013-03-24T08:50:37Z</time>
      </trkpt>
      <trkpt lat="44.60593" lon="0.879">
        <ele>179.42</ele>
        <time>2013-03-24T08:50:42Z</time>
      </trkpt>
      <trkpt lat="44.60606" lon="0.87942">
        <ele>181.83</ele>
        <time>2013-03-24T08:50:54Z</time>
      </trkpt>
      <trkpt lat="44.60624" lon="0.87992">
        <ele>183.27</ele>
        <time>2013-03-24T08:51:05Z</time>
      </trkpt>
      <trkpt lat="44.60641" lon="0.8803">
        <ele>188.56</ele>
        <time>2013-03-24T08:51:16Z</time>
      </trkpt>
      <trkpt lat="44.60655" lon="0.88062">
        <ele>190.48</ele>
        <time>2013-03-24T08:51:26Z</time>
      </trkpt>
      <trkpt lat="44.60676" lon="0.88101">
        <ele>196.73</ele>
        <time>2013-03-24T08:51:39Z</time>
      </trkpt>
      <trkpt lat="44.60711" lon="0.88126">
        <ele>199.61</ele>
        <time>2013-03-24T08:51:51Z</time>
      </trkpt>
      <trkpt lat="44.60742" lon="0.88141">
        <ele>200.57</ele>
        <time>2013-03-24T08:52:01Z</time>
      </trkpt>
      <trkpt lat="44.60777" lon="0.88157">
        <ele>199.13</ele>
        <time>2013-03-24T08:52:12Z</time>
      </trkpt>
      <trkpt lat="44.60809" lon="0.88153">
        <ele>199.13</ele>
        <time>2013-03-24T08:52:23Z</time>
      </trkpt>
      <trkpt lat="44.60819" lon="0.88149">
        <ele>199.61</ele>
        <time>2013-03-24T08:52:28Z</time>
      </trkpt>
      <trkpt lat="44.60835" lon="0.88178">
        <ele>203.94</ele>
        <time>2013-03-24T08:52:41Z</time>
      </trkpt>
      <trkpt lat="44.60836" lon="0.88192">
        <ele>203.46</ele>
        <time>2013-03-24T08:52:45Z</time>
      </trkpt>
      <trkpt lat="44.60844" lon="0.88249">
        <ele>208.26</ele>
        <time>2013-03-24T08:53:00Z</time>
      </trkpt>
      <trkpt lat="44.60847" lon="0.88277">
        <ele>213.07</ele>
        <time>2013-03-24T08:53:08Z</time>
      </trkpt>
      <trkpt lat="44.60844" lon="0.88297">
        <ele>218.36</ele>
        <time>2013-03-24T08:53:19Z</time>
      </trkpt>
      <trkpt lat="44.60844" lon="0.88306">
        <ele>220.28</ele>
        <time>2013-03-24T08:53:24Z</time>
      </trkpt>
      <trkpt lat="44.60845" lon="0.88314">
        <ele>220.76</ele>
        <time>2013-03-24T08:53:27Z</time>
      </trkpt>
      <trkpt lat="44.60845" lon="0.88322">
        <ele>220.76</ele>
        <time>2013-03-24T08:53:30Z</time>
      </trkpt>
      <trkpt lat="44.60875" lon="0.88335">
        <ele>219.32</ele>
        <time>2013-03-24T08:53:44Z</time>
      </trkpt>
      <trkpt lat="44.60912" lon="0.88347">
        <ele>217.88</ele>
        <time>2013-03-24T08:53:56Z</time>
      </trkpt>
      <trkpt lat="44.60925" lon="0.8835">
        <ele>216.43</ele>
        <time>2013-03-24T08:54:00Z</time>
      </trkpt>
      <trkpt lat="44.60932" lon="0.8839">
        <ele>211.63</ele>
        <time>2013-03-24T08:54:08Z</time>
      </trkpt>
      <trkpt lat="44.60933" lon="0.88397">
        <ele>209.7</ele>
        <time>2013-03-24T08:54:11Z</time>
      </trkpt>
      <trkpt lat="44.60956" lon="0.88416">
        <ele>209.22</ele>
        <time>2013-03-24T08:54:19Z</time>
      </trkpt>
      <trkpt lat="44.6096" lon="0.8842">
        <ele>208.74</ele>
        <time>2013-03-24T08:54:20Z</time>
      </trkpt>
      <trkpt lat="44.60985" lon="0.88458">
        <ele>206.82</ele>
        <time>2013-03-24T08:54:26Z</time>
      </trkpt>
      <trkpt lat="44.60999" lon="0.88483">
        <ele>204.9</ele>
        <time>2013-03-24T08:54:31Z</time>
      </trkpt>
      <trkpt lat="44.61001" lon="0.88492">
        <ele>204.42</ele>
        <time>2013-03-24T08:54:33Z</time>
      </trkpt>
      <trkpt lat="44.61003" lon="0.88504">
        <ele>202.49</ele>
        <time>2013-03-24T08:54:35Z</time>
      </trkpt>
      <trkpt lat="44.61005" lon="0.8851">
        <ele>202.01</ele>
        <time>2013-03-24T08:54:36Z</time>
      </trkpt>
      <trkpt lat="44.61008" lon="0.88515">
        <ele>201.53</ele>
        <time>2013-03-24T08:54:37Z</time>
      </trkpt>
      <trkpt lat="44.61021" lon="0.88538">
        <ele>198.17</ele>
        <time>2013-03-24T08:54:41Z</time>
      </trkpt>
      <trkpt lat="44.61025" lon="0.88545">
        <ele>197.69</ele>
        <time>2013-03-24T08:54:42Z</time>
      </trkpt>
      <trkpt lat="44.61031" lon="0.8856">
        <ele>196.25</ele>
        <time>2013-03-24T08:54:44Z</time>
      </trkpt>
      <trkpt lat="44.61034" lon="0.88567">
        <ele>195.77</ele>
        <time>2013-03-24T08:54:45Z</time>
      </trkpt>
      <trkpt lat="44.61036" lon="0.88575">
        <ele>194.8</ele>
        <time>2013-03-24T08:54:46Z</time>
      </trkpt>
      <trkpt lat="44.61036" lon="0.88584">
        <ele>194.32</ele>
        <time>2013-03-24T08:54:47Z</time>
      </trkpt>
      <trkpt lat="44.61035" lon="0.88593">
        <ele>193.84</ele>
        <time>2013-03-24T08:54:48Z</time>
      </trkpt>
      <trkpt lat="44.61035" lon="0.88709">
        <ele>187.11</ele>
        <time>2013-03-24T08:54:59Z</time>
      </trkpt>
      <trkpt lat="44.61019" lon="0.88736">
        <ele>184.23</ele>
        <time>2013-03-24T08:55:04Z</time>
      </trkpt>
      <trkpt lat="44.60984" lon="0.88765">
        <ele>183.75</ele>
        <time>2013-03-24T08:55:11Z</time>
      </trkpt>
      <trkpt lat="44.60974" lon="0.88772">
        <ele>184.23</ele>
        <time>2013-03-24T08:55:13Z</time>
      </trkpt>
      <trkpt lat="44.60925" lon="0.88823">
        <ele>185.67</ele>
        <time>2013-03-24T08:55:26Z</time>
      </trkpt>
      <trkpt lat="44.60917" lon="0.88829">
        <ele>185.67</ele>
        <time>2013-03-24T08:55:28Z</time>
      </trkpt>
      <trkpt lat="44.60902" lon="0.88841">
        <ele>186.15</ele>
        <time>2013-03-24T08:55:32Z</time>
      </trkpt>
      <trkpt lat="44.60886" lon="0.88853">
        <ele>186.63</ele>
        <time>2013-03-24T08:55:36Z</time>
      </trkpt>
      <trkpt lat="44.60857" lon="0.88871">
        <ele>187.59</ele>
        <time>2013-03-24T08:55:42Z</time>
      </trkpt>
      <trkpt lat="44.60814" lon="0.88905">
        <ele>186.15</ele>
        <time>2013-03-24T08:55:52Z</time>
      </trkpt>
      <trkpt lat="44.6079" lon="0.88918">
        <ele>186.63</ele>
        <time>2013-03-24T08:55:57Z</time>
      </trkpt>
      <trkpt lat="44.60765" lon="0.88931">
        <ele>188.56</ele>
        <time>2013-03-24T08:56:02Z</time>
      </trkpt>
      <trkpt lat="44.60737" lon="0.88946">
        <ele>190.48</ele>
        <time>2013-03-24T08:56:08Z</time>
      </trkpt>
      <trkpt lat="44.60706" lon="0.88963">
        <ele>191.92</ele>
        <time>2013-03-24T08:56:15Z</time>
      </trkpt>
      <trkpt lat="44.60696" lon="0.88966">
        <ele>191.92</ele>
        <time>2013-03-24T08:56:17Z</time>
      </trkpt>
      <trkpt lat="44.60691" lon="0.88968">
        <ele>191.44</ele>
        <time>2013-03-24T08:56:18Z</time>
      </trkpt>
      <trkpt lat="44.60631" lon="0.8899">
        <ele>188.56</ele>
        <time>2013-03-24T08:56:29Z</time>
      </trkpt>
      <trkpt lat="44.60549" lon="0.8902">
        <ele>184.23</ele>
        <time>2013-03-24T08:56:43Z</time>
      </trkpt>
      <trkpt lat="44.60534" lon="0.89031">
        <ele>184.23</ele>
        <time>2013-03-24T08:56:46Z</time>
      </trkpt>
      <trkpt lat="44.60507" lon="0.89051">
        <ele>183.75</ele>
        <time>2013-03-24T08:56:52Z</time>
      </trkpt>
      <trkpt lat="44.60502" lon="0.89054">
        <ele>183.75</ele>
        <time>2013-03-24T08:56:53Z</time>
      </trkpt>
      <trkpt lat="44.60497" lon="0.89057">
        <ele>183.75</ele>
        <time>2013-03-24T08:56:54Z</time>
      </trkpt>
      <trkpt lat="44.60493" lon="0.8906">
        <ele>183.75</ele>
        <time>2013-03-24T08:56:55Z</time>
      </trkpt>
      <trkpt lat="44.60487" lon="0.89061">
        <ele>183.75</ele>
        <time>2013-03-24T08:56:56Z</time>
      </trkpt>
      <trkpt lat="44.60482" lon="0.89063">
        <ele>183.75</ele>
        <time>2013-03-24T08:56:57Z</time>
      </trkpt>
      <trkpt lat="44.60478" lon="0.89065">
        <ele>183.75</ele>
        <time>2013-03-24T08:56:58Z</time>
      </trkpt>
      <trkpt lat="44.60463" lon="0.8907">
        <ele>183.27</ele>
        <time>2013-03-24T08:57:01Z</time>
      </trkpt>
      <trkpt lat="44.60458" lon="0.89074">
        <ele>182.31</ele>
        <time>2013-03-24T08:57:02Z</time>
      </trkpt>
      <trkpt lat="44.60436" lon="0.89091">
        <ele>179.42</ele>
        <time>2013-03-24T08:57:06Z</time>
      </trkpt>
      <trkpt lat="44.60398" lon="0.89118">
        <ele>176.54</ele>
        <time>2013-03-24T08:57:13Z</time>
      </trkpt>
      <trkpt lat="44.60327" lon="0.89166">
        <ele>171.73</ele>
        <time>2013-03-24T08:57:25Z</time>
      </trkpt>
      <trkpt lat="44.60322" lon="0.89173">
        <ele>171.25</ele>
        <time>2013-03-24T08:57:26Z</time>
      </trkpt>
      <trkpt lat="44.60318" lon="0.89181">
        <ele>170.77</ele>
        <time>2013-03-24T08:57:27Z</time>
      </trkpt>
      <trkpt lat="44.6029" lon="0.89223">
        <ele>168.37</ele>
        <time>2013-03-24T08:57:34Z</time>
      </trkpt>
      <trkpt lat="44.60284" lon="0.89226">
        <ele>168.37</ele>
        <time>2013-03-24T08:57:35Z</time>
      </trkpt>
      <trkpt lat="44.60216" lon="0.89255">
        <ele>169.81</ele>
        <time>2013-03-24T08:57:49Z</time>
      </trkpt>
      <trkpt lat="44.60211" lon="0.89259">
        <ele>169.81</ele>
        <time>2013-03-24T08:57:50Z</time>
      </trkpt>
      <trkpt lat="44.60206" lon="0.89264">
        <ele>169.33</ele>
        <time>2013-03-24T08:57:51Z</time>
      </trkpt>
      <trkpt lat="44.60201" lon="0.89268">
        <ele>168.85</ele>
        <time>2013-03-24T08:57:52Z</time>
      </trkpt>
      <trkpt lat="44.60194" lon="0.89272">
        <ele>168.37</ele>
        <time>2013-03-24T08:57:53Z</time>
      </trkpt>
      <trkpt lat="44.60189" lon="0.89277">
        <ele>167.89</ele>
        <time>2013-03-24T08:57:54Z</time>
      </trkpt>
      <trkpt lat="44.60183" lon="0.89283">
        <ele>167.41</ele>
        <time>2013-03-24T08:57:55Z</time>
      </trkpt>
      <trkpt lat="44.60172" lon="0.89295">
        <ele>166.45</ele>
        <time>2013-03-24T08:57:57Z</time>
      </trkpt>
      <trkpt lat="44.60166" lon="0.89299">
        <ele>165.96</ele>
        <time>2013-03-24T08:57:58Z</time>
      </trkpt>
      <trkpt lat="44.6016" lon="0.89301">
        <ele>165.96</ele>
        <time>2013-03-24T08:57:59Z</time>
      </trkpt>
      <trkpt lat="44.60154" lon="0.89302">
        <ele>165.96</ele>
        <time>2013-03-24T08:58:00Z</time>
      </trkpt>
      <trkpt lat="44.60148" lon="0.89303">
        <ele>165.96</ele>
        <time>2013-03-24T08:58:01Z</time>
      </trkpt>
      <trkpt lat="44.60143" lon="0.89305">
        <ele>165.96</ele>
        <time>2013-03-24T08:58:02Z</time>
      </trkpt>
      <trkpt lat="44.60138" lon="0.89309">
        <ele>166.45</ele>
        <time>2013-03-24T08:58:03Z</time>
      </trkpt>
      <trkpt lat="44.60136" lon="0.89314">
        <ele>166.45</ele>
        <time>2013-03-24T08:58:04Z</time>
      </trkpt>
      <trkpt lat="44.60134" lon="0.8932">
        <ele>166.45</ele>
        <time>2013-03-24T08:58:05Z</time>
      </trkpt>
      <trkpt lat="44.60133" lon="0.89327">
        <ele>166.93</ele>
        <time>2013-03-24T08:58:06Z</time>
      </trkpt>
      <trkpt lat="44.60133" lon="0.89333">
        <ele>166.93</ele>
        <time>2013-03-24T08:58:07Z</time>
      </trkpt>
      <trkpt lat="44.60133" lon="0.8934">
        <ele>167.41</ele>
        <time>2013-03-24T08:58:08Z</time>
      </trkpt>
      <trkpt lat="44.60133" lon="0.89345">
        <ele>167.89</ele>
        <time>2013-03-24T08:58:09Z</time>
      </trkpt>
      <trkpt lat="44.60132" lon="0.8935">
        <ele>167.89</ele>
        <time>2013-03-24T08:58:10Z</time>
      </trkpt>
      <trkpt lat="44.60129" lon="0.8936">
        <ele>168.85</ele>
        <time>2013-03-24T08:58:13Z</time>
      </trkpt>
      <trkpt lat="44.60127" lon="0.89361">
        <ele>169.33</ele>
        <time>2013-03-24T08:58:14Z</time>
      </trkpt>
      <trkpt lat="44.60125" lon="0.89359">
        <ele>169.81</ele>
        <time>2013-03-24T08:58:15Z</time>
      </trkpt>
      <trkpt lat="44.60124" lon="0.89356">
        <ele>169.81</ele>
        <time>2013-03-24T08:58:16Z</time>
      </trkpt>
      <trkpt lat="44.60125" lon="0.89352">
        <ele>169.81</ele>
        <time>2013-03-24T08:58:17Z</time>
      </trkpt>
      <trkpt lat="44.60125" lon="0.89348">
        <ele>170.29</ele>
        <time>2013-03-24T08:58:18Z</time>
      </trkpt>
      <trkpt lat="44.60126" lon="0.89344">
        <ele>170.29</ele>
        <time>2013-03-24T08:58:19Z</time>
      </trkpt>
      <trkpt lat="44.60126" lon="0.89339">
        <ele>170.29</ele>
        <time>2013-03-24T08:58:20Z</time>
      </trkpt>
      <trkpt lat="44.60127" lon="0.89334">
        <ele>170.29</ele>
        <time>2013-03-24T08:58:21Z</time>
      </trkpt>
      <trkpt lat="44.60127" lon="0.89329">
        <ele>170.29</ele>
        <time>2013-03-24T08:58:22Z</time>
      </trkpt>
      <trkpt lat="44.60127" lon="0.89325">
        <ele>170.29</ele>
        <time>2013-03-24T08:58:23Z</time>
      </trkpt>
      <trkpt lat="44.60127" lon="0.8932">
        <ele>170.29</ele>
        <time>2013-03-24T08:58:24Z</time>
      </trkpt>
      <trkpt lat="44.60126" lon="0.89316">
        <ele>170.29</ele>
        <time>2013-03-24T08:58:25Z</time>
      </trkpt>
      <trkpt lat="44.60124" lon="0.89312">
        <ele>170.29</ele>
        <time>2013-03-24T08:58:26Z</time>
      </trkpt>
      <trkpt lat="44.60122" lon="0.8931">
        <ele>170.29</ele>
        <time>2013-03-24T08:58:27Z</time>
      </trkpt>
      <trkpt lat="44.60119" lon="0.89309">
        <ele>170.77</ele>
        <time>2013-03-24T08:58:28Z</time>
      </trkpt>
      <trkpt lat="44.60074" lon="0.89298">
        <ele>174.14</ele>
        <time>2013-03-24T08:58:42Z</time>
      </trkpt>
      <trkpt lat="44.60056" lon="0.89337">
        <ele>177.98</ele>
        <time>2013-03-24T08:58:54Z</time>
      </trkpt>
      <trkpt lat="44.60056" lon="0.89343">
        <ele>177.98</ele>
        <time>2013-03-24T08:58:56Z</time>
      </trkpt>
      <trkpt lat="44.60057" lon="0.89345">
        <ele>178.46</ele>
        <time>2013-03-24T08:58:57Z</time>
      </trkpt>
      <trkpt lat="44.60058" lon="0.89347">
        <ele>178.46</ele>
        <time>2013-03-24T08:58:58Z</time>
      </trkpt>
      <trkpt lat="44.60058" lon="0.89349">
        <ele>177.98</ele>
        <time>2013-03-24T08:58:59Z</time>
      </trkpt>
      <trkpt lat="44.60058" lon="0.89351">
        <ele>177.98</ele>
        <time>2013-03-24T08:59:00Z</time>
      </trkpt>
      <trkpt lat="44.60057" lon="0.89353">
        <ele>177.98</ele>
        <time>2013-03-24T08:59:01Z</time>
      </trkpt>
      <trkpt lat="44.60057" lon="0.89357">
        <ele>177.5</ele>
        <time>2013-03-24T08:59:12Z</time>
      </trkpt>
      <trkpt lat="44.60055" lon="0.89357">
        <ele>177.02</ele>
        <time>2013-03-24T08:59:41Z</time>
      </trkpt>
      <trkpt lat="44.60054" lon="0.89357">
        <ele>175.58</ele>
        <time>2013-03-24T09:00:19Z</time>
      </trkpt>
      <trkpt lat="44.60055" lon="0.89357">
        <ele>175.58</ele>
        <time>2013-03-24T09:00:59Z</time>
      </trkpt>
      <trkpt lat="44.60055" lon="0.89357">
        <ele>175.1</ele>
        <time>2013-03-24T09:01:37Z</time>
      </trkpt>
      <trkpt lat="44.60054" lon="0.89357">
        <ele>175.1</ele>
        <time>2013-03-24T09:02:17Z</time>
      </trkpt>
      <trkpt lat="44.60055" lon="0.89359">
        <ele>175.58</ele>
        <time>2013-03-24T09:02:57Z</time>
      </trkpt>
      <trkpt lat="44.60056" lon="0.89358">
        <ele>175.1</ele>
        <time>2013-03-24T09:03:44Z</time>
      </trkpt>
      <trkpt lat="44.60056" lon="0.89356">
        <ele>175.58</ele>
        <time>2013-03-24T09:04:24Z</time>
      </trkpt>
      <trkpt lat="44.60056" lon="0.89354">
        <ele>175.58</ele>
        <time>2013-03-24T09:05:08Z</time>
      </trkpt>
      <trkpt lat="44.60056" lon="0.89352">
        <ele>178.94</ele>
        <time>2013-03-24T09:05:48Z</time>
      </trkpt>
      <trkpt lat="44.60056" lon="0.89355">
        <ele>180.38</ele>
        <time>2013-03-24T09:06:24Z</time>
      </trkpt>
      <trkpt lat="44.60054" lon="0.89353">
        <ele>178.46</ele>
        <time>2013-03-24T09:07:06Z</time>
      </trkpt>
      <trkpt lat="44.60054" lon="0.89355">
        <ele>178.94</ele>
        <time>2013-03-24T09:07:37Z</time>
      </trkpt>
      <trkpt lat="44.60055" lon="0.89356">
        <ele>180.87</ele>
        <time>2013-03-24T09:08:17Z</time>
      </trkpt>
      <trkpt lat="44.60055" lon="0.89355">
        <ele>178.94</ele>
        <time>2013-03-24T09:08:53Z</time>
      </trkpt>
      <trkpt lat="44.60055" lon="0.89355">
        <ele>179.42</ele>
        <time>2013-03-24T09:09:41Z</time>
      </trkpt>
      <trkpt lat="44.60055" lon="0.89355">
        <ele>178.94</ele>
        <time>2013-03-24T09:10:16Z</time>
      </trkpt>
      <trkpt lat="44.60055" lon="0.89357">
        <ele>177.02</ele>
        <time>2013-03-24T09:10:43Z</time>
      </trkpt>
      <trkpt lat="44.60057" lon="0.89358">
        <ele>176.54</ele>
        <time>2013-03-24T09:11:05Z</time>
      </trkpt>
      <trkpt lat="44.60057" lon="0.89358">
        <ele>176.54</ele>
        <time>2013-03-24T09:11:29Z</time>
      </trkpt>
      <trkpt lat="44.60057" lon="0.89358">
        <ele>175.58</ele>
        <time>2013-03-24T09:11:51Z</time>
      </trkpt>
      <trkpt lat="44.60056" lon="0.89358">
        <ele>175.58</ele>
        <time>2013-03-24T09:12:11Z</time>
      </trkpt>
      <trkpt lat="44.60053" lon="0.89357">
        <ele>175.58</ele>
        <time>2013-03-24T09:12:26Z</time>
      </trkpt>
      <trkpt lat="44.60056" lon="0.89357">
        <ele>173.17</ele>
        <time>2013-03-24T09:12:55Z</time>
      </trkpt>
      <trkpt lat="44.60054" lon="0.89357">
        <ele>174.14</ele>
        <time>2013-03-24T09:13:05Z</time>
      </trkpt>
      <trkpt lat="44.60052" lon="0.89357">
        <ele>174.14</ele>
        <time>2013-03-24T09:13:06Z</time>
      </trkpt>
      <trkpt lat="44.60051" lon="0.89359">
        <ele>174.62</ele>
        <time>2013-03-24T09:13:07Z</time>
      </trkpt>
      <trkpt lat="44.60051" lon="0.89362">
        <ele>175.1</ele>
        <time>2013-03-24T09:13:08Z</time>
      </trkpt>
      <trkpt lat="44.60051" lon="0.89365">
        <ele>175.1</ele>
        <time>2013-03-24T09:13:09Z</time>
      </trkpt>
      <trkpt lat="44.6005" lon="0.89368">
        <ele>175.1</ele>
        <time>2013-03-24T09:13:10Z</time>
      </trkpt>
      <trkpt lat="44.60043" lon="0.89413">
        <ele>173.66</ele>
        <time>2013-03-24T09:13:25Z</time>
      </trkpt>
      <trkpt lat="44.60041" lon="0.89439">
        <ele>172.21</ele>
        <time>2013-03-24T09:13:33Z</time>
      </trkpt>
      <trkpt lat="44.60036" lon="0.89467">
        <ele>169.81</ele>
        <time>2013-03-24T09:13:39Z</time>
      </trkpt>
      <trkpt lat="44.60033" lon="0.89469">
        <ele>169.33</ele>
        <time>2013-03-24T09:13:40Z</time>
      </trkpt>
      <trkpt lat="44.6003" lon="0.89469">
        <ele>168.85</ele>
        <time>2013-03-24T09:13:41Z</time>
      </trkpt>
      <trkpt lat="44.6" lon="0.8947">
        <ele>169.81</ele>
        <time>2013-03-24T09:13:48Z</time>
      </trkpt>
      <trkpt lat="44.59996" lon="0.89469">
        <ele>170.29</ele>
        <time>2013-03-24T09:13:49Z</time>
      </trkpt>
      <trkpt lat="44.59992" lon="0.89468">
        <ele>170.29</ele>
        <time>2013-03-24T09:13:50Z</time>
      </trkpt>
      <trkpt lat="44.59987" lon="0.89467">
        <ele>170.77</ele>
        <time>2013-03-24T09:13:51Z</time>
      </trkpt>
      <trkpt lat="44.59983" lon="0.89465">
        <ele>171.25</ele>
        <time>2013-03-24T09:13:52Z</time>
      </trkpt>
      <trkpt lat="44.59979" lon="0.89462">
        <ele>171.73</ele>
        <time>2013-03-24T09:13:53Z</time>
      </trkpt>
      <trkpt lat="44.59974" lon="0.89458">
        <ele>171.73</ele>
        <time>2013-03-24T09:13:54Z</time>
      </trkpt>
      <trkpt lat="44.59915" lon="0.89392">
        <ele>172.21</ele>
        <time>2013-03-24T09:14:09Z</time>
      </trkpt>
      <trkpt lat="44.59838" lon="0.89306">
        <ele>166.45</ele>
        <time>2013-03-24T09:14:23Z</time>
      </trkpt>
      <trkpt lat="44.59765" lon="0.89209">
        <ele>166.45</ele>
        <time>2013-03-24T09:14:38Z</time>
      </trkpt>
      <trkpt lat="44.59756" lon="0.89196">
        <ele>166.45</ele>
        <time>2013-03-24T09:14:40Z</time>
      </trkpt>
      <trkpt lat="44.59751" lon="0.89191">
        <ele>166.45</ele>
        <time>2013-03-24T09:14:41Z</time>
      </trkpt>
      <trkpt lat="44.59668" lon="0.89121">
        <ele>170.29</ele>
        <time>2013-03-24T09:14:57Z</time>
      </trkpt>
      <trkpt lat="44.59645" lon="0.89095">
        <ele>173.66</ele>
        <time>2013-03-24T09:15:03Z</time>
      </trkpt>
      <trkpt lat="44.59633" lon="0.89073">
        <ele>176.54</ele>
        <time>2013-03-24T09:15:08Z</time>
      </trkpt>
      <trkpt lat="44.59633" lon="0.89068">
        <ele>177.02</ele>
        <time>2013-03-24T09:15:09Z</time>
      </trkpt>
      <trkpt lat="44.59631" lon="0.89064">
        <ele>177.5</ele>
        <time>2013-03-24T09:15:10Z</time>
      </trkpt>
      <trkpt lat="44.5963" lon="0.89061">
        <ele>177.98</ele>
        <time>2013-03-24T09:15:11Z</time>
      </trkpt>
      <trkpt lat="44.59628" lon="0.89058">
        <ele>177.98</ele>
        <time>2013-03-24T09:15:12Z</time>
      </trkpt>
      <trkpt lat="44.59607" lon="0.89013">
        <ele>178.94</ele>
        <time>2013-03-24T09:15:23Z</time>
      </trkpt>
      <trkpt lat="44.59564" lon="0.88927">
        <ele>175.1</ele>
        <time>2013-03-24T09:15:40Z</time>
      </trkpt>
      <trkpt lat="44.59519" lon="0.88857">
        <ele>168.85</ele>
        <time>2013-03-24T09:15:50Z</time>
      </trkpt>
      <trkpt lat="44.59511" lon="0.88844">
        <ele>167.41</ele>
        <time>2013-03-24T09:15:52Z</time>
      </trkpt>
      <trkpt lat="44.59491" lon="0.8882">
        <ele>163.08</ele>
        <time>2013-03-24T09:15:56Z</time>
      </trkpt>
      <trkpt lat="44.59469" lon="0.88785">
        <ele>159.24</ele>
        <time>2013-03-24T09:16:00Z</time>
      </trkpt>
      <trkpt lat="44.5944" lon="0.88765">
        <ele>155.87</ele>
        <time>2013-03-24T09:16:07Z</time>
      </trkpt>
      <trkpt lat="44.59433" lon="0.88756">
        <ele>156.35</ele>
        <time>2013-03-24T09:16:11Z</time>
      </trkpt>
      <trkpt lat="44.59421" lon="0.88742">
        <ele>156.35</ele>
        <time>2013-03-24T09:16:18Z</time>
      </trkpt>
      <trkpt lat="44.59406" lon="0.88706">
        <ele>160.2</ele>
        <time>2013-03-24T09:16:31Z</time>
      </trkpt>
      <trkpt lat="44.59379" lon="0.88659">
        <ele>163.08</ele>
        <time>2013-03-24T09:16:44Z</time>
      </trkpt>
      <trkpt lat="44.59368" lon="0.88625">
        <ele>165.48</ele>
        <time>2013-03-24T09:16:53Z</time>
      </trkpt>
      <trkpt lat="44.59358" lon="0.88597">
        <ele>165.96</ele>
        <time>2013-03-24T09:16:58Z</time>
      </trkpt>
      <trkpt lat="44.59335" lon="0.88562">
        <ele>164.04</ele>
        <time>2013-03-24T09:17:06Z</time>
      </trkpt>
      <trkpt lat="44.59334" lon="0.88558">
        <ele>163.56</ele>
        <time>2013-03-24T09:17:07Z</time>
      </trkpt>
      <trkpt lat="44.59334" lon="0.88554">
        <ele>163.56</ele>
        <time>2013-03-24T09:17:08Z</time>
      </trkpt>
      <trkpt lat="44.59331" lon="0.88516">
        <ele>160.68</ele>
        <time>2013-03-24T09:17:18Z</time>
      </trkpt>
      <trkpt lat="44.59327" lon="0.88482">
        <ele>157.79</ele>
        <time>2013-03-24T09:17:25Z</time>
      </trkpt>
      <trkpt lat="44.59327" lon="0.88475">
        <ele>157.31</ele>
        <time>2013-03-24T09:17:26Z</time>
      </trkpt>
      <trkpt lat="44.5931" lon="0.88378">
        <ele>154.43</ele>
        <time>2013-03-24T09:17:39Z</time>
      </trkpt>
      <trkpt lat="44.59307" lon="0.88372">
        <ele>154.43</ele>
        <time>2013-03-24T09:17:40Z</time>
      </trkpt>
      <trkpt lat="44.59303" lon="0.88367">
        <ele>153.95</ele>
        <time>2013-03-24T09:17:41Z</time>
      </trkpt>
      <trkpt lat="44.59254" lon="0.88316">
        <ele>152.51</ele>
        <time>2013-03-24T09:17:51Z</time>
      </trkpt>
      <trkpt lat="44.59207" lon="0.88301">
        <ele>153.47</ele>
        <time>2013-03-24T09:17:59Z</time>
      </trkpt>
      <trkpt lat="44.59185" lon="0.88297">
        <ele>154.91</ele>
        <time>2013-03-24T09:18:03Z</time>
      </trkpt>
      <trkpt lat="44.59133" lon="0.8829">
        <ele>156.35</ele>
        <time>2013-03-24T09:18:13Z</time>
      </trkpt>
      <trkpt lat="44.59127" lon="0.88289">
        <ele>156.35</ele>
        <time>2013-03-24T09:18:14Z</time>
      </trkpt>
      <trkpt lat="44.59095" lon="0.88274">
        <ele>156.35</ele>
        <time>2013-03-24T09:18:19Z</time>
      </trkpt>
      <trkpt lat="44.59083" lon="0.88269">
        <ele>157.31</ele>
        <time>2013-03-24T09:18:21Z</time>
      </trkpt>
      <trkpt lat="44.59062" lon="0.8826">
        <ele>159.24</ele>
        <time>2013-03-24T09:18:25Z</time>
      </trkpt>
      <trkpt lat="44.59027" lon="0.88235">
        <ele>160.68</ele>
        <time>2013-03-24T09:18:35Z</time>
      </trkpt>
      <trkpt lat="44.59011" lon="0.88197">
        <ele>163.08</ele>
        <time>2013-03-24T09:18:48Z</time>
      </trkpt>
      <trkpt lat="44.58985" lon="0.88175">
        <ele>164.52</ele>
        <time>2013-03-24T09:19:01Z</time>
      </trkpt>
      <trkpt lat="44.58963" lon="0.88152">
        <ele>161.64</ele>
        <time>2013-03-24T09:19:13Z</time>
      </trkpt>
      <trkpt lat="44.58952" lon="0.88137">
        <ele>159.72</ele>
        <time>2013-03-24T09:19:17Z</time>
      </trkpt>
      <trkpt lat="44.58906" lon="0.88076">
        <ele>152.03</ele>
        <time>2013-03-24T09:19:27Z</time>
      </trkpt>
      <trkpt lat="44.58902" lon="0.88072">
        <ele>151.06</ele>
        <time>2013-03-24T09:19:28Z</time>
      </trkpt>
      <trkpt lat="44.58897" lon="0.88069">
        <ele>150.1</ele>
        <time>2013-03-24T09:19:29Z</time>
      </trkpt>
      <trkpt lat="44.58892" lon="0.88068">
        <ele>149.62</ele>
        <time>2013-03-24T09:19:30Z</time>
      </trkpt>
      <trkpt lat="44.58888" lon="0.88065">
        <ele>149.14</ele>
        <time>2013-03-24T09:19:31Z</time>
      </trkpt>
      <trkpt lat="44.58885" lon="0.8806">
        <ele>148.66</ele>
        <time>2013-03-24T09:19:32Z</time>
      </trkpt>
      <trkpt lat="44.58882" lon="0.88054">
        <ele>148.66</ele>
        <time>2013-03-24T09:19:33Z</time>
      </trkpt>
      <trkpt lat="44.58859" lon="0.88008">
        <ele>146.26</ele>
        <time>2013-03-24T09:19:41Z</time>
      </trkpt>
      <trkpt lat="44.58857" lon="0.88002">
        <ele>146.26</ele>
        <time>2013-03-24T09:19:42Z</time>
      </trkpt>
      <trkpt lat="44.58839" lon="0.87971">
        <ele>145.78</ele>
        <time>2013-03-24T09:19:48Z</time>
      </trkpt>
      <trkpt lat="44.58833" lon="0.87963">
        <ele>145.78</ele>
        <time>2013-03-24T09:19:50Z</time>
      </trkpt>
      <trkpt lat="44.58819" lon="0.87948">
        <ele>146.26</ele>
        <time>2013-03-24T09:19:54Z</time>
      </trkpt>
      <trkpt lat="44.58815" lon="0.87945">
        <ele>146.26</ele>
        <time>2013-03-24T09:19:55Z</time>
      </trkpt>
      <trkpt lat="44.58789" lon="0.87928">
        <ele>146.74</ele>
        <time>2013-03-24T09:20:01Z</time>
      </trkpt>
      <trkpt lat="44.58779" lon="0.87926">
        <ele>146.74</ele>
        <time>2013-03-24T09:20:03Z</time>
      </trkpt>
      <trkpt lat="44.58744" lon="0.87915">
        <ele>146.74</ele>
        <time>2013-03-24T09:20:10Z</time>
      </trkpt>
      <trkpt lat="44.58739" lon="0.87912">
        <ele>146.74</ele>
        <time>2013-03-24T09:20:11Z</time>
      </trkpt>
      <trkpt lat="44.58718" lon="0.87903">
        <ele>146.74</ele>
        <time>2013-03-24T09:20:15Z</time>
      </trkpt>
      <trkpt lat="44.58712" lon="0.87902">
        <ele>146.74</ele>
        <time>2013-03-24T09:20:16Z</time>
      </trkpt>
      <trkpt lat="44.58706" lon="0.87901">
        <ele>146.26</ele>
        <time>2013-03-24T09:20:17Z</time>
      </trkpt>
      <trkpt lat="44.58673" lon="0.87901">
        <ele>145.3</ele>
        <time>2013-03-24T09:20:23Z</time>
      </trkpt>
      <trkpt lat="44.58625" lon="0.87906">
        <ele>144.82</ele>
        <time>2013-03-24T09:20:32Z</time>
      </trkpt>
      <trkpt lat="44.5862" lon="0.87904">
        <ele>144.82</ele>
        <time>2013-03-24T09:20:33Z</time>
      </trkpt>
      <trkpt lat="44.58616" lon="0.87902">
        <ele>145.3</ele>
        <time>2013-03-24T09:20:34Z</time>
      </trkpt>
      <trkpt lat="44.58612" lon="0.879">
        <ele>145.3</ele>
        <time>2013-03-24T09:20:35Z</time>
      </trkpt>
      <trkpt lat="44.58608" lon="0.87897">
        <ele>145.78</ele>
        <time>2013-03-24T09:20:36Z</time>
      </trkpt>
      <trkpt lat="44.58596" lon="0.87887">
        <ele>146.74</ele>
        <time>2013-03-24T09:20:39Z</time>
      </trkpt>
      <trkpt lat="44.58583" lon="0.87874">
        <ele>147.22</ele>
        <time>2013-03-24T09:20:42Z</time>
      </trkpt>
      <trkpt lat="44.58579" lon="0.87872">
        <ele>147.22</ele>
        <time>2013-03-24T09:20:43Z</time>
      </trkpt>
      <trkpt lat="44.58571" lon="0.87866">
        <ele>148.18</ele>
        <time>2013-03-24T09:20:45Z</time>
      </trkpt>
      <trkpt lat="44.58567" lon="0.87865">
        <ele>148.66</ele>
        <time>2013-03-24T09:20:46Z</time>
      </trkpt>
      <trkpt lat="44.58564" lon="0.87865">
        <ele>149.14</ele>
        <time>2013-03-24T09:20:47Z</time>
      </trkpt>
      <trkpt lat="44.5856" lon="0.87865">
        <ele>149.14</ele>
        <time>2013-03-24T09:20:48Z</time>
      </trkpt>
      <trkpt lat="44.58557" lon="0.87866">
        <ele>149.62</ele>
        <time>2013-03-24T09:20:49Z</time>
      </trkpt>
      <trkpt lat="44.58554" lon="0.87867">
        <ele>150.1</ele>
        <time>2013-03-24T09:20:50Z</time>
      </trkpt>
      <trkpt lat="44.58551" lon="0.87869">
        <ele>150.58</ele>
        <time>2013-03-24T09:20:51Z</time>
      </trkpt>
      <trkpt lat="44.58548" lon="0.8787">
        <ele>151.06</ele>
        <time>2013-03-24T09:20:52Z</time>
      </trkpt>
      <trkpt lat="44.58545" lon="0.8787">
        <ele>151.54</ele>
        <time>2013-03-24T09:20:53Z</time>
      </trkpt>
      <trkpt lat="44.58542" lon="0.8787">
        <ele>152.03</ele>
        <time>2013-03-24T09:20:54Z</time>
      </trkpt>
      <trkpt lat="44.58518" lon="0.87875">
        <ele>158.75</ele>
        <time>2013-03-24T09:21:04Z</time>
      </trkpt>
      <trkpt lat="44.58496" lon="0.87885">
        <ele>163.08</ele>
        <time>2013-03-24T09:21:15Z</time>
      </trkpt>
      <trkpt lat="44.58477" lon="0.87896">
        <ele>166.93</ele>
        <time>2013-03-24T09:21:25Z</time>
      </trkpt>
      <trkpt lat="44.58446" lon="0.87894">
        <ele>171.25</ele>
        <time>2013-03-24T09:21:37Z</time>
      </trkpt>
      <trkpt lat="44.58423" lon="0.87875">
        <ele>173.17</ele>
        <time>2013-03-24T09:21:51Z</time>
      </trkpt>
      <trkpt lat="44.58416" lon="0.87869">
        <ele>170.77</ele>
        <time>2013-03-24T09:22:06Z</time>
      </trkpt>
      <trkpt lat="44.58413" lon="0.87868">
        <ele>169.81</ele>
        <time>2013-03-24T09:22:27Z</time>
      </trkpt>
      <trkpt lat="44.58413" lon="0.87867">
        <ele>169.81</ele>
        <time>2013-03-24T09:22:41Z</time>
      </trkpt>
      <trkpt lat="44.58409" lon="0.87864">
        <ele>170.29</ele>
        <time>2013-03-24T09:22:44Z</time>
      </trkpt>
      <trkpt lat="44.58385" lon="0.8782">
        <ele>169.81</ele>
        <time>2013-03-24T09:22:56Z</time>
      </trkpt>
      <trkpt lat="44.58375" lon="0.87797">
        <ele>168.37</ele>
        <time>2013-03-24T09:23:00Z</time>
      </trkpt>
      <trkpt lat="44.58361" lon="0.87751">
        <ele>165</ele>
        <time>2013-03-24T09:23:07Z</time>
      </trkpt>
      <trkpt lat="44.5835" lon="0.8769">
        <ele>158.75</ele>
        <time>2013-03-24T09:23:17Z</time>
      </trkpt>
      <trkpt lat="44.5835" lon="0.87685">
        <ele>158.27</ele>
        <time>2013-03-24T09:23:18Z</time>
      </trkpt>
      <trkpt lat="44.58342" lon="0.87669">
        <ele>154.43</ele>
        <time>2013-03-24T09:23:22Z</time>
      </trkpt>
      <trkpt lat="44.58329" lon="0.87657">
        <ele>150.58</ele>
        <time>2013-03-24T09:23:26Z</time>
      </trkpt>
      <trkpt lat="44.58293" lon="0.87634">
        <ele>152.03</ele>
        <time>2013-03-24T09:23:38Z</time>
      </trkpt>
      <trkpt lat="44.58274" lon="0.87615">
        <ele>160.68</ele>
        <time>2013-03-24T09:23:49Z</time>
      </trkpt>
      <trkpt lat="44.58272" lon="0.87613">
        <ele>162.12</ele>
        <time>2013-03-24T09:23:59Z</time>
      </trkpt>
      <trkpt lat="44.58265" lon="0.87604">
        <ele>165</ele>
        <time>2013-03-24T09:24:15Z</time>
      </trkpt>
      <trkpt lat="44.58249" lon="0.87579">
        <ele>165.48</ele>
        <time>2013-03-24T09:24:25Z</time>
      </trkpt>
      <trkpt lat="44.58245" lon="0.87573">
        <ele>165.96</ele>
        <time>2013-03-24T09:24:27Z</time>
      </trkpt>
      <trkpt lat="44.58232" lon="0.87575">
        <ele>165.96</ele>
        <time>2013-03-24T09:24:35Z</time>
      </trkpt>
      <trkpt lat="44.58227" lon="0.87579">
        <ele>166.45</ele>
        <time>2013-03-24T09:24:38Z</time>
      </trkpt>
      <trkpt lat="44.58225" lon="0.87587">
        <ele>166.93</ele>
        <time>2013-03-24T09:24:42Z</time>
      </trkpt>
      <trkpt lat="44.58225" lon="0.87592">
        <ele>167.41</ele>
        <time>2013-03-24T09:24:44Z</time>
      </trkpt>
      <trkpt lat="44.58227" lon="0.87609">
        <ele>169.33</ele>
        <time>2013-03-24T09:24:51Z</time>
      </trkpt>
      <trkpt lat="44.58211" lon="0.87622">
        <ele>169.81</ele>
        <time>2013-03-24T09:25:02Z</time>
      </trkpt>
      <trkpt lat="44.58203" lon="0.87627">
        <ele>170.77</ele>
        <time>2013-03-24T09:25:06Z</time>
      </trkpt>
      <trkpt lat="44.58186" lon="0.87635">
        <ele>172.69</ele>
        <time>2013-03-24T09:25:15Z</time>
      </trkpt>
      <trkpt lat="44.58183" lon="0.87637">
        <ele>173.17</ele>
        <time>2013-03-24T09:25:17Z</time>
      </trkpt>
      <trkpt lat="44.58169" lon="0.87639">
        <ele>174.14</ele>
        <time>2013-03-24T09:25:24Z</time>
      </trkpt>
      <trkpt lat="44.58166" lon="0.87639">
        <ele>174.14</ele>
        <time>2013-03-24T09:25:26Z</time>
      </trkpt>
      <trkpt lat="44.58161" lon="0.87636">
        <ele>175.58</ele>
        <time>2013-03-24T09:25:29Z</time>
      </trkpt>
      <trkpt lat="44.58143" lon="0.8764">
        <ele>177.5</ele>
        <time>2013-03-24T09:25:41Z</time>
      </trkpt>
      <trkpt lat="44.58135" lon="0.87638">
        <ele>178.46</ele>
        <time>2013-03-24T09:25:47Z</time>
      </trkpt>
      <trkpt lat="44.58123" lon="0.87625">
        <ele>178.94</ele>
        <time>2013-03-24T09:25:58Z</time>
      </trkpt>
      <trkpt lat="44.58107" lon="0.87631">
        <ele>177.02</ele>
        <time>2013-03-24T09:26:07Z</time>
      </trkpt>
      <trkpt lat="44.58088" lon="0.87627">
        <ele>175.1</ele>
        <time>2013-03-24T09:26:16Z</time>
      </trkpt>
      <trkpt lat="44.58076" lon="0.87621">
        <ele>171.73</ele>
        <time>2013-03-24T09:26:30Z</time>
      </trkpt>
      <trkpt lat="44.58074" lon="0.8762">
        <ele>170.29</ele>
        <time>2013-03-24T09:26:54Z</time>
      </trkpt>
      <trkpt lat="44.58071" lon="0.87616">
        <ele>170.29</ele>
        <time>2013-03-24T09:26:56Z</time>
      </trkpt>
      <trkpt lat="44.58068" lon="0.876">
        <ele>168.85</ele>
        <time>2013-03-24T09:27:03Z</time>
      </trkpt>
      <trkpt lat="44.58066" lon="0.87595">
        <ele>167.41</ele>
        <time>2013-03-24T09:27:05Z</time>
      </trkpt>
      <trkpt lat="44.58057" lon="0.87585">
        <ele>165.48</ele>
        <time>2013-03-24T09:27:13Z</time>
      </trkpt>
      <trkpt lat="44.58052" lon="0.87572">
        <ele>163.08</ele>
        <time>2013-03-24T09:27:18Z</time>
      </trkpt>
      <trkpt lat="44.5805" lon="0.87567">
        <ele>162.12</ele>
        <time>2013-03-24T09:27:20Z</time>
      </trkpt>
      <trkpt lat="44.5804" lon="0.87561">
        <ele>158.75</ele>
        <time>2013-03-24T09:27:25Z</time>
      </trkpt>
      <trkpt lat="44.58014" lon="0.87551">
        <ele>153.95</ele>
        <time>2013-03-24T09:27:37Z</time>
      </trkpt>
      <trkpt lat="44.58008" lon="0.87544">
        <ele>152.51</ele>
        <time>2013-03-24T09:27:41Z</time>
      </trkpt>
      <trkpt lat="44.58002" lon="0.87549">
        <ele>151.06</ele>
        <time>2013-03-24T09:27:52Z</time>
      </trkpt>
      <trkpt lat="44.57996" lon="0.87563">
        <ele>143.37</ele>
        <time>2013-03-24T09:28:07Z</time>
      </trkpt>
      <trkpt lat="44.57993" lon="0.87572">
        <ele>138.57</ele>
        <time>2013-03-24T09:28:18Z</time>
      </trkpt>
      <trkpt lat="44.5799" lon="0.87579">
        <ele>137.13</ele>
        <time>2013-03-24T09:28:27Z</time>
      </trkpt>
      <trkpt lat="44.57983" lon="0.8758">
        <ele>134.72</ele>
        <time>2013-03-24T09:28:35Z</time>
      </trkpt>
      <trkpt lat="44.57974" lon="0.87565">
        <ele>134.24</ele>
        <time>2013-03-24T09:28:42Z</time>
      </trkpt>
      <trkpt lat="44.57969" lon="0.8758">
        <ele>132.32</ele>
        <time>2013-03-24T09:28:48Z</time>
      </trkpt>
      <trkpt lat="44.57969" lon="0.87585">
        <ele>131.84</ele>
        <time>2013-03-24T09:28:49Z</time>
      </trkpt>
      <trkpt lat="44.57951" lon="0.87621">
        <ele>128.95</ele>
        <time>2013-03-24T09:28:58Z</time>
      </trkpt>
      <trkpt lat="44.57927" lon="0.87664">
        <ele>129.92</ele>
        <time>2013-03-24T09:29:09Z</time>
      </trkpt>
      <trkpt lat="44.57921" lon="0.87702">
        <ele>131.36</ele>
        <time>2013-03-24T09:29:17Z</time>
      </trkpt>
      <trkpt lat="44.57909" lon="0.87734">
        <ele>131.84</ele>
        <time>2013-03-24T09:29:23Z</time>
      </trkpt>
      <trkpt lat="44.57906" lon="0.87739">
        <ele>131.84</ele>
        <time>2013-03-24T09:29:24Z</time>
      </trkpt>
      <trkpt lat="44.57903" lon="0.87743">
        <ele>132.32</ele>
        <time>2013-03-24T09:29:25Z</time>
      </trkpt>
      <trkpt lat="44.57857" lon="0.87787">
        <ele>135.2</ele>
        <time>2013-03-24T09:29:38Z</time>
      </trkpt>
      <trkpt lat="44.57843" lon="0.87794">
        <ele>135.2</ele>
        <time>2013-03-24T09:29:41Z</time>
      </trkpt>
      <trkpt lat="44.57755" lon="0.87841">
        <ele>134.24</ele>
        <time>2013-03-24T09:29:58Z</time>
      </trkpt>
      <trkpt lat="44.57713" lon="0.87847">
        <ele>134.72</ele>
        <time>2013-03-24T09:30:05Z</time>
      </trkpt>
      <trkpt lat="44.57626" lon="0.87824">
        <ele>135.2</ele>
        <time>2013-03-24T09:30:20Z</time>
      </trkpt>
      <trkpt lat="44.57621" lon="0.87825">
        <ele>135.68</ele>
        <time>2013-03-24T09:30:21Z</time>
      </trkpt>
      <trkpt lat="44.57612" lon="0.87829">
        <ele>135.68</ele>
        <time>2013-03-24T09:30:23Z</time>
      </trkpt>
      <trkpt lat="44.57608" lon="0.87832">
        <ele>135.68</ele>
        <time>2013-03-24T09:30:24Z</time>
      </trkpt>
      <trkpt lat="44.57604" lon="0.87836">
        <ele>135.2</ele>
        <time>2013-03-24T09:30:25Z</time>
      </trkpt>
      <trkpt lat="44.576" lon="0.87841">
        <ele>135.2</ele>
        <time>2013-03-24T09:30:26Z</time>
      </trkpt>
      <trkpt lat="44.57597" lon="0.87846">
        <ele>135.2</ele>
        <time>2013-03-24T09:30:27Z</time>
      </trkpt>
      <trkpt lat="44.57595" lon="0.87851">
        <ele>135.2</ele>
        <time>2013-03-24T09:30:28Z</time>
      </trkpt>
      <trkpt lat="44.57591" lon="0.87864">
        <ele>134.24</ele>
        <time>2013-03-24T09:30:30Z</time>
      </trkpt>
      <trkpt lat="44.57589" lon="0.87871">
        <ele>134.24</ele>
        <time>2013-03-24T09:30:31Z</time>
      </trkpt>
      <trkpt lat="44.57589" lon="0.87878">
        <ele>133.76</ele>
        <time>2013-03-24T09:30:32Z</time>
      </trkpt>
      <trkpt lat="44.57589" lon="0.87886">
        <ele>133.76</ele>
        <time>2013-03-24T09:30:33Z</time>
      </trkpt>
      <trkpt lat="44.57589" lon="0.87893">
        <ele>133.76</ele>
        <time>2013-03-24T09:30:34Z</time>
      </trkpt>
      <trkpt lat="44.5759" lon="0.87901">
        <ele>133.76</ele>
        <time>2013-03-24T09:30:35Z</time>
      </trkpt>
      <trkpt lat="44.57597" lon="0.87993">
        <ele>129.43</ele>
        <time>2013-03-24T09:30:45Z</time>
      </trkpt>
      <trkpt lat="44.57596" lon="0.88023">
        <ele>127.99</ele>
        <time>2013-03-24T09:30:48Z</time>
      </trkpt>
      <trkpt lat="44.57564" lon="0.88153">
        <ele>127.03</ele>
        <time>2013-03-24T09:31:02Z</time>
      </trkpt>
      <trkpt lat="44.5756" lon="0.88161">
        <ele>127.03</ele>
        <time>2013-03-24T09:31:03Z</time>
      </trkpt>
      <trkpt lat="44.57555" lon="0.88168">
        <ele>126.55</ele>
        <time>2013-03-24T09:31:04Z</time>
      </trkpt>
      <trkpt lat="44.57549" lon="0.88176">
        <ele>126.55</ele>
        <time>2013-03-24T09:31:05Z</time>
      </trkpt>
      <trkpt lat="44.57543" lon="0.88182">
        <ele>126.55</ele>
        <time>2013-03-24T09:31:06Z</time>
      </trkpt>
      <trkpt lat="44.57536" lon="0.88188">
        <ele>126.07</ele>
        <time>2013-03-24T09:31:07Z</time>
      </trkpt>
      <trkpt lat="44.57529" lon="0.88192">
        <ele>126.07</ele>
        <time>2013-03-24T09:31:08Z</time>
      </trkpt>
      <trkpt lat="44.57521" lon="0.88194">
        <ele>126.07</ele>
        <time>2013-03-24T09:31:09Z</time>
      </trkpt>
      <trkpt lat="44.57513" lon="0.88196">
        <ele>126.07</ele>
        <time>2013-03-24T09:31:10Z</time>
      </trkpt>
      <trkpt lat="44.57505" lon="0.88196">
        <ele>126.07</ele>
        <time>2013-03-24T09:31:11Z</time>
      </trkpt>
      <trkpt lat="44.57497" lon="0.88195">
        <ele>126.07</ele>
        <time>2013-03-24T09:31:12Z</time>
      </trkpt>
      <trkpt lat="44.5749" lon="0.88193">
        <ele>126.07</ele>
        <time>2013-03-24T09:31:13Z</time>
      </trkpt>
      <trkpt lat="44.57482" lon="0.88189">
        <ele>126.07</ele>
        <time>2013-03-24T09:31:14Z</time>
      </trkpt>
      <trkpt lat="44.57475" lon="0.88184">
        <ele>126.07</ele>
        <time>2013-03-24T09:31:15Z</time>
      </trkpt>
      <trkpt lat="44.57468" lon="0.88179">
        <ele>126.07</ele>
        <time>2013-03-24T09:31:16Z</time>
      </trkpt>
      <trkpt lat="44.57376" lon="0.88111">
        <ele>127.99</ele>
        <time>2013-03-24T09:31:29Z</time>
      </trkpt>
      <trkpt lat="44.57237" lon="0.88024">
        <ele>130.4</ele>
        <time>2013-03-24T09:31:49Z</time>
      </trkpt>
      <trkpt lat="44.57185" lon="0.87999">
        <ele>130.88</ele>
        <time>2013-03-24T09:31:57Z</time>
      </trkpt>
      <trkpt lat="44.57178" lon="0.87998">
        <ele>130.88</ele>
        <time>2013-03-24T09:31:58Z</time>
      </trkpt>
      <trkpt lat="44.57171" lon="0.87998">
        <ele>130.88</ele>
        <time>2013-03-24T09:31:59Z</time>
      </trkpt>
      <trkpt lat="44.57164" lon="0.88">
        <ele>130.88</ele>
        <time>2013-03-24T09:32:00Z</time>
      </trkpt>
      <trkpt lat="44.57157" lon="0.88002">
        <ele>130.88</ele>
        <time>2013-03-24T09:32:01Z</time>
      </trkpt>
      <trkpt lat="44.57143" lon="0.88007">
        <ele>130.4</ele>
        <time>2013-03-24T09:32:03Z</time>
      </trkpt>
      <trkpt lat="44.5713" lon="0.88014">
        <ele>129.92</ele>
        <time>2013-03-24T09:32:05Z</time>
      </trkpt>
      <trkpt lat="44.57125" lon="0.88019">
        <ele>129.92</ele>
        <time>2013-03-24T09:32:06Z</time>
      </trkpt>
      <trkpt lat="44.5712" lon="0.88023">
        <ele>129.92</ele>
        <time>2013-03-24T09:32:07Z</time>
      </trkpt>
      <trkpt lat="44.57116" lon="0.88028">
        <ele>129.43</ele>
        <time>2013-03-24T09:32:08Z</time>
      </trkpt>
      <trkpt lat="44.57113" lon="0.88032">
        <ele>129.43</ele>
        <time>2013-03-24T09:32:09Z</time>
      </trkpt>
      <trkpt lat="44.57111" lon="0.88035">
        <ele>129.43</ele>
        <time>2013-03-24T09:32:10Z</time>
      </trkpt>
      <trkpt lat="44.57108" lon="0.88041">
        <ele>129.43</ele>
        <time>2013-03-24T09:32:13Z</time>
      </trkpt>
      <trkpt lat="44.57117" lon="0.8804">
        <ele>129.43</ele>
        <time>2013-03-24T09:32:20Z</time>
      </trkpt>
      <trkpt lat="44.57134" lon="0.88028">
        <ele>134.72</ele>
        <time>2013-03-24T09:32:33Z</time>
      </trkpt>
      <trkpt lat="44.57144" lon="0.88025">
        <ele>138.09</ele>
        <time>2013-03-24T09:32:39Z</time>
      </trkpt>
      <trkpt lat="44.57151" lon="0.88025">
        <ele>139.53</ele>
        <time>2013-03-24T09:32:43Z</time>
      </trkpt>
      <trkpt lat="44.57167" lon="0.88029">
        <ele>141.93</ele>
        <time>2013-03-24T09:32:55Z</time>
      </trkpt>
      <trkpt lat="44.57164" lon="0.88036">
        <ele>144.34</ele>
        <time>2013-03-24T09:33:10Z</time>
      </trkpt>
      <trkpt lat="44.57157" lon="0.88041">
        <ele>146.74</ele>
        <time>2013-03-24T09:33:25Z</time>
      </trkpt>
      <trkpt lat="44.57155" lon="0.88044">
        <ele>147.22</ele>
        <time>2013-03-24T09:33:32Z</time>
      </trkpt>
      <trkpt lat="44.57146" lon="0.88062">
        <ele>148.18</ele>
        <time>2013-03-24T09:33:46Z</time>
      </trkpt>
      <trkpt lat="44.57141" lon="0.88072">
        <ele>150.58</ele>
        <time>2013-03-24T09:34:00Z</time>
      </trkpt>
      <trkpt lat="44.57142" lon="0.88074">
        <ele>152.03</ele>
        <time>2013-03-24T09:34:18Z</time>
      </trkpt>
      <trkpt lat="44.57139" lon="0.88084">
        <ele>152.51</ele>
        <time>2013-03-24T09:34:32Z</time>
      </trkpt>
      <trkpt lat="44.57137" lon="0.881">
        <ele>153.95</ele>
        <time>2013-03-24T09:34:40Z</time>
      </trkpt>
      <trkpt lat="44.57138" lon="0.88115">
        <ele>155.39</ele>
        <time>2013-03-24T09:34:46Z</time>
      </trkpt>
      <trkpt lat="44.57138" lon="0.88124">
        <ele>156.35</ele>
        <time>2013-03-24T09:34:50Z</time>
      </trkpt>
      <trkpt lat="44.5714" lon="0.88154">
        <ele>158.75</ele>
        <time>2013-03-24T09:35:04Z</time>
      </trkpt>
      <trkpt lat="44.57147" lon="0.88191">
        <ele>162.12</ele>
        <time>2013-03-24T09:35:19Z</time>
      </trkpt>
      <trkpt lat="44.57148" lon="0.88205">
        <ele>163.56</ele>
        <time>2013-03-24T09:35:25Z</time>
      </trkpt>
      <trkpt lat="44.57155" lon="0.88245">
        <ele>167.41</ele>
        <time>2013-03-24T09:35:39Z</time>
      </trkpt>
      <trkpt lat="44.57159" lon="0.88259">
        <ele>167.89</ele>
        <time>2013-03-24T09:35:44Z</time>
      </trkpt>
      <trkpt lat="44.57162" lon="0.88265">
        <ele>169.33</ele>
        <time>2013-03-24T09:35:48Z</time>
      </trkpt>
      <trkpt lat="44.5717" lon="0.88274">
        <ele>171.73</ele>
        <time>2013-03-24T09:35:55Z</time>
      </trkpt>
      <trkpt lat="44.5718" lon="0.8829">
        <ele>174.14</ele>
        <time>2013-03-24T09:36:03Z</time>
      </trkpt>
      <trkpt lat="44.5719" lon="0.88316">
        <ele>175.58</ele>
        <time>2013-03-24T09:36:16Z</time>
      </trkpt>
      <trkpt lat="44.57199" lon="0.88343">
        <ele>177.5</ele>
        <time>2013-03-24T09:36:27Z</time>
      </trkpt>
      <trkpt lat="44.57208" lon="0.88366">
        <ele>179.42</ele>
        <time>2013-03-24T09:36:38Z</time>
      </trkpt>
      <trkpt lat="44.57222" lon="0.88393">
        <ele>182.79</ele>
        <time>2013-03-24T09:36:50Z</time>
      </trkpt>
      <trkpt lat="44.57225" lon="0.88403">
        <ele>183.75</ele>
        <time>2013-03-24T09:36:54Z</time>
      </trkpt>
      <trkpt lat="44.57226" lon="0.88407">
        <ele>183.75</ele>
        <time>2013-03-24T09:36:56Z</time>
      </trkpt>
      <trkpt lat="44.57231" lon="0.88434">
        <ele>183.75</ele>
        <time>2013-03-24T09:37:08Z</time>
      </trkpt>
      <trkpt lat="44.57235" lon="0.8846">
        <ele>185.19</ele>
        <time>2013-03-24T09:37:18Z</time>
      </trkpt>
      <trkpt lat="44.57235" lon="0.88468">
        <ele>185.67</ele>
        <time>2013-03-24T09:37:21Z</time>
      </trkpt>
      <trkpt lat="44.57233" lon="0.885">
        <ele>186.63</ele>
        <time>2013-03-24T09:37:35Z</time>
      </trkpt>
      <trkpt lat="44.57232" lon="0.88522">
        <ele>188.08</ele>
        <time>2013-03-24T09:37:45Z</time>
      </trkpt>
      <trkpt lat="44.57223" lon="0.8854">
        <ele>187.59</ele>
        <time>2013-03-24T09:37:57Z</time>
      </trkpt>
      <trkpt lat="44.57217" lon="0.88554">
        <ele>188.56</ele>
        <time>2013-03-24T09:38:11Z</time>
      </trkpt>
      <trkpt lat="44.57215" lon="0.88559">
        <ele>188.56</ele>
        <time>2013-03-24T09:38:39Z</time>
      </trkpt>
      <trkpt lat="44.57213" lon="0.88567">
        <ele>187.11</ele>
        <time>2013-03-24T09:38:51Z</time>
      </trkpt>
      <trkpt lat="44.57212" lon="0.88569">
        <ele>187.11</ele>
        <time>2013-03-24T09:38:52Z</time>
      </trkpt>
      <trkpt lat="44.57208" lon="0.88579">
        <ele>185.19</ele>
        <time>2013-03-24T09:38:56Z</time>
      </trkpt>
      <trkpt lat="44.57216" lon="0.88626">
        <ele>180.38</ele>
        <time>2013-03-24T09:39:09Z</time>
      </trkpt>
      <trkpt lat="44.57221" lon="0.88663">
        <ele>179.9</ele>
        <time>2013-03-24T09:39:19Z</time>
      </trkpt>
      <trkpt lat="44.57222" lon="0.88666">
        <ele>180.38</ele>
        <time>2013-03-24T09:39:20Z</time>
      </trkpt>
      <trkpt lat="44.57226" lon="0.88676">
        <ele>180.38</ele>
        <time>2013-03-24T09:39:31Z</time>
      </trkpt>
      <trkpt lat="44.57227" lon="0.88682">
        <ele>181.83</ele>
        <time>2013-03-24T09:39:37Z</time>
      </trkpt>
      <trkpt lat="44.5723" lon="0.88685">
        <ele>183.27</ele>
        <time>2013-03-24T09:39:41Z</time>
      </trkpt>
      <trkpt lat="44.5723" lon="0.88694">
        <ele>184.71</ele>
        <time>2013-03-24T09:39:49Z</time>
      </trkpt>
      <trkpt lat="44.57212" lon="0.88741">
        <ele>186.15</ele>
        <time>2013-03-24T09:40:02Z</time>
      </trkpt>
      <trkpt lat="44.57162" lon="0.88809">
        <ele>184.23</ele>
        <time>2013-03-24T09:40:16Z</time>
      </trkpt>
      <trkpt lat="44.57158" lon="0.88814">
        <ele>184.23</ele>
        <time>2013-03-24T09:40:17Z</time>
      </trkpt>
      <trkpt lat="44.57127" lon="0.88859">
        <ele>178.94</ele>
        <time>2013-03-24T09:40:26Z</time>
      </trkpt>
      <trkpt lat="44.57124" lon="0.88864">
        <ele>177.98</ele>
        <time>2013-03-24T09:40:27Z</time>
      </trkpt>
      <trkpt lat="44.5712" lon="0.88869">
        <ele>177.02</ele>
        <time>2013-03-24T09:40:28Z</time>
      </trkpt>
      <trkpt lat="44.57116" lon="0.88875">
        <ele>175.58</ele>
        <time>2013-03-24T09:40:29Z</time>
      </trkpt>
      <trkpt lat="44.57112" lon="0.88881">
        <ele>174.62</ele>
        <time>2013-03-24T09:40:30Z</time>
      </trkpt>
      <trkpt lat="44.57108" lon="0.88887">
        <ele>173.17</ele>
        <time>2013-03-24T09:40:31Z</time>
      </trkpt>
      <trkpt lat="44.57077" lon="0.8895">
        <ele>160.68</ele>
        <time>2013-03-24T09:40:41Z</time>
      </trkpt>
      <trkpt lat="44.57072" lon="0.88961">
        <ele>158.75</ele>
        <time>2013-03-24T09:40:43Z</time>
      </trkpt>
      <trkpt lat="44.57069" lon="0.88967">
        <ele>157.79</ele>
        <time>2013-03-24T09:40:44Z</time>
      </trkpt>
      <trkpt lat="44.57061" lon="0.88982">
        <ele>155.39</ele>
        <time>2013-03-24T09:40:47Z</time>
      </trkpt>
      <trkpt lat="44.57018" lon="0.89039">
        <ele>146.26</ele>
        <time>2013-03-24T09:40:59Z</time>
      </trkpt>
      <trkpt lat="44.57013" lon="0.89043">
        <ele>145.3</ele>
        <time>2013-03-24T09:41:00Z</time>
      </trkpt>
      <trkpt lat="44.57007" lon="0.89048">
        <ele>144.82</ele>
        <time>2013-03-24T09:41:01Z</time>
      </trkpt>
      <trkpt lat="44.56975" lon="0.89081">
        <ele>146.74</ele>
        <time>2013-03-24T09:41:07Z</time>
      </trkpt>
      <trkpt lat="44.56974" lon="0.89088">
        <ele>147.22</ele>
        <time>2013-03-24T09:41:08Z</time>
      </trkpt>
      <trkpt lat="44.56972" lon="0.89097">
        <ele>151.06</ele>
        <time>2013-03-24T09:41:09Z</time>
      </trkpt>
      <trkpt lat="44.56975" lon="0.89111">
        <ele>154.43</ele>
        <time>2013-03-24T09:41:11Z</time>
      </trkpt>
      <trkpt lat="44.56977" lon="0.89118">
        <ele>154.91</ele>
        <time>2013-03-24T09:41:12Z</time>
      </trkpt>
      <trkpt lat="44.56979" lon="0.89124">
        <ele>155.39</ele>
        <time>2013-03-24T09:41:13Z</time>
      </trkpt>
      <trkpt lat="44.56982" lon="0.89131">
        <ele>156.35</ele>
        <time>2013-03-24T09:41:14Z</time>
      </trkpt>
      <trkpt lat="44.56985" lon="0.89137">
        <ele>157.31</ele>
        <time>2013-03-24T09:41:15Z</time>
      </trkpt>
      <trkpt lat="44.56989" lon="0.89143">
        <ele>158.27</ele>
        <time>2013-03-24T09:41:16Z</time>
      </trkpt>
      <trkpt lat="44.57" lon="0.89159">
        <ele>160.2</ele>
        <time>2013-03-24T09:41:19Z</time>
      </trkpt>
      <trkpt lat="44.57003" lon="0.89166">
        <ele>160.2</ele>
        <time>2013-03-24T09:41:20Z</time>
      </trkpt>
      <trkpt lat="44.57004" lon="0.89173">
        <ele>160.2</ele>
        <time>2013-03-24T09:41:21Z</time>
      </trkpt>
      <trkpt lat="44.57003" lon="0.89181">
        <ele>160.68</ele>
        <time>2013-03-24T09:41:22Z</time>
      </trkpt>
      <trkpt lat="44.57001" lon="0.89187">
        <ele>160.68</ele>
        <time>2013-03-24T09:41:23Z</time>
      </trkpt>
      <trkpt lat="44.56998" lon="0.89193">
        <ele>160.68</ele>
        <time>2013-03-24T09:41:24Z</time>
      </trkpt>
      <trkpt lat="44.56994" lon="0.89198">
        <ele>161.16</ele>
        <time>2013-03-24T09:41:25Z</time>
      </trkpt>
      <trkpt lat="44.5699" lon="0.89203">
        <ele>161.16</ele>
        <time>2013-03-24T09:41:26Z</time>
      </trkpt>
      <trkpt lat="44.56986" lon="0.89207">
        <ele>161.16</ele>
        <time>2013-03-24T09:41:27Z</time>
      </trkpt>
      <trkpt lat="44.56908" lon="0.8926">
        <ele>165</ele>
        <time>2013-03-24T09:41:44Z</time>
      </trkpt>
      <trkpt lat="44.56871" lon="0.89286">
        <ele>167.89</ele>
        <time>2013-03-24T09:41:55Z</time>
      </trkpt>
      <trkpt lat="44.56865" lon="0.89288">
        <ele>167.41</ele>
        <time>2013-03-24T09:41:56Z</time>
      </trkpt>
      <trkpt lat="44.56859" lon="0.89289">
        <ele>166.93</ele>
        <time>2013-03-24T09:41:57Z</time>
      </trkpt>
      <trkpt lat="44.56818" lon="0.89289">
        <ele>165.48</ele>
        <time>2013-03-24T09:42:04Z</time>
      </trkpt>
      <trkpt lat="44.5678" lon="0.89294">
        <ele>166.45</ele>
        <time>2013-03-24T09:42:11Z</time>
      </trkpt>
      <trkpt lat="44.56771" lon="0.89297">
        <ele>165.96</ele>
        <time>2013-03-24T09:42:13Z</time>
      </trkpt>
      <trkpt lat="44.56735" lon="0.89336">
        <ele>165</ele>
        <time>2013-03-24T09:42:24Z</time>
      </trkpt>
      <trkpt lat="44.56713" lon="0.89349">
        <ele>164.52</ele>
        <time>2013-03-24T09:42:28Z</time>
      </trkpt>
      <trkpt lat="44.56685" lon="0.89356">
        <ele>165</ele>
        <time>2013-03-24T09:42:34Z</time>
      </trkpt>
      <trkpt lat="44.56665" lon="0.89359">
        <ele>165.96</ele>
        <time>2013-03-24T09:42:38Z</time>
      </trkpt>
      <trkpt lat="44.56624" lon="0.89374">
        <ele>165</ele>
        <time>2013-03-24T09:42:46Z</time>
      </trkpt>
      <trkpt lat="44.56605" lon="0.89385">
        <ele>164.04</ele>
        <time>2013-03-24T09:42:50Z</time>
      </trkpt>
      <trkpt lat="44.56596" lon="0.8939">
        <ele>163.56</ele>
        <time>2013-03-24T09:42:52Z</time>
      </trkpt>
      <trkpt lat="44.56572" lon="0.89393">
        <ele>163.56</ele>
        <time>2013-03-24T09:42:57Z</time>
      </trkpt>
      <trkpt lat="44.56557" lon="0.89393">
        <ele>164.52</ele>
        <time>2013-03-24T09:43:00Z</time>
      </trkpt>
      <trkpt lat="44.5651" lon="0.89387">
        <ele>170.29</ele>
        <time>2013-03-24T09:43:12Z</time>
      </trkpt>
      <trkpt lat="44.56486" lon="0.89404">
        <ele>170.29</ele>
        <time>2013-03-24T09:43:19Z</time>
      </trkpt>
      <trkpt lat="44.56462" lon="0.89416">
        <ele>169.33</ele>
        <time>2013-03-24T09:43:23Z</time>
      </trkpt>
      <trkpt lat="44.56439" lon="0.89412">
        <ele>167.41</ele>
        <time>2013-03-24T09:43:30Z</time>
      </trkpt>
      <trkpt lat="44.56437" lon="0.89383">
        <ele>165</ele>
        <time>2013-03-24T09:43:36Z</time>
      </trkpt>
      <trkpt lat="44.56432" lon="0.89367">
        <ele>164.52</ele>
        <time>2013-03-24T09:43:48Z</time>
      </trkpt>
      <trkpt lat="44.56434" lon="0.89363">
        <ele>166.93</ele>
        <time>2013-03-24T09:44:20Z</time>
      </trkpt>
      <trkpt lat="44.56432" lon="0.89363">
        <ele>169.33</ele>
        <time>2013-03-24T09:44:47Z</time>
      </trkpt>
      <trkpt lat="44.5643" lon="0.89362">
        <ele>170.29</ele>
        <time>2013-03-24T09:44:51Z</time>
      </trkpt>
      <trkpt lat="44.56431" lon="0.89342">
        <ele>169.81</ele>
        <time>2013-03-24T09:44:57Z</time>
      </trkpt>
      <trkpt lat="44.56427" lon="0.89271">
        <ele>168.37</ele>
        <time>2013-03-24T09:45:07Z</time>
      </trkpt>
      <trkpt lat="44.56432" lon="0.89251">
        <ele>169.81</ele>
        <time>2013-03-24T09:45:14Z</time>
      </trkpt>
      <trkpt lat="44.56436" lon="0.89236">
        <ele>171.25</ele>
        <time>2013-03-24T09:45:26Z</time>
      </trkpt>
      <trkpt lat="44.56434" lon="0.89229">
        <ele>172.21</ele>
        <time>2013-03-24T09:45:32Z</time>
      </trkpt>
      <trkpt lat="44.56434" lon="0.89214">
        <ele>173.17</ele>
        <time>2013-03-24T09:45:47Z</time>
      </trkpt>
      <trkpt lat="44.56438" lon="0.89196">
        <ele>174.62</ele>
        <time>2013-03-24T09:45:56Z</time>
      </trkpt>
      <trkpt lat="44.56443" lon="0.89169">
        <ele>178.46</ele>
        <time>2013-03-24T09:46:08Z</time>
      </trkpt>
      <trkpt lat="44.5644" lon="0.89162">
        <ele>178.94</ele>
        <time>2013-03-24T09:46:18Z</time>
      </trkpt>
      <trkpt lat="44.56439" lon="0.8916">
        <ele>179.42</ele>
        <time>2013-03-24T09:46:25Z</time>
      </trkpt>
      <trkpt lat="44.56431" lon="0.89147">
        <ele>182.31</ele>
        <time>2013-03-24T09:46:37Z</time>
      </trkpt>
      <trkpt lat="44.56426" lon="0.89141">
        <ele>183.27</ele>
        <time>2013-03-24T09:46:44Z</time>
      </trkpt>
      <trkpt lat="44.56417" lon="0.89127">
        <ele>184.71</ele>
        <time>2013-03-24T09:46:51Z</time>
      </trkpt>
      <trkpt lat="44.56409" lon="0.89097">
        <ele>188.56</ele>
        <time>2013-03-24T09:47:03Z</time>
      </trkpt>
      <trkpt lat="44.56427" lon="0.89105">
        <ele>189.04</ele>
        <time>2013-03-24T09:47:16Z</time>
      </trkpt>
      <trkpt lat="44.56453" lon="0.89119">
        <ele>189.52</ele>
        <time>2013-03-24T09:47:32Z</time>
      </trkpt>
      <trkpt lat="44.56482" lon="0.89102">
        <ele>192.4</ele>
        <time>2013-03-24T09:47:49Z</time>
      </trkpt>
      <trkpt lat="44.56492" lon="0.89083">
        <ele>193.84</ele>
        <time>2013-03-24T09:47:58Z</time>
      </trkpt>
      <trkpt lat="44.56491" lon="0.89076">
        <ele>193.84</ele>
        <time>2013-03-24T09:48:01Z</time>
      </trkpt>
      <trkpt lat="44.56466" lon="0.89043">
        <ele>193.84</ele>
        <time>2013-03-24T09:48:15Z</time>
      </trkpt>
      <trkpt lat="44.56437" lon="0.88996">
        <ele>191.92</ele>
        <time>2013-03-24T09:48:27Z</time>
      </trkpt>
      <trkpt lat="44.56422" lon="0.88976">
        <ele>190.48</ele>
        <time>2013-03-24T09:48:33Z</time>
      </trkpt>
      <trkpt lat="44.56422" lon="0.88972">
        <ele>190.48</ele>
        <time>2013-03-24T09:48:34Z</time>
      </trkpt>
      <trkpt lat="44.56421" lon="0.88955">
        <ele>189.04</ele>
        <time>2013-03-24T09:48:38Z</time>
      </trkpt>
      <trkpt lat="44.5642" lon="0.88951">
        <ele>189.04</ele>
        <time>2013-03-24T09:48:39Z</time>
      </trkpt>
      <trkpt lat="44.56417" lon="0.88949">
        <ele>188.56</ele>
        <time>2013-03-24T09:48:40Z</time>
      </trkpt>
      <trkpt lat="44.56414" lon="0.88947">
        <ele>189.04</ele>
        <time>2013-03-24T09:48:41Z</time>
      </trkpt>
      <trkpt lat="44.56411" lon="0.88945">
        <ele>189.04</ele>
        <time>2013-03-24T09:48:42Z</time>
      </trkpt>
      <trkpt lat="44.56397" lon="0.88936">
        <ele>189.04</ele>
        <time>2013-03-24T09:48:46Z</time>
      </trkpt>
      <trkpt lat="44.56373" lon="0.88927">
        <ele>189.04</ele>
        <time>2013-03-24T09:48:52Z</time>
      </trkpt>
      <trkpt lat="44.56349" lon="0.88928">
        <ele>189.04</ele>
        <time>2013-03-24T09:48:58Z</time>
      </trkpt>
      <trkpt lat="44.5634" lon="0.88928">
        <ele>188.08</ele>
        <time>2013-03-24T09:49:00Z</time>
      </trkpt>
      <trkpt lat="44.56296" lon="0.88944">
        <ele>185.19</ele>
        <time>2013-03-24T09:49:09Z</time>
      </trkpt>
      <trkpt lat="44.56283" lon="0.88949">
        <ele>184.71</ele>
        <time>2013-03-24T09:49:12Z</time>
      </trkpt>
      <trkpt lat="44.56264" lon="0.88959">
        <ele>182.79</ele>
        <time>2013-03-24T09:49:20Z</time>
      </trkpt>
      <trkpt lat="44.56259" lon="0.88959">
        <ele>182.31</ele>
        <time>2013-03-24T09:49:22Z</time>
      </trkpt>
      <trkpt lat="44.56239" lon="0.88968">
        <ele>178.94</ele>
        <time>2013-03-24T09:49:31Z</time>
      </trkpt>
      <trkpt lat="44.5623" lon="0.88933">
        <ele>173.17</ele>
        <time>2013-03-24T09:49:42Z</time>
      </trkpt>
      <trkpt lat="44.56235" lon="0.8889">
        <ele>168.85</ele>
        <time>2013-03-24T09:49:52Z</time>
      </trkpt>
      <trkpt lat="44.56224" lon="0.88882">
        <ele>164.52</ele>
        <time>2013-03-24T09:49:59Z</time>
      </trkpt>
      <trkpt lat="44.56198" lon="0.88881">
        <ele>158.75</ele>
        <time>2013-03-24T09:50:09Z</time>
      </trkpt>
      <trkpt lat="44.56167" lon="0.88889">
        <ele>153.95</ele>
        <time>2013-03-24T09:50:20Z</time>
      </trkpt>
      <trkpt lat="44.56165" lon="0.88892">
        <ele>152.99</ele>
        <time>2013-03-24T09:50:22Z</time>
      </trkpt>
      <trkpt lat="44.56164" lon="0.88904">
        <ele>151.54</ele>
        <time>2013-03-24T09:50:27Z</time>
      </trkpt>
      <trkpt lat="44.56178" lon="0.88946">
        <ele>149.14</ele>
        <time>2013-03-24T09:50:38Z</time>
      </trkpt>
      <trkpt lat="44.56183" lon="0.88961">
        <ele>149.14</ele>
        <time>2013-03-24T09:50:41Z</time>
      </trkpt>
      <trkpt lat="44.56185" lon="0.89009">
        <ele>148.66</ele>
        <time>2013-03-24T09:50:49Z</time>
      </trkpt>
      <trkpt lat="44.56162" lon="0.89018">
        <ele>150.58</ele>
        <time>2013-03-24T09:50:55Z</time>
      </trkpt>
      <trkpt lat="44.56151" lon="0.88998">
        <ele>152.99</ele>
        <time>2013-03-24T09:51:01Z</time>
      </trkpt>
      <trkpt lat="44.56139" lon="0.88978">
        <ele>151.54</ele>
        <time>2013-03-24T09:51:05Z</time>
      </trkpt>
      <trkpt lat="44.56076" lon="0.88929">
        <ele>145.3</ele>
        <time>2013-03-24T09:51:15Z</time>
      </trkpt>
      <trkpt lat="44.56032" lon="0.88891">
        <ele>140.49</ele>
        <time>2013-03-24T09:51:21Z</time>
      </trkpt>
      <trkpt lat="44.55993" lon="0.88829">
        <ele>134.24</ele>
        <time>2013-03-24T09:51:29Z</time>
      </trkpt>
      <trkpt lat="44.5599" lon="0.88823">
        <ele>133.76</ele>
        <time>2013-03-24T09:51:30Z</time>
      </trkpt>
      <trkpt lat="44.55987" lon="0.88816">
        <ele>132.8</ele>
        <time>2013-03-24T09:51:31Z</time>
      </trkpt>
      <trkpt lat="44.5598" lon="0.88777">
        <ele>129.43</ele>
        <time>2013-03-24T09:51:36Z</time>
      </trkpt>
      <trkpt lat="44.55979" lon="0.88768">
        <ele>128.47</ele>
        <time>2013-03-24T09:51:37Z</time>
      </trkpt>
      <trkpt lat="44.5598" lon="0.88758">
        <ele>127.99</ele>
        <time>2013-03-24T09:51:38Z</time>
      </trkpt>
      <trkpt lat="44.55981" lon="0.88749">
        <ele>127.03</ele>
        <time>2013-03-24T09:51:39Z</time>
      </trkpt>
      <trkpt lat="44.55983" lon="0.88739">
        <ele>126.55</ele>
        <time>2013-03-24T09:51:40Z</time>
      </trkpt>
      <trkpt lat="44.55987" lon="0.8873">
        <ele>125.59</ele>
        <time>2013-03-24T09:51:41Z</time>
      </trkpt>
      <trkpt lat="44.55991" lon="0.8872">
        <ele>124.63</ele>
        <time>2013-03-24T09:51:42Z</time>
      </trkpt>
      <trkpt lat="44.55994" lon="0.88711">
        <ele>123.67</ele>
        <time>2013-03-24T09:51:43Z</time>
      </trkpt>
      <trkpt lat="44.56001" lon="0.88692">
        <ele>121.74</ele>
        <time>2013-03-24T09:51:45Z</time>
      </trkpt>
      <trkpt lat="44.56004" lon="0.88681">
        <ele>121.26</ele>
        <time>2013-03-24T09:51:46Z</time>
      </trkpt>
      <trkpt lat="44.56007" lon="0.8867">
        <ele>121.26</ele>
        <time>2013-03-24T09:51:47Z</time>
      </trkpt>
      <trkpt lat="44.56008" lon="0.88658">
        <ele>121.26</ele>
        <time>2013-03-24T09:51:48Z</time>
      </trkpt>
      <trkpt lat="44.56009" lon="0.88647">
        <ele>121.26</ele>
        <time>2013-03-24T09:51:49Z</time>
      </trkpt>
      <trkpt lat="44.56012" lon="0.88593">
        <ele>120.78</ele>
        <time>2013-03-24T09:51:57Z</time>
      </trkpt>
      <trkpt lat="44.56013" lon="0.88592">
        <ele>120.3</ele>
        <time>2013-03-24T09:51:58Z</time>
      </trkpt>
      <trkpt lat="44.56014" lon="0.88591">
        <ele>119.82</ele>
        <time>2013-03-24T09:51:59Z</time>
      </trkpt>
      <trkpt lat="44.56016" lon="0.8859">
        <ele>119.34</ele>
        <time>2013-03-24T09:52:00Z</time>
      </trkpt>
      <trkpt lat="44.56018" lon="0.88589">
        <ele>119.34</ele>
        <time>2013-03-24T09:52:01Z</time>
      </trkpt>
      <trkpt lat="44.56022" lon="0.88586">
        <ele>118.86</ele>
        <time>2013-03-24T09:52:04Z</time>
      </trkpt>
      <trkpt lat="44.56022" lon="0.88584">
        <ele>118.86</ele>
        <time>2013-03-24T09:52:05Z</time>
      </trkpt>
      <trkpt lat="44.5602" lon="0.8858">
        <ele>116.46</ele>
        <time>2013-03-24T09:52:21Z</time>
      </trkpt>
      <trkpt lat="44.56021" lon="0.88585">
        <ele>114.53</ele>
        <time>2013-03-24T09:52:57Z</time>
      </trkpt>
      <trkpt lat="44.56022" lon="0.88582">
        <ele>114.53</ele>
        <time>2013-03-24T09:53:33Z</time>
      </trkpt>
      <trkpt lat="44.56021" lon="0.88582">
        <ele>116.94</ele>
        <time>2013-03-24T09:54:03Z</time>
      </trkpt>
      <trkpt lat="44.56023" lon="0.88582">
        <ele>112.61</ele>
        <time>2013-03-24T09:54:41Z</time>
      </trkpt>
      <trkpt lat="44.56021" lon="0.8858">
        <ele>116.46</ele>
        <time>2013-03-24T09:55:07Z</time>
      </trkpt>
      <trkpt lat="44.56006" lon="0.88558">
        <ele>117.9</ele>
        <time>2013-03-24T09:55:18Z</time>
      </trkpt>
      <trkpt lat="44.55977" lon="0.88496">
        <ele>117.42</ele>
        <time>2013-03-24T09:55:35Z</time>
      </trkpt>
      <trkpt lat="44.55943" lon="0.88436">
        <ele>119.82</ele>
        <time>2013-03-24T09:55:50Z</time>
      </trkpt>
      <trkpt lat="44.55896" lon="0.88377">
        <ele>120.78</ele>
        <time>2013-03-24T09:56:05Z</time>
      </trkpt>
      <trkpt lat="44.55888" lon="0.88371">
        <ele>120.78</ele>
        <time>2013-03-24T09:56:07Z</time>
      </trkpt>
      <trkpt lat="44.55876" lon="0.88363">
        <ele>120.78</ele>
        <time>2013-03-24T09:56:10Z</time>
      </trkpt>
      <trkpt lat="44.55871" lon="0.88361">
        <ele>120.78</ele>
        <time>2013-03-24T09:56:11Z</time>
      </trkpt>
      <trkpt lat="44.55867" lon="0.8836">
        <ele>120.78</ele>
        <time>2013-03-24T09:56:12Z</time>
      </trkpt>
      <trkpt lat="44.55862" lon="0.8836">
        <ele>120.78</ele>
        <time>2013-03-24T09:56:13Z</time>
      </trkpt>
      <trkpt lat="44.55857" lon="0.88359">
        <ele>120.78</ele>
        <time>2013-03-24T09:56:14Z</time>
      </trkpt>
      <trkpt lat="44.55853" lon="0.8836">
        <ele>120.78</ele>
        <time>2013-03-24T09:56:15Z</time>
      </trkpt>
      <trkpt lat="44.55844" lon="0.88363">
        <ele>120.78</ele>
        <time>2013-03-24T09:56:17Z</time>
      </trkpt>
      <trkpt lat="44.55822" lon="0.88372">
        <ele>119.34</ele>
        <time>2013-03-24T09:56:23Z</time>
      </trkpt>
      <trkpt lat="44.55811" lon="0.88369">
        <ele>117.9</ele>
        <time>2013-03-24T09:56:25Z</time>
      </trkpt>
      <trkpt lat="44.55791" lon="0.88343">
        <ele>115.5</ele>
        <time>2013-03-24T09:56:31Z</time>
      </trkpt>
      <trkpt lat="44.5578" lon="0.88356">
        <ele>115.5</ele>
        <time>2013-03-24T09:56:40Z</time>
      </trkpt>
      <trkpt lat="44.55774" lon="0.88366">
        <ele>116.46</ele>
        <time>2013-03-24T09:56:46Z</time>
      </trkpt>
      <trkpt lat="44.55754" lon="0.88389">
        <ele>118.86</ele>
        <time>2013-03-24T09:56:59Z</time>
      </trkpt>
      <trkpt lat="44.5574" lon="0.88403">
        <ele>121.74</ele>
        <time>2013-03-24T09:57:14Z</time>
      </trkpt>
      <trkpt lat="44.55735" lon="0.8841">
        <ele>124.63</ele>
        <time>2013-03-24T09:57:29Z</time>
      </trkpt>
      <trkpt lat="44.5573" lon="0.88415">
        <ele>127.03</ele>
        <time>2013-03-24T09:57:43Z</time>
      </trkpt>
      <trkpt lat="44.55725" lon="0.8842">
        <ele>130.88</ele>
        <time>2013-03-24T09:58:06Z</time>
      </trkpt>
      <trkpt lat="44.55714" lon="0.88428">
        <ele>129.43</ele>
        <time>2013-03-24T09:58:19Z</time>
      </trkpt>
      <trkpt lat="44.55705" lon="0.88431">
        <ele>129.43</ele>
        <time>2013-03-24T09:58:29Z</time>
      </trkpt>
      <trkpt lat="44.55701" lon="0.88432">
        <ele>129.43</ele>
        <time>2013-03-24T09:58:31Z</time>
      </trkpt>
      <trkpt lat="44.55689" lon="0.88436">
        <ele>129.92</ele>
        <time>2013-03-24T09:58:37Z</time>
      </trkpt>
      <trkpt lat="44.55684" lon="0.88435">
        <ele>130.88</ele>
        <time>2013-03-24T09:58:41Z</time>
      </trkpt>
      <trkpt lat="44.5567" lon="0.88427">
        <ele>130.4</ele>
        <time>2013-03-24T09:58:53Z</time>
      </trkpt>
      <trkpt lat="44.55662" lon="0.88419">
        <ele>130.88</ele>
        <time>2013-03-24T09:58:58Z</time>
      </trkpt>
      <trkpt lat="44.55657" lon="0.88413">
        <ele>131.84</ele>
        <time>2013-03-24T09:59:03Z</time>
      </trkpt>
      <trkpt lat="44.55655" lon="0.88407">
        <ele>132.32</ele>
        <time>2013-03-24T09:59:07Z</time>
      </trkpt>
      <trkpt lat="44.55666" lon="0.88385">
        <ele>136.16</ele>
        <time>2013-03-24T09:59:22Z</time>
      </trkpt>
      <trkpt lat="44.5568" lon="0.88373">
        <ele>138.57</ele>
        <time>2013-03-24T09:59:34Z</time>
      </trkpt>
      <trkpt lat="44.55692" lon="0.88358">
        <ele>139.53</ele>
        <time>2013-03-24T09:59:44Z</time>
      </trkpt>
      <trkpt lat="44.55699" lon="0.88351">
        <ele>140.97</ele>
        <time>2013-03-24T09:59:50Z</time>
      </trkpt>
      <trkpt lat="44.55718" lon="0.88314">
        <ele>145.3</ele>
        <time>2013-03-24T10:00:08Z</time>
      </trkpt>
      <trkpt lat="44.55733" lon="0.88285">
        <ele>148.18</ele>
        <time>2013-03-24T10:00:23Z</time>
      </trkpt>
      <trkpt lat="44.55733" lon="0.88283">
        <ele>148.18</ele>
        <time>2013-03-24T10:00:24Z</time>
      </trkpt>
      <trkpt lat="44.55748" lon="0.88248">
        <ele>149.62</ele>
        <time>2013-03-24T10:00:42Z</time>
      </trkpt>
      <trkpt lat="44.55751" lon="0.88243">
        <ele>150.58</ele>
        <time>2013-03-24T10:01:09Z</time>
      </trkpt>
      <trkpt lat="44.55761" lon="0.88213">
        <ele>153.47</ele>
        <time>2013-03-24T10:01:21Z</time>
      </trkpt>
      <trkpt lat="44.55772" lon="0.88174">
        <ele>152.99</ele>
        <time>2013-03-24T10:01:31Z</time>
      </trkpt>
      <trkpt lat="44.55805" lon="0.88098">
        <ele>152.51</ele>
        <time>2013-03-24T10:01:46Z</time>
      </trkpt>
      <trkpt lat="44.55813" lon="0.88087">
        <ele>152.51</ele>
        <time>2013-03-24T10:01:48Z</time>
      </trkpt>
      <trkpt lat="44.55821" lon="0.88076">
        <ele>152.03</ele>
        <time>2013-03-24T10:01:50Z</time>
      </trkpt>
      <trkpt lat="44.55829" lon="0.88046">
        <ele>152.03</ele>
        <time>2013-03-24T10:01:55Z</time>
      </trkpt>
      <trkpt lat="44.55841" lon="0.88022">
        <ele>152.03</ele>
        <time>2013-03-24T10:02:04Z</time>
      </trkpt>
      <trkpt lat="44.55843" lon="0.88017">
        <ele>152.51</ele>
        <time>2013-03-24T10:02:07Z</time>
      </trkpt>
      <trkpt lat="44.55846" lon="0.88012">
        <ele>152.99</ele>
        <time>2013-03-24T10:02:10Z</time>
      </trkpt>
      <trkpt lat="44.55857" lon="0.8799">
        <ele>155.87</ele>
        <time>2013-03-24T10:02:23Z</time>
      </trkpt>
      <trkpt lat="44.55864" lon="0.87965">
        <ele>158.27</ele>
        <time>2013-03-24T10:02:37Z</time>
      </trkpt>
      <trkpt lat="44.55864" lon="0.87954">
        <ele>159.24</ele>
        <time>2013-03-24T10:02:43Z</time>
      </trkpt>
      <trkpt lat="44.55863" lon="0.87931">
        <ele>161.64</ele>
        <time>2013-03-24T10:02:56Z</time>
      </trkpt>
      <trkpt lat="44.55861" lon="0.87914">
        <ele>165.48</ele>
        <time>2013-03-24T10:03:10Z</time>
      </trkpt>
      <trkpt lat="44.55858" lon="0.87901">
        <ele>170.29</ele>
        <time>2013-03-24T10:03:26Z</time>
      </trkpt>
      <trkpt lat="44.55853" lon="0.87894">
        <ele>174.14</ele>
        <time>2013-03-24T10:03:42Z</time>
      </trkpt>
      <trkpt lat="44.5585" lon="0.87885">
        <ele>176.06</ele>
        <time>2013-03-24T10:03:57Z</time>
      </trkpt>
      <trkpt lat="44.55843" lon="0.87873">
        <ele>180.87</ele>
        <time>2013-03-24T10:04:14Z</time>
      </trkpt>
      <trkpt lat="44.55838" lon="0.87864">
        <ele>185.19</ele>
        <time>2013-03-24T10:04:28Z</time>
      </trkpt>
      <trkpt lat="44.55832" lon="0.87855">
        <ele>186.15</ele>
        <time>2013-03-24T10:04:43Z</time>
      </trkpt>
      <trkpt lat="44.55831" lon="0.87849">
        <ele>185.67</ele>
        <time>2013-03-24T10:04:56Z</time>
      </trkpt>
      <trkpt lat="44.5583" lon="0.87847">
        <ele>186.15</ele>
        <time>2013-03-24T10:04:58Z</time>
      </trkpt>
      <trkpt lat="44.55827" lon="0.8784">
        <ele>186.15</ele>
        <time>2013-03-24T10:05:02Z</time>
      </trkpt>
      <trkpt lat="44.55803" lon="0.87805">
        <ele>188.08</ele>
        <time>2013-03-24T10:05:15Z</time>
      </trkpt>
      <trkpt lat="44.55744" lon="0.87748">
        <ele>181.83</ele>
        <time>2013-03-24T10:05:26Z</time>
      </trkpt>
      <trkpt lat="44.55734" lon="0.87735">
        <ele>180.87</ele>
        <time>2013-03-24T10:05:28Z</time>
      </trkpt>
      <trkpt lat="44.55705" lon="0.87708">
        <ele>179.42</ele>
        <time>2013-03-24T10:05:35Z</time>
      </trkpt>
      <trkpt lat="44.55682" lon="0.87686">
        <ele>177.5</ele>
        <time>2013-03-24T10:05:43Z</time>
      </trkpt>
      <trkpt lat="44.5568" lon="0.87662">
        <ele>176.06</ele>
        <time>2013-03-24T10:05:48Z</time>
      </trkpt>
      <trkpt lat="44.55683" lon="0.87642">
        <ele>174.14</ele>
        <time>2013-03-24T10:05:51Z</time>
      </trkpt>
      <trkpt lat="44.55687" lon="0.87614">
        <ele>172.21</ele>
        <time>2013-03-24T10:05:55Z</time>
      </trkpt>
      <trkpt lat="44.55694" lon="0.87583">
        <ele>169.81</ele>
        <time>2013-03-24T10:05:59Z</time>
      </trkpt>
      <trkpt lat="44.55696" lon="0.87553">
        <ele>168.37</ele>
        <time>2013-03-24T10:06:03Z</time>
      </trkpt>
      <trkpt lat="44.55703" lon="0.87518">
        <ele>167.41</ele>
        <time>2013-03-24T10:06:10Z</time>
      </trkpt>
      <trkpt lat="44.55696" lon="0.87505">
        <ele>167.41</ele>
        <time>2013-03-24T10:06:15Z</time>
      </trkpt>
      <trkpt lat="44.55656" lon="0.87456">
        <ele>168.85</ele>
        <time>2013-03-24T10:06:29Z</time>
      </trkpt>
      <trkpt lat="44.5565" lon="0.87446">
        <ele>169.33</ele>
        <time>2013-03-24T10:06:32Z</time>
      </trkpt>
      <trkpt lat="44.55651" lon="0.87443">
        <ele>169.33</ele>
        <time>2013-03-24T10:06:33Z</time>
      </trkpt>
      <trkpt lat="44.55653" lon="0.8744">
        <ele>169.33</ele>
        <time>2013-03-24T10:06:34Z</time>
      </trkpt>
      <trkpt lat="44.557" lon="0.8739">
        <ele>169.81</ele>
        <time>2013-03-24T10:06:48Z</time>
      </trkpt>
      <trkpt lat="44.55759" lon="0.87322">
        <ele>167.89</ele>
        <time>2013-03-24T10:07:03Z</time>
      </trkpt>
      <trkpt lat="44.55803" lon="0.87284">
        <ele>168.85</ele>
        <time>2013-03-24T10:07:14Z</time>
      </trkpt>
      <trkpt lat="44.55807" lon="0.87282">
        <ele>168.85</ele>
        <time>2013-03-24T10:07:15Z</time>
      </trkpt>
      <trkpt lat="44.5586" lon="0.87273">
        <ele>174.62</ele>
        <time>2013-03-24T10:07:30Z</time>
      </trkpt>
      <trkpt lat="44.55892" lon="0.87268">
        <ele>178.94</ele>
        <time>2013-03-24T10:07:43Z</time>
      </trkpt>
      <trkpt lat="44.55926" lon="0.87261">
        <ele>181.83</ele>
        <time>2013-03-24T10:07:58Z</time>
      </trkpt>
      <trkpt lat="44.5597" lon="0.8726">
        <ele>186.15</ele>
        <time>2013-03-24T10:08:17Z</time>
      </trkpt>
      <trkpt lat="44.56007" lon="0.87261">
        <ele>189.04</ele>
        <time>2013-03-24T10:08:33Z</time>
      </trkpt>
      <trkpt lat="44.5605" lon="0.87261">
        <ele>191.44</ele>
        <time>2013-03-24T10:08:51Z</time>
      </trkpt>
      <trkpt lat="44.56099" lon="0.87262">
        <ele>192.4</ele>
        <time>2013-03-24T10:09:09Z</time>
      </trkpt>
      <trkpt lat="44.56144" lon="0.87268">
        <ele>192.88</ele>
        <time>2013-03-24T10:09:24Z</time>
      </trkpt>
      <trkpt lat="44.56204" lon="0.87276">
        <ele>192.88</ele>
        <time>2013-03-24T10:09:41Z</time>
      </trkpt>
      <trkpt lat="44.56254" lon="0.8727">
        <ele>193.84</ele>
        <time>2013-03-24T10:09:54Z</time>
      </trkpt>
      <trkpt lat="44.56298" lon="0.87262">
        <ele>194.8</ele>
        <time>2013-03-24T10:10:06Z</time>
      </trkpt>
      <trkpt lat="44.5634" lon="0.87238">
        <ele>198.65</ele>
        <time>2013-03-24T10:10:20Z</time>
      </trkpt>
      <trkpt lat="44.56372" lon="0.87221">
        <ele>200.09</ele>
        <time>2013-03-24T10:10:33Z</time>
      </trkpt>
      <trkpt lat="44.56375" lon="0.87218">
        <ele>199.61</ele>
        <time>2013-03-24T10:10:35Z</time>
      </trkpt>
      <trkpt lat="44.56375" lon="0.87215">
        <ele>199.13</ele>
        <time>2013-03-24T10:10:36Z</time>
      </trkpt>
      <trkpt lat="44.56376" lon="0.87213">
        <ele>199.13</ele>
        <time>2013-03-24T10:10:37Z</time>
      </trkpt>
      <trkpt lat="44.56376" lon="0.872">
        <ele>198.65</ele>
        <time>2013-03-24T10:10:44Z</time>
      </trkpt>
      <trkpt lat="44.56358" lon="0.87169">
        <ele>200.09</ele>
        <time>2013-03-24T10:10:54Z</time>
      </trkpt>
      <trkpt lat="44.56333" lon="0.87159">
        <ele>199.13</ele>
        <time>2013-03-24T10:11:01Z</time>
      </trkpt>
      <trkpt lat="44.56319" lon="0.87158">
        <ele>199.13</ele>
        <time>2013-03-24T10:11:04Z</time>
      </trkpt>
      <trkpt lat="44.56302" lon="0.8715">
        <ele>197.69</ele>
        <time>2013-03-24T10:11:10Z</time>
      </trkpt>
      <trkpt lat="44.56297" lon="0.87106">
        <ele>195.28</ele>
        <time>2013-03-24T10:11:16Z</time>
      </trkpt>
      <trkpt lat="44.56298" lon="0.87079">
        <ele>193.84</ele>
        <time>2013-03-24T10:11:19Z</time>
      </trkpt>
      <trkpt lat="44.56296" lon="0.87053">
        <ele>192.4</ele>
        <time>2013-03-24T10:11:23Z</time>
      </trkpt>
      <trkpt lat="44.56287" lon="0.87036">
        <ele>191.92</ele>
        <time>2013-03-24T10:11:27Z</time>
      </trkpt>
      <trkpt lat="44.56284" lon="0.87014">
        <ele>193.36</ele>
        <time>2013-03-24T10:11:31Z</time>
      </trkpt>
      <trkpt lat="44.56282" lon="0.86995">
        <ele>193.36</ele>
        <time>2013-03-24T10:11:34Z</time>
      </trkpt>
      <trkpt lat="44.56275" lon="0.86923">
        <ele>194.32</ele>
        <time>2013-03-24T10:11:45Z</time>
      </trkpt>
      <trkpt lat="44.56271" lon="0.8688">
        <ele>197.21</ele>
        <time>2013-03-24T10:11:54Z</time>
      </trkpt>
      <trkpt lat="44.56272" lon="0.86876">
        <ele>198.65</ele>
        <time>2013-03-24T10:11:56Z</time>
      </trkpt>
      <trkpt lat="44.56279" lon="0.86872">
        <ele>199.13</ele>
        <time>2013-03-24T10:12:00Z</time>
      </trkpt>
      <trkpt lat="44.56299" lon="0.86864">
        <ele>197.69</ele>
        <time>2013-03-24T10:12:05Z</time>
      </trkpt>
      <trkpt lat="44.56312" lon="0.86851">
        <ele>195.28</ele>
        <time>2013-03-24T10:12:12Z</time>
      </trkpt>
      <trkpt lat="44.56315" lon="0.86836">
        <ele>193.84</ele>
        <time>2013-03-24T10:12:15Z</time>
      </trkpt>
      <trkpt lat="44.56329" lon="0.86818">
        <ele>191.44</ele>
        <time>2013-03-24T10:12:20Z</time>
      </trkpt>
      <trkpt lat="44.56339" lon="0.86806">
        <ele>190</ele>
        <time>2013-03-24T10:12:25Z</time>
      </trkpt>
      <trkpt lat="44.56332" lon="0.86755">
        <ele>189.04</ele>
        <time>2013-03-24T10:12:33Z</time>
      </trkpt>
      <trkpt lat="44.56327" lon="0.86735">
        <ele>189.52</ele>
        <time>2013-03-24T10:12:36Z</time>
      </trkpt>
      <trkpt lat="44.56324" lon="0.8672">
        <ele>189.52</ele>
        <time>2013-03-24T10:12:38Z</time>
      </trkpt>
      <trkpt lat="44.56314" lon="0.86693">
        <ele>190</ele>
        <time>2013-03-24T10:12:42Z</time>
      </trkpt>
      <trkpt lat="44.56304" lon="0.86659">
        <ele>190</ele>
        <time>2013-03-24T10:12:47Z</time>
      </trkpt>
      <trkpt lat="44.56298" lon="0.86646">
        <ele>189.52</ele>
        <time>2013-03-24T10:12:49Z</time>
      </trkpt>
      <trkpt lat="44.56297" lon="0.86621">
        <ele>190.48</ele>
        <time>2013-03-24T10:12:53Z</time>
      </trkpt>
      <trkpt lat="44.56303" lon="0.86605">
        <ele>190.48</ele>
        <time>2013-03-24T10:12:56Z</time>
      </trkpt>
      <trkpt lat="44.56317" lon="0.86579">
        <ele>188.08</ele>
        <time>2013-03-24T10:13:01Z</time>
      </trkpt>
      <trkpt lat="44.5634" lon="0.86537">
        <ele>185.67</ele>
        <time>2013-03-24T10:13:07Z</time>
      </trkpt>
      <trkpt lat="44.56353" lon="0.86516">
        <ele>184.23</ele>
        <time>2013-03-24T10:13:10Z</time>
      </trkpt>
      <trkpt lat="44.56369" lon="0.86485">
        <ele>180.87</ele>
        <time>2013-03-24T10:13:14Z</time>
      </trkpt>
      <trkpt lat="44.56377" lon="0.8646">
        <ele>178.46</ele>
        <time>2013-03-24T10:13:17Z</time>
      </trkpt>
      <trkpt lat="44.5638" lon="0.86443">
        <ele>177.5</ele>
        <time>2013-03-24T10:13:19Z</time>
      </trkpt>
      <trkpt lat="44.56378" lon="0.86402">
        <ele>176.06</ele>
        <time>2013-03-24T10:13:24Z</time>
      </trkpt>
      <trkpt lat="44.56367" lon="0.8637">
        <ele>175.1</ele>
        <time>2013-03-24T10:13:28Z</time>
      </trkpt>
      <trkpt lat="44.56353" lon="0.86316">
        <ele>173.17</ele>
        <time>2013-03-24T10:13:34Z</time>
      </trkpt>
      <trkpt lat="44.5635" lon="0.86285">
        <ele>173.66</ele>
        <time>2013-03-24T10:13:38Z</time>
      </trkpt>
      <trkpt lat="44.56344" lon="0.86238">
        <ele>175.58</ele>
        <time>2013-03-24T10:13:44Z</time>
      </trkpt>
      <trkpt lat="44.56322" lon="0.86207">
        <ele>174.62</ele>
        <time>2013-03-24T10:13:49Z</time>
      </trkpt>
      <trkpt lat="44.56283" lon="0.86162">
        <ele>171.73</ele>
        <time>2013-03-24T10:13:57Z</time>
      </trkpt>
      <trkpt lat="44.56287" lon="0.86146">
        <ele>170.29</ele>
        <time>2013-03-24T10:14:02Z</time>
      </trkpt>
      <trkpt lat="44.56323" lon="0.86139">
        <ele>165.48</ele>
        <time>2013-03-24T10:14:15Z</time>
      </trkpt>
      <trkpt lat="44.56368" lon="0.86131">
        <ele>161.16</ele>
        <time>2013-03-24T10:14:31Z</time>
      </trkpt>
      <trkpt lat="44.56404" lon="0.86128">
        <ele>160.68</ele>
        <time>2013-03-24T10:14:44Z</time>
      </trkpt>
      <trkpt lat="44.56438" lon="0.86125">
        <ele>161.16</ele>
        <time>2013-03-24T10:14:56Z</time>
      </trkpt>
      <trkpt lat="44.56484" lon="0.86116">
        <ele>164.04</ele>
        <time>2013-03-24T10:15:09Z</time>
      </trkpt>
      <trkpt lat="44.56536" lon="0.8611">
        <ele>167.89</ele>
        <time>2013-03-24T10:15:25Z</time>
      </trkpt>
      <trkpt lat="44.56574" lon="0.86084">
        <ele>169.33</ele>
        <time>2013-03-24T10:15:38Z</time>
      </trkpt>
      <trkpt lat="44.56602" lon="0.86022">
        <ele>166.45</ele>
        <time>2013-03-24T10:15:53Z</time>
      </trkpt>
      <trkpt lat="44.56615" lon="0.85935">
        <ele>165.48</ele>
        <time>2013-03-24T10:16:12Z</time>
      </trkpt>
      <trkpt lat="44.5662" lon="0.8587">
        <ele>166.93</ele>
        <time>2013-03-24T10:16:29Z</time>
      </trkpt>
      <trkpt lat="44.56618" lon="0.85813">
        <ele>171.25</ele>
        <time>2013-03-24T10:16:44Z</time>
      </trkpt>
      <trkpt lat="44.56618" lon="0.85738">
        <ele>171.25</ele>
        <time>2013-03-24T10:17:03Z</time>
      </trkpt>
      <trkpt lat="44.56629" lon="0.85667">
        <ele>172.21</ele>
        <time>2013-03-24T10:17:22Z</time>
      </trkpt>
      <trkpt lat="44.5664" lon="0.85611">
        <ele>175.58</ele>
        <time>2013-03-24T10:17:37Z</time>
      </trkpt>
      <trkpt lat="44.56655" lon="0.85534">
        <ele>179.42</ele>
        <time>2013-03-24T10:17:56Z</time>
      </trkpt>
      <trkpt lat="44.5667" lon="0.85505">
        <ele>178.94</ele>
        <time>2013-03-24T10:18:09Z</time>
      </trkpt>
      <trkpt lat="44.56702" lon="0.85483">
        <ele>179.9</ele>
        <time>2013-03-24T10:18:22Z</time>
      </trkpt>
      <trkpt lat="44.56742" lon="0.85457">
        <ele>180.38</ele>
        <time>2013-03-24T10:18:36Z</time>
      </trkpt>
      <trkpt lat="44.56791" lon="0.85433">
        <ele>180.38</ele>
        <time>2013-03-24T10:18:51Z</time>
      </trkpt>
      <trkpt lat="44.56833" lon="0.85437">
        <ele>181.35</ele>
        <time>2013-03-24T10:19:04Z</time>
      </trkpt>
      <trkpt lat="44.56865" lon="0.85435">
        <ele>182.79</ele>
        <time>2013-03-24T10:19:13Z</time>
      </trkpt>
      <trkpt lat="44.56874" lon="0.85433">
        <ele>183.27</ele>
        <time>2013-03-24T10:19:15Z</time>
      </trkpt>
      <trkpt lat="44.56908" lon="0.8543">
        <ele>184.71</ele>
        <time>2013-03-24T10:19:23Z</time>
      </trkpt>
      <trkpt lat="44.56926" lon="0.85431">
        <ele>184.23</ele>
        <time>2013-03-24T10:19:27Z</time>
      </trkpt>
      <trkpt lat="44.56977" lon="0.85436">
        <ele>184.23</ele>
        <time>2013-03-24T10:19:39Z</time>
      </trkpt>
      <trkpt lat="44.57016" lon="0.85438">
        <ele>185.19</ele>
        <time>2013-03-24T10:19:49Z</time>
      </trkpt>
      <trkpt lat="44.57048" lon="0.85428">
        <ele>185.67</ele>
        <time>2013-03-24T10:19:59Z</time>
      </trkpt>
      <trkpt lat="44.57052" lon="0.85377">
        <ele>184.23</ele>
        <time>2013-03-24T10:20:12Z</time>
      </trkpt>
      <trkpt lat="44.57048" lon="0.85356">
        <ele>184.23</ele>
        <time>2013-03-24T10:20:16Z</time>
      </trkpt>
      <trkpt lat="44.57057" lon="0.85314">
        <ele>182.31</ele>
        <time>2013-03-24T10:20:24Z</time>
      </trkpt>
      <trkpt lat="44.5708" lon="0.85308">
        <ele>179.42</ele>
        <time>2013-03-24T10:20:29Z</time>
      </trkpt>
      <trkpt lat="44.57113" lon="0.85297">
        <ele>175.1</ele>
        <time>2013-03-24T10:20:37Z</time>
      </trkpt>
      <trkpt lat="44.57117" lon="0.85285">
        <ele>173.66</ele>
        <time>2013-03-24T10:20:39Z</time>
      </trkpt>
      <trkpt lat="44.57133" lon="0.85269">
        <ele>172.21</ele>
        <time>2013-03-24T10:20:43Z</time>
      </trkpt>
      <trkpt lat="44.57149" lon="0.85253">
        <ele>170.29</ele>
        <time>2013-03-24T10:20:47Z</time>
      </trkpt>
      <trkpt lat="44.57159" lon="0.85204">
        <ele>166.45</ele>
        <time>2013-03-24T10:20:55Z</time>
      </trkpt>
      <trkpt lat="44.57158" lon="0.8518">
        <ele>165.96</ele>
        <time>2013-03-24T10:20:58Z</time>
      </trkpt>
      <trkpt lat="44.57157" lon="0.85145">
        <ele>165.96</ele>
        <time>2013-03-24T10:21:03Z</time>
      </trkpt>
      <trkpt lat="44.57158" lon="0.85104">
        <ele>167.89</ele>
        <time>2013-03-24T10:21:13Z</time>
      </trkpt>
      <trkpt lat="44.57167" lon="0.85076">
        <ele>169.81</ele>
        <time>2013-03-24T10:21:25Z</time>
      </trkpt>
      <trkpt lat="44.57171" lon="0.85066">
        <ele>170.77</ele>
        <time>2013-03-24T10:21:29Z</time>
      </trkpt>
      <trkpt lat="44.5719" lon="0.85015">
        <ele>172.69</ele>
        <time>2013-03-24T10:21:43Z</time>
      </trkpt>
      <trkpt lat="44.57205" lon="0.84975">
        <ele>175.58</ele>
        <time>2013-03-24T10:21:55Z</time>
      </trkpt>
      <trkpt lat="44.57217" lon="0.84943">
        <ele>177.02</ele>
        <time>2013-03-24T10:22:05Z</time>
      </trkpt>
      <trkpt lat="44.57218" lon="0.8494">
        <ele>177.02</ele>
        <time>2013-03-24T10:22:06Z</time>
      </trkpt>
      <trkpt lat="44.57225" lon="0.84925">
        <ele>177.98</ele>
        <time>2013-03-24T10:22:12Z</time>
      </trkpt>
      <trkpt lat="44.57218" lon="0.84917">
        <ele>178.46</ele>
        <time>2013-03-24T10:22:22Z</time>
      </trkpt>
      <trkpt lat="44.57218" lon="0.84917">
        <ele>177.98</ele>
        <time>2013-03-24T10:22:38Z</time>
      </trkpt>
      <trkpt lat="44.57217" lon="0.84918">
        <ele>177.98</ele>
        <time>2013-03-24T10:22:40Z</time>
      </trkpt>
      <trkpt lat="44.57185" lon="0.84917">
        <ele>178.46</ele>
        <time>2013-03-24T10:22:54Z</time>
      </trkpt>
      <trkpt lat="44.57175" lon="0.84908">
        <ele>178.46</ele>
        <time>2013-03-24T10:22:58Z</time>
      </trkpt>
      <trkpt lat="44.57138" lon="0.84909">
        <ele>177.5</ele>
        <time>2013-03-24T10:23:09Z</time>
      </trkpt>
      <trkpt lat="44.57133" lon="0.8491">
        <ele>177.5</ele>
        <time>2013-03-24T10:23:10Z</time>
      </trkpt>
      <trkpt lat="44.57108" lon="0.84908">
        <ele>176.54</ele>
        <time>2013-03-24T10:23:16Z</time>
      </trkpt>
      <trkpt lat="44.57098" lon="0.84911">
        <ele>177.02</ele>
        <time>2013-03-24T10:23:18Z</time>
      </trkpt>
      <trkpt lat="44.57076" lon="0.84913">
        <ele>176.54</ele>
        <time>2013-03-24T10:23:22Z</time>
      </trkpt>
      <trkpt lat="44.57049" lon="0.84904">
        <ele>176.54</ele>
        <time>2013-03-24T10:23:28Z</time>
      </trkpt>
      <trkpt lat="44.57034" lon="0.84896">
        <ele>176.54</ele>
        <time>2013-03-24T10:23:31Z</time>
      </trkpt>
      <trkpt lat="44.57011" lon="0.84887">
        <ele>176.54</ele>
        <time>2013-03-24T10:23:35Z</time>
      </trkpt>
      <trkpt lat="44.56991" lon="0.84887">
        <ele>175.58</ele>
        <time>2013-03-24T10:23:39Z</time>
      </trkpt>
      <trkpt lat="44.56971" lon="0.84858">
        <ele>171.25</ele>
        <time>2013-03-24T10:23:47Z</time>
      </trkpt>
      <trkpt lat="44.5694" lon="0.84858">
        <ele>165</ele>
        <time>2013-03-24T10:23:55Z</time>
      </trkpt>
      <trkpt lat="44.56926" lon="0.84815">
        <ele>160.68</ele>
        <time>2013-03-24T10:24:01Z</time>
      </trkpt>
      <trkpt lat="44.56919" lon="0.84771">
        <ele>158.75</ele>
        <time>2013-03-24T10:24:06Z</time>
      </trkpt>
      <trkpt lat="44.56905" lon="0.8474">
        <ele>157.79</ele>
        <time>2013-03-24T10:24:10Z</time>
      </trkpt>
      <trkpt lat="44.56892" lon="0.8472">
        <ele>158.27</ele>
        <time>2013-03-24T10:24:13Z</time>
      </trkpt>
      <trkpt lat="44.56884" lon="0.84707">
        <ele>158.27</ele>
        <time>2013-03-24T10:24:15Z</time>
      </trkpt>
      <trkpt lat="44.56875" lon="0.84685">
        <ele>158.27</ele>
        <time>2013-03-24T10:24:18Z</time>
      </trkpt>
      <trkpt lat="44.56862" lon="0.84665">
        <ele>158.27</ele>
        <time>2013-03-24T10:24:21Z</time>
      </trkpt>
      <trkpt lat="44.56841" lon="0.84644">
        <ele>158.27</ele>
        <time>2013-03-24T10:24:25Z</time>
      </trkpt>
      <trkpt lat="44.568" lon="0.8462">
        <ele>157.31</ele>
        <time>2013-03-24T10:24:32Z</time>
      </trkpt>
      <trkpt lat="44.56769" lon="0.84584">
        <ele>155.87</ele>
        <time>2013-03-24T10:24:38Z</time>
      </trkpt>
      <trkpt lat="44.56764" lon="0.84577">
        <ele>155.87</ele>
        <time>2013-03-24T10:24:39Z</time>
      </trkpt>
      <trkpt lat="44.56761" lon="0.8457">
        <ele>155.39</ele>
        <time>2013-03-24T10:24:40Z</time>
      </trkpt>
      <trkpt lat="44.56759" lon="0.84562">
        <ele>154.91</ele>
        <time>2013-03-24T10:24:41Z</time>
      </trkpt>
      <trkpt lat="44.56758" lon="0.84554">
        <ele>154.43</ele>
        <time>2013-03-24T10:24:42Z</time>
      </trkpt>
      <trkpt lat="44.56757" lon="0.84545">
        <ele>154.43</ele>
        <time>2013-03-24T10:24:43Z</time>
      </trkpt>
      <trkpt lat="44.56749" lon="0.84493">
        <ele>152.99</ele>
        <time>2013-03-24T10:24:49Z</time>
      </trkpt>
      <trkpt lat="44.56749" lon="0.84485">
        <ele>152.51</ele>
        <time>2013-03-24T10:24:50Z</time>
      </trkpt>
      <trkpt lat="44.56749" lon="0.84479">
        <ele>152.51</ele>
        <time>2013-03-24T10:24:51Z</time>
      </trkpt>
      <trkpt lat="44.5675" lon="0.84473">
        <ele>152.03</ele>
        <time>2013-03-24T10:24:52Z</time>
      </trkpt>
      <trkpt lat="44.56752" lon="0.84466">
        <ele>152.03</ele>
        <time>2013-03-24T10:24:53Z</time>
      </trkpt>
      <trkpt lat="44.56753" lon="0.8446">
        <ele>151.54</ele>
        <time>2013-03-24T10:24:54Z</time>
      </trkpt>
      <trkpt lat="44.56755" lon="0.84454">
        <ele>151.54</ele>
        <time>2013-03-24T10:24:55Z</time>
      </trkpt>
      <trkpt lat="44.56757" lon="0.84447">
        <ele>151.06</ele>
        <time>2013-03-24T10:24:56Z</time>
      </trkpt>
      <trkpt lat="44.56783" lon="0.84373">
        <ele>147.7</ele>
        <time>2013-03-24T10:25:06Z</time>
      </trkpt>
      <trkpt lat="44.56785" lon="0.84365">
        <ele>147.22</ele>
        <time>2013-03-24T10:25:07Z</time>
      </trkpt>
      <trkpt lat="44.56784" lon="0.84356">
        <ele>147.22</ele>
        <time>2013-03-24T10:25:08Z</time>
      </trkpt>
      <trkpt lat="44.56783" lon="0.84349">
        <ele>147.22</ele>
        <time>2013-03-24T10:25:09Z</time>
      </trkpt>
      <trkpt lat="44.5678" lon="0.84342">
        <ele>147.22</ele>
        <time>2013-03-24T10:25:10Z</time>
      </trkpt>
      <trkpt lat="44.56777" lon="0.84335">
        <ele>147.22</ele>
        <time>2013-03-24T10:25:11Z</time>
      </trkpt>
      <trkpt lat="44.56764" lon="0.84298">
        <ele>147.7</ele>
        <time>2013-03-24T10:25:16Z</time>
      </trkpt>
      <trkpt lat="44.56738" lon="0.84246">
        <ele>148.18</ele>
        <time>2013-03-24T10:25:22Z</time>
      </trkpt>
      <trkpt lat="44.56732" lon="0.84239">
        <ele>148.18</ele>
        <time>2013-03-24T10:25:23Z</time>
      </trkpt>
      <trkpt lat="44.56694" lon="0.84203">
        <ele>148.18</ele>
        <time>2013-03-24T10:25:29Z</time>
      </trkpt>
      <trkpt lat="44.56687" lon="0.84199">
        <ele>148.18</ele>
        <time>2013-03-24T10:25:30Z</time>
      </trkpt>
      <trkpt lat="44.56679" lon="0.84196">
        <ele>148.18</ele>
        <time>2013-03-24T10:25:31Z</time>
      </trkpt>
      <trkpt lat="44.56672" lon="0.84195">
        <ele>147.7</ele>
        <time>2013-03-24T10:25:32Z</time>
      </trkpt>
      <trkpt lat="44.56664" lon="0.84193">
        <ele>147.22</ele>
        <time>2013-03-24T10:25:33Z</time>
      </trkpt>
      <trkpt lat="44.56561" lon="0.8417">
        <ele>143.37</ele>
        <time>2013-03-24T10:25:47Z</time>
      </trkpt>
      <trkpt lat="44.56516" lon="0.84157">
        <ele>142.41</ele>
        <time>2013-03-24T10:25:53Z</time>
      </trkpt>
      <trkpt lat="44.56508" lon="0.84157">
        <ele>142.41</ele>
        <time>2013-03-24T10:25:54Z</time>
      </trkpt>
      <trkpt lat="44.56492" lon="0.84156">
        <ele>141.45</ele>
        <time>2013-03-24T10:25:56Z</time>
      </trkpt>
      <trkpt lat="44.56485" lon="0.84152">
        <ele>141.45</ele>
        <time>2013-03-24T10:25:57Z</time>
      </trkpt>
      <trkpt lat="44.56479" lon="0.84145">
        <ele>141.45</ele>
        <time>2013-03-24T10:25:58Z</time>
      </trkpt>
      <trkpt lat="44.56455" lon="0.84118">
        <ele>139.53</ele>
        <time>2013-03-24T10:26:02Z</time>
      </trkpt>
      <trkpt lat="44.56448" lon="0.84112">
        <ele>139.53</ele>
        <time>2013-03-24T10:26:03Z</time>
      </trkpt>
      <trkpt lat="44.56441" lon="0.84107">
        <ele>139.05</ele>
        <time>2013-03-24T10:26:04Z</time>
      </trkpt>
      <trkpt lat="44.56367" lon="0.84058">
        <ele>136.16</ele>
        <time>2013-03-24T10:26:14Z</time>
      </trkpt>
      <trkpt lat="44.56359" lon="0.84054">
        <ele>136.16</ele>
        <time>2013-03-24T10:26:15Z</time>
      </trkpt>
      <trkpt lat="44.56351" lon="0.84052">
        <ele>135.68</ele>
        <time>2013-03-24T10:26:16Z</time>
      </trkpt>
      <trkpt lat="44.56343" lon="0.8405">
        <ele>135.2</ele>
        <time>2013-03-24T10:26:17Z</time>
      </trkpt>
      <trkpt lat="44.56335" lon="0.8405">
        <ele>134.72</ele>
        <time>2013-03-24T10:26:18Z</time>
      </trkpt>
      <trkpt lat="44.56327" lon="0.8405">
        <ele>134.24</ele>
        <time>2013-03-24T10:26:19Z</time>
      </trkpt>
      <trkpt lat="44.56319" lon="0.84052">
        <ele>134.24</ele>
        <time>2013-03-24T10:26:20Z</time>
      </trkpt>
      <trkpt lat="44.56312" lon="0.84054">
        <ele>133.76</ele>
        <time>2013-03-24T10:26:21Z</time>
      </trkpt>
      <trkpt lat="44.56225" lon="0.84084">
        <ele>132.32</ele>
        <time>2013-03-24T10:26:33Z</time>
      </trkpt>
      <trkpt lat="44.56174" lon="0.84125">
        <ele>131.84</ele>
        <time>2013-03-24T10:26:41Z</time>
      </trkpt>
      <trkpt lat="44.56135" lon="0.84147">
        <ele>130.88</ele>
        <time>2013-03-24T10:26:48Z</time>
      </trkpt>
      <trkpt lat="44.56129" lon="0.84148">
        <ele>130.88</ele>
        <time>2013-03-24T10:26:49Z</time>
      </trkpt>
      <trkpt lat="44.56123" lon="0.84148">
        <ele>130.88</ele>
        <time>2013-03-24T10:26:50Z</time>
      </trkpt>
      <trkpt lat="44.56104" lon="0.84147">
        <ele>130.4</ele>
        <time>2013-03-24T10:26:53Z</time>
      </trkpt>
      <trkpt lat="44.56092" lon="0.84148">
        <ele>130.4</ele>
        <time>2013-03-24T10:26:55Z</time>
      </trkpt>
      <trkpt lat="44.56062" lon="0.84132">
        <ele>131.84</ele>
        <time>2013-03-24T10:27:00Z</time>
      </trkpt>
      <trkpt lat="44.56052" lon="0.84121">
        <ele>131.84</ele>
        <time>2013-03-24T10:27:02Z</time>
      </trkpt>
      <trkpt lat="44.56044" lon="0.84112">
        <ele>131.84</ele>
        <time>2013-03-24T10:27:04Z</time>
      </trkpt>
      <trkpt lat="44.56027" lon="0.84101">
        <ele>131.36</ele>
        <time>2013-03-24T10:27:08Z</time>
      </trkpt>
      <trkpt lat="44.55995" lon="0.84082">
        <ele>129.92</ele>
        <time>2013-03-24T10:27:18Z</time>
      </trkpt>
      <trkpt lat="44.55973" lon="0.84081">
        <ele>129.43</ele>
        <time>2013-03-24T10:27:30Z</time>
      </trkpt>
      <trkpt lat="44.55948" lon="0.84085">
        <ele>129.92</ele>
        <time>2013-03-24T10:27:43Z</time>
      </trkpt>
      <trkpt lat="44.55921" lon="0.84097">
        <ele>128.47</ele>
        <time>2013-03-24T10:27:57Z</time>
      </trkpt>
      <trkpt lat="44.55909" lon="0.84111">
        <ele>127.03</ele>
        <time>2013-03-24T10:28:06Z</time>
      </trkpt>
      <trkpt lat="44.55893" lon="0.84121">
        <ele>123.19</ele>
        <time>2013-03-24T10:28:17Z</time>
      </trkpt>
      <trkpt lat="44.5589" lon="0.84136">
        <ele>123.67</ele>
        <time>2013-03-24T10:28:23Z</time>
      </trkpt>
      <trkpt lat="44.55871" lon="0.84151">
        <ele>125.59</ele>
        <time>2013-03-24T10:28:34Z</time>
      </trkpt>
      <trkpt lat="44.55858" lon="0.84156">
        <ele>128.47</ele>
        <time>2013-03-24T10:28:38Z</time>
      </trkpt>
      <trkpt lat="44.55849" lon="0.84195">
        <ele>131.36</ele>
        <time>2013-03-24T10:28:49Z</time>
      </trkpt>
      <trkpt lat="44.55831" lon="0.84213">
        <ele>129.92</ele>
        <time>2013-03-24T10:28:56Z</time>
      </trkpt>
      <trkpt lat="44.55797" lon="0.8421">
        <ele>132.8</ele>
        <time>2013-03-24T10:29:06Z</time>
      </trkpt>
      <trkpt lat="44.55782" lon="0.84206">
        <ele>133.76</ele>
        <time>2013-03-24T10:29:11Z</time>
      </trkpt>
      <trkpt lat="44.55756" lon="0.84188">
        <ele>134.72</ele>
        <time>2013-03-24T10:29:21Z</time>
      </trkpt>
      <trkpt lat="44.55745" lon="0.84177">
        <ele>134.72</ele>
        <time>2013-03-24T10:29:25Z</time>
      </trkpt>
      <trkpt lat="44.55748" lon="0.84153">
        <ele>135.2</ele>
        <time>2013-03-24T10:29:32Z</time>
      </trkpt>
      <trkpt lat="44.55768" lon="0.84123">
        <ele>133.28</ele>
        <time>2013-03-24T10:29:45Z</time>
      </trkpt>
      <trkpt lat="44.55791" lon="0.84066">
        <ele>130.88</ele>
        <time>2013-03-24T10:29:58Z</time>
      </trkpt>
      <trkpt lat="44.55801" lon="0.84024">
        <ele>125.59</ele>
        <time>2013-03-24T10:30:07Z</time>
      </trkpt>
      <trkpt lat="44.55807" lon="0.84014">
        <ele>123.67</ele>
        <time>2013-03-24T10:30:12Z</time>
      </trkpt>
      <trkpt lat="44.55824" lon="0.84">
        <ele>122.22</ele>
        <time>2013-03-24T10:30:19Z</time>
      </trkpt>
      <trkpt lat="44.55831" lon="0.83991">
        <ele>122.71</ele>
        <time>2013-03-24T10:30:24Z</time>
      </trkpt>
      <trkpt lat="44.55841" lon="0.83978">
        <ele>124.63</ele>
        <time>2013-03-24T10:30:38Z</time>
      </trkpt>
      <trkpt lat="44.55843" lon="0.83975">
        <ele>125.11</ele>
        <time>2013-03-24T10:30:50Z</time>
      </trkpt>
      <trkpt lat="44.55848" lon="0.83969">
        <ele>125.59</ele>
        <time>2013-03-24T10:30:56Z</time>
      </trkpt>
      <trkpt lat="44.55852" lon="0.8396">
        <ele>127.51</ele>
        <time>2013-03-24T10:31:10Z</time>
      </trkpt>
      <trkpt lat="44.55865" lon="0.83935">
        <ele>128.47</ele>
        <time>2013-03-24T10:31:24Z</time>
      </trkpt>
      <trkpt lat="44.55879" lon="0.83905">
        <ele>130.4</ele>
        <time>2013-03-24T10:31:42Z</time>
      </trkpt>
      <trkpt lat="44.55892" lon="0.83888">
        <ele>133.76</ele>
        <time>2013-03-24T10:31:56Z</time>
      </trkpt>
      <trkpt lat="44.55893" lon="0.83887">
        <ele>134.24</ele>
        <time>2013-03-24T10:31:57Z</time>
      </trkpt>
      <trkpt lat="44.55895" lon="0.83882">
        <ele>134.72</ele>
        <time>2013-03-24T10:32:00Z</time>
      </trkpt>
      <trkpt lat="44.55903" lon="0.83869">
        <ele>136.16</ele>
        <time>2013-03-24T10:32:10Z</time>
      </trkpt>
      <trkpt lat="44.55904" lon="0.83866">
        <ele>136.64</ele>
        <time>2013-03-24T10:32:12Z</time>
      </trkpt>
      <trkpt lat="44.55907" lon="0.8386">
        <ele>136.64</ele>
        <time>2013-03-24T10:32:16Z</time>
      </trkpt>
      <trkpt lat="44.55909" lon="0.83855">
        <ele>137.13</ele>
        <time>2013-03-24T10:32:19Z</time>
      </trkpt>
      <trkpt lat="44.55918" lon="0.83833">
        <ele>138.09</ele>
        <time>2013-03-24T10:32:34Z</time>
      </trkpt>
      <trkpt lat="44.55927" lon="0.83816">
        <ele>140.01</ele>
        <time>2013-03-24T10:32:50Z</time>
      </trkpt>
      <trkpt lat="44.55931" lon="0.83813">
        <ele>140.97</ele>
        <time>2013-03-24T10:33:10Z</time>
      </trkpt>
      <trkpt lat="44.55943" lon="0.83797">
        <ele>140.97</ele>
        <time>2013-03-24T10:33:21Z</time>
      </trkpt>
      <trkpt lat="44.55953" lon="0.83777">
        <ele>143.85</ele>
        <time>2013-03-24T10:33:32Z</time>
      </trkpt>
      <trkpt lat="44.5595" lon="0.83769">
        <ele>143.85</ele>
        <time>2013-03-24T10:33:36Z</time>
      </trkpt>
      <trkpt lat="44.55946" lon="0.83758">
        <ele>141.93</ele>
        <time>2013-03-24T10:33:41Z</time>
      </trkpt>
      <trkpt lat="44.55946" lon="0.83755">
        <ele>141.93</ele>
        <time>2013-03-24T10:33:42Z</time>
      </trkpt>
      <trkpt lat="44.55947" lon="0.83751">
        <ele>141.93</ele>
        <time>2013-03-24T10:33:43Z</time>
      </trkpt>
      <trkpt lat="44.55961" lon="0.83708">
        <ele>141.93</ele>
        <time>2013-03-24T10:33:55Z</time>
      </trkpt>
      <trkpt lat="44.55969" lon="0.83651">
        <ele>142.89</ele>
        <time>2013-03-24T10:34:09Z</time>
      </trkpt>
      <trkpt lat="44.55947" lon="0.83627">
        <ele>138.57</ele>
        <time>2013-03-24T10:34:17Z</time>
      </trkpt>
      <trkpt lat="44.5593" lon="0.83624">
        <ele>138.09</ele>
        <time>2013-03-24T10:34:20Z</time>
      </trkpt>
      <trkpt lat="44.55917" lon="0.83587">
        <ele>135.68</ele>
        <time>2013-03-24T10:34:27Z</time>
      </trkpt>
      <trkpt lat="44.55903" lon="0.83563">
        <ele>133.28</ele>
        <time>2013-03-24T10:34:31Z</time>
      </trkpt>
      <trkpt lat="44.55898" lon="0.83552">
        <ele>131.36</ele>
        <time>2013-03-24T10:34:33Z</time>
      </trkpt>
      <trkpt lat="44.55891" lon="0.83544">
        <ele>129.92</ele>
        <time>2013-03-24T10:34:35Z</time>
      </trkpt>
      <trkpt lat="44.55881" lon="0.83509">
        <ele>127.51</ele>
        <time>2013-03-24T10:34:42Z</time>
      </trkpt>
      <trkpt lat="44.55859" lon="0.83495">
        <ele>129.43</ele>
        <time>2013-03-24T10:34:53Z</time>
      </trkpt>
      <trkpt lat="44.55835" lon="0.83481">
        <ele>129.92</ele>
        <time>2013-03-24T10:35:04Z</time>
      </trkpt>
      <trkpt lat="44.55834" lon="0.83479">
        <ele>129.43</ele>
        <time>2013-03-24T10:35:05Z</time>
      </trkpt>
      <trkpt lat="44.55836" lon="0.83468">
        <ele>128.95</ele>
        <time>2013-03-24T10:35:10Z</time>
      </trkpt>
      <trkpt lat="44.55839" lon="0.83467">
        <ele>128.95</ele>
        <time>2013-03-24T10:35:11Z</time>
      </trkpt>
      <trkpt lat="44.55841" lon="0.83467">
        <ele>128.47</ele>
        <time>2013-03-24T10:35:12Z</time>
      </trkpt>
      <trkpt lat="44.55897" lon="0.83456">
        <ele>130.88</ele>
        <time>2013-03-24T10:35:27Z</time>
      </trkpt>
      <trkpt lat="44.55919" lon="0.83426">
        <ele>132.32</ele>
        <time>2013-03-24T10:35:36Z</time>
      </trkpt>
      <trkpt lat="44.55927" lon="0.8339">
        <ele>131.84</ele>
        <time>2013-03-24T10:35:48Z</time>
      </trkpt>
      <trkpt lat="44.55933" lon="0.83326">
        <ele>136.16</ele>
        <time>2013-03-24T10:36:05Z</time>
      </trkpt>
      <trkpt lat="44.55934" lon="0.83275">
        <ele>137.13</ele>
        <time>2013-03-24T10:36:18Z</time>
      </trkpt>
      <trkpt lat="44.55944" lon="0.83191">
        <ele>139.05</ele>
        <time>2013-03-24T10:36:34Z</time>
      </trkpt>
      <trkpt lat="44.55961" lon="0.83104">
        <ele>140.49</ele>
        <time>2013-03-24T10:36:51Z</time>
      </trkpt>
      <trkpt lat="44.55977" lon="0.83039">
        <ele>138.57</ele>
        <time>2013-03-24T10:37:04Z</time>
      </trkpt>
      <trkpt lat="44.55986" lon="0.82994">
        <ele>137.13</ele>
        <time>2013-03-24T10:37:11Z</time>
      </trkpt>
      <trkpt lat="44.56009" lon="0.82881">
        <ele>131.84</ele>
        <time>2013-03-24T10:37:28Z</time>
      </trkpt>
      <trkpt lat="44.56022" lon="0.82772">
        <ele>118.38</ele>
        <time>2013-03-24T10:37:40Z</time>
      </trkpt>
      <trkpt lat="44.56024" lon="0.82756">
        <ele>116.46</ele>
        <time>2013-03-24T10:37:43Z</time>
      </trkpt>
      <trkpt lat="44.5605" lon="0.82741">
        <ele>120.3</ele>
        <time>2013-03-24T10:37:56Z</time>
      </trkpt>
      <trkpt lat="44.56079" lon="0.82727">
        <ele>123.19</ele>
        <time>2013-03-24T10:38:12Z</time>
      </trkpt>
      <trkpt lat="44.56093" lon="0.82714">
        <ele>124.15</ele>
        <time>2013-03-24T10:38:24Z</time>
      </trkpt>
      <trkpt lat="44.5611" lon="0.82688">
        <ele>127.51</ele>
        <time>2013-03-24T10:38:42Z</time>
      </trkpt>
      <trkpt lat="44.56121" lon="0.82663">
        <ele>129.43</ele>
        <time>2013-03-24T10:38:56Z</time>
      </trkpt>
      <trkpt lat="44.56123" lon="0.82659">
        <ele>130.4</ele>
        <time>2013-03-24T10:38:59Z</time>
      </trkpt>
      <trkpt lat="44.56128" lon="0.8264">
        <ele>129.92</ele>
        <time>2013-03-24T10:39:09Z</time>
      </trkpt>
      <trkpt lat="44.56133" lon="0.82622">
        <ele>130.88</ele>
        <time>2013-03-24T10:39:19Z</time>
      </trkpt>
      <trkpt lat="44.56148" lon="0.82603">
        <ele>129.92</ele>
        <time>2013-03-24T10:39:34Z</time>
      </trkpt>
      <trkpt lat="44.56165" lon="0.82585">
        <ele>131.36</ele>
        <time>2013-03-24T10:39:49Z</time>
      </trkpt>
      <trkpt lat="44.56185" lon="0.82559">
        <ele>132.32</ele>
        <time>2013-03-24T10:40:05Z</time>
      </trkpt>
      <trkpt lat="44.56202" lon="0.8253">
        <ele>132.8</ele>
        <time>2013-03-24T10:40:21Z</time>
      </trkpt>
      <trkpt lat="44.56221" lon="0.82491">
        <ele>133.76</ele>
        <time>2013-03-24T10:40:39Z</time>
      </trkpt>
      <trkpt lat="44.56241" lon="0.82452">
        <ele>135.68</ele>
        <time>2013-03-24T10:40:56Z</time>
      </trkpt>
      <trkpt lat="44.5625" lon="0.82419">
        <ele>136.16</ele>
        <time>2013-03-24T10:41:10Z</time>
      </trkpt>
      <trkpt lat="44.5624" lon="0.82395">
        <ele>135.2</ele>
        <time>2013-03-24T10:41:22Z</time>
      </trkpt>
      <trkpt lat="44.56225" lon="0.82359">
        <ele>134.72</ele>
        <time>2013-03-24T10:41:38Z</time>
      </trkpt>
      <trkpt lat="44.56212" lon="0.82323">
        <ele>134.24</ele>
        <time>2013-03-24T10:41:54Z</time>
      </trkpt>
      <trkpt lat="44.56197" lon="0.82286">
        <ele>136.16</ele>
        <time>2013-03-24T10:42:11Z</time>
      </trkpt>
      <trkpt lat="44.56184" lon="0.82251">
        <ele>138.09</ele>
        <time>2013-03-24T10:42:29Z</time>
      </trkpt>
      <trkpt lat="44.5618" lon="0.82241">
        <ele>139.05</ele>
        <time>2013-03-24T10:42:40Z</time>
      </trkpt>
      <trkpt lat="44.56172" lon="0.82215">
        <ele>139.05</ele>
        <time>2013-03-24T10:42:54Z</time>
      </trkpt>
      <trkpt lat="44.56162" lon="0.82169">
        <ele>140.97</ele>
        <time>2013-03-24T10:43:12Z</time>
      </trkpt>
      <trkpt lat="44.56149" lon="0.82124">
        <ele>142.41</ele>
        <time>2013-03-24T10:43:31Z</time>
      </trkpt>
      <trkpt lat="44.56139" lon="0.82085">
        <ele>144.34</ele>
        <time>2013-03-24T10:43:48Z</time>
      </trkpt>
      <trkpt lat="44.56134" lon="0.82054">
        <ele>145.3</ele>
        <time>2013-03-24T10:44:00Z</time>
      </trkpt>
      <trkpt lat="44.5616" lon="0.82052">
        <ele>145.78</ele>
        <time>2013-03-24T10:44:13Z</time>
      </trkpt>
      <trkpt lat="44.56181" lon="0.82034">
        <ele>147.22</ele>
        <time>2013-03-24T10:44:25Z</time>
      </trkpt>
      <trkpt lat="44.56181" lon="0.82032">
        <ele>147.22</ele>
        <time>2013-03-24T10:44:39Z</time>
      </trkpt>
    </trkseg>
  </trk>
</gpx>